<?xml version='1.0' encoding='UTF-8'?><gpx version="1.1" creator="JPX - https://github.com/jenetics/jpx" xmlns="http://www.topografix.com/GPX/1/1"><trk><trkseg><trkpt lat="37.3171738" lon="13.6551444"><ele>372.0</ele><time>2026-04-29T11:38:18.134Z</time></trkpt><trkpt lat="37.3171028" lon="13.6552674"><ele>372.0</ele><time>2026-04-29T11:38:20.135Z</time></trkpt><trkpt lat="37.3170536" lon="13.655347"><ele>372.0</ele><time>2026-04-29T11:38:22.134Z</time></trkpt><trkpt lat="37.3170251" lon="13.6554252"><ele>372.0</ele><time>2026-04-29T11:38:26.134Z</time></trkpt><trkpt lat="37.3169819" lon="13.6555286"><ele>372.0</ele><time>2026-04-29T11:38:37.134Z</time></trkpt><trkpt lat="37.3169197" lon="13.6556607"><ele>369.40000000000003</ele><time>2026-04-29T11:38:39.134Z</time></trkpt><trkpt lat="37.3168849" lon="13.6557282"><ele>366.8</ele><time>2026-04-29T11:38:40.134Z</time></trkpt><trkpt lat="37.316814" lon="13.6558547"><ele>364.2</ele><time>2026-04-29T11:38:42.133Z</time></trkpt><trkpt lat="37.3167428" lon="13.6559805"><ele>361.6</ele><time>2026-04-29T11:38:44.135Z</time></trkpt><trkpt lat="37.3166994" lon="13.6560521"><ele>359.0</ele><time>2026-04-29T11:38:45.133Z</time></trkpt><trkpt lat="37.3166472" lon="13.6561699"><ele>357.2</ele><time>2026-04-29T11:38:47.133Z</time></trkpt><trkpt lat="37.3166864" lon="13.6562738"><ele>355.4</ele><time>2026-04-29T11:38:51.134Z</time></trkpt><trkpt lat="37.316773" lon="13.6563713"><ele>353.6</ele><time>2026-04-29T11:38:53.133Z</time></trkpt><trkpt lat="37.31685" lon="13.6564228"><ele>351.8</ele><time>2026-04-29T11:38:54.135Z</time></trkpt><trkpt lat="37.3169174" lon="13.6564799"><ele>350.0</ele><time>2026-04-29T11:38:55.134Z</time></trkpt><trkpt lat="37.3169802" lon="13.6565358"><ele>350.0</ele><time>2026-04-29T11:38:56.134Z</time></trkpt><trkpt lat="37.317049" lon="13.6565957"><ele>350.0</ele><time>2026-04-29T11:38:57.134Z</time></trkpt><trkpt lat="37.3171125" lon="13.6566436"><ele>350.0</ele><time>2026-04-29T11:38:58.133Z</time></trkpt><trkpt lat="37.3171976" lon="13.6567492"><ele>350.0</ele><time>2026-04-29T11:39:00.134Z</time></trkpt><trkpt lat="37.3172964" lon="13.6567667"><ele>350.0</ele><time>2026-04-29T11:39:02.133Z</time></trkpt><trkpt lat="37.3173687" lon="13.6567025"><ele>349.83333333333337</ele><time>2026-04-29T11:39:04.134Z</time></trkpt><trkpt lat="37.3174308" lon="13.6566604"><ele>349.6666666666667</ele><time>2026-04-29T11:39:06.133Z</time></trkpt><trkpt lat="37.3174984" lon="13.656714"><ele>349.5</ele><time>2026-04-29T11:39:08.135Z</time></trkpt><trkpt lat="37.3175809" lon="13.6567589"><ele>349.3333333333333</ele><time>2026-04-29T11:39:11.134Z</time></trkpt><trkpt lat="37.3176551" lon="13.6567707"><ele>349.16666666666663</ele><time>2026-04-29T11:39:13.134Z</time></trkpt><trkpt lat="37.3176353" lon="13.6569169"><ele>349.0</ele><time>2026-04-29T11:39:16.134Z</time></trkpt><trkpt lat="37.3175746" lon="13.656976"><ele>346.79999999999995</ele><time>2026-04-29T11:39:17.134Z</time></trkpt><trkpt lat="37.3175525" lon="13.6570549"><ele>344.59999999999997</ele><time>2026-04-29T11:39:18.134Z</time></trkpt><trkpt lat="37.3174929" lon="13.6571764"><ele>342.4</ele><time>2026-04-29T11:39:20.133Z</time></trkpt><trkpt lat="37.3174846" lon="13.6573105"><ele>340.2</ele><time>2026-04-29T11:39:22.133Z</time></trkpt><trkpt lat="37.3175082" lon="13.6574358"><ele>338.0</ele><time>2026-04-29T11:39:24.133Z</time></trkpt><trkpt lat="37.3175488" lon="13.657512"><ele>338.0</ele><time>2026-04-29T11:39:26.134Z</time></trkpt><trkpt lat="37.3176253" lon="13.6575229"><ele>338.0</ele><time>2026-04-29T11:39:28.134Z</time></trkpt><trkpt lat="37.317737" lon="13.6575132"><ele>338.0</ele><time>2026-04-29T11:39:30.133Z</time></trkpt><trkpt lat="37.3178502" lon="13.6575116"><ele>338.0</ele><time>2026-04-29T11:39:32.134Z</time></trkpt><trkpt lat="37.3179512" lon="13.6575324"><ele>338.0</ele><time>2026-04-29T11:39:34.134Z</time></trkpt><trkpt lat="37.3180464" lon="13.6575713"><ele>337.79999999999995</ele><time>2026-04-29T11:39:36.134Z</time></trkpt><trkpt lat="37.3180798" lon="13.657664"><ele>337.6</ele><time>2026-04-29T11:39:38.134Z</time></trkpt><trkpt lat="37.3181058" lon="13.6577877"><ele>337.4</ele><time>2026-04-29T11:39:40.134Z</time></trkpt><trkpt lat="37.3181428" lon="13.6578566"><ele>337.20000000000005</ele><time>2026-04-29T11:39:42.134Z</time></trkpt><trkpt lat="37.3182448" lon="13.6578362"><ele>337.0</ele><time>2026-04-29T11:39:44.134Z</time></trkpt><trkpt lat="37.3183488" lon="13.6578109"><ele>336.3333333333333</ele><time>2026-04-29T11:39:46.134Z</time></trkpt><trkpt lat="37.3184112" lon="13.6577962"><ele>335.66666666666663</ele><time>2026-04-29T11:39:48.133Z</time></trkpt><trkpt lat="37.3184635" lon="13.6578764"><ele>335.0</ele><time>2026-04-29T11:39:53.133Z</time></trkpt><trkpt lat="37.3184969" lon="13.6579859"><ele>334.3333333333333</ele><time>2026-04-29T11:39:55.134Z</time></trkpt><trkpt lat="37.3185041" lon="13.6580755"><ele>333.6666666666667</ele><time>2026-04-29T11:39:56.134Z</time></trkpt><trkpt lat="37.3185128" lon="13.6581715"><ele>333.0</ele><time>2026-04-29T11:39:57.134Z</time></trkpt><trkpt lat="37.318529" lon="13.6582755"><ele>333.0</ele><time>2026-04-29T11:39:58.134Z</time></trkpt><trkpt lat="37.3185496" lon="13.6583802"><ele>333.0</ele><time>2026-04-29T11:39:59.133Z</time></trkpt><trkpt lat="37.3185628" lon="13.6584927"><ele>333.0</ele><time>2026-04-29T11:40:00.134Z</time></trkpt><trkpt lat="37.3185915" lon="13.6586048"><ele>333.0</ele><time>2026-04-29T11:40:01.133Z</time></trkpt><trkpt lat="37.318617" lon="13.6587201"><ele>333.0</ele><time>2026-04-29T11:40:02.133Z</time></trkpt><trkpt lat="37.3186485" lon="13.6588421"><ele>332.6666666666667</ele><time>2026-04-29T11:40:03.134Z</time></trkpt><trkpt lat="37.3186719" lon="13.6589631"><ele>332.3333333333333</ele><time>2026-04-29T11:40:04.134Z</time></trkpt><trkpt lat="37.3186915" lon="13.659082"><ele>332.0</ele><time>2026-04-29T11:40:05.135Z</time></trkpt><trkpt lat="37.3187022" lon="13.6591891"><ele>331.66666666666663</ele><time>2026-04-29T11:40:06.134Z</time></trkpt><trkpt lat="37.3187271" lon="13.6592716"><ele>331.3333333333333</ele><time>2026-04-29T11:40:07.133Z</time></trkpt><trkpt lat="37.3187526" lon="13.6593482"><ele>331.0</ele><time>2026-04-29T11:40:08.134Z</time></trkpt><trkpt lat="37.3187607" lon="13.6594702"><ele>330.0</ele><time>2026-04-29T11:40:10.133Z</time></trkpt><trkpt lat="37.3186755" lon="13.6595287"><ele>329.0</ele><time>2026-04-29T11:40:12.134Z</time></trkpt><trkpt lat="37.3185962" lon="13.659606"><ele>328.0</ele><time>2026-04-29T11:40:15.133Z</time></trkpt><trkpt lat="37.31852" lon="13.6597048"><ele>327.0</ele><time>2026-04-29T11:40:17.133Z</time></trkpt><trkpt lat="37.3184726" lon="13.6597774"><ele>326.0</ele><time>2026-04-29T11:40:19.134Z</time></trkpt><trkpt lat="37.3183823" lon="13.6598639"><ele>326.0</ele><time>2026-04-29T11:40:22.134Z</time></trkpt><trkpt lat="37.3183185" lon="13.6599042"><ele>326.0</ele><time>2026-04-29T11:40:23.134Z</time></trkpt><trkpt lat="37.3182539" lon="13.6599373"><ele>326.0</ele><time>2026-04-29T11:40:24.134Z</time></trkpt><trkpt lat="37.3181626" lon="13.6600133"><ele>326.0</ele><time>2026-04-29T11:40:26.134Z</time></trkpt><trkpt lat="37.3181282" lon="13.6600936"><ele>326.0</ele><time>2026-04-29T11:40:28.135Z</time></trkpt><trkpt lat="37.318115" lon="13.6602103"><ele>326.0</ele><time>2026-04-29T11:40:30.133Z</time></trkpt><trkpt lat="37.31813" lon="13.6603474"><ele>325.20000000000005</ele><time>2026-04-29T11:40:32.134Z</time></trkpt><trkpt lat="37.3181696" lon="13.660425"><ele>324.40000000000003</ele><time>2026-04-29T11:40:34.133Z</time></trkpt><trkpt lat="37.3182052" lon="13.6605416"><ele>323.6</ele><time>2026-04-29T11:40:36.134Z</time></trkpt><trkpt lat="37.3182539" lon="13.6606939"><ele>322.8</ele><time>2026-04-29T11:40:38.133Z</time></trkpt><trkpt lat="37.3182872" lon="13.6607618"><ele>322.0</ele><time>2026-04-29T11:40:39.134Z</time></trkpt><trkpt lat="37.3183428" lon="13.6608927"><ele>322.0</ele><time>2026-04-29T11:40:41.133Z</time></trkpt><trkpt lat="37.3183634" lon="13.6609776"><ele>322.0</ele><time>2026-04-29T11:40:43.133Z</time></trkpt><trkpt lat="37.3183484" lon="13.6610704"><ele>322.0</ele><time>2026-04-29T11:40:46.134Z</time></trkpt><trkpt lat="37.3183219" lon="13.661149"><ele>322.0</ele><time>2026-04-29T11:40:49.134Z</time></trkpt><trkpt lat="37.3182315" lon="13.6611895"><ele>322.0</ele><time>2026-04-29T11:40:51.132Z</time></trkpt><trkpt lat="37.3181449" lon="13.6611863"><ele>322.0</ele><time>2026-04-29T11:40:52.134Z</time></trkpt><trkpt lat="37.3180604" lon="13.661174"><ele>321.3333333333333</ele><time>2026-04-29T11:40:53.133Z</time></trkpt><trkpt lat="37.3179563" lon="13.6611468"><ele>320.66666666666663</ele><time>2026-04-29T11:40:54.133Z</time></trkpt><trkpt lat="37.317877" lon="13.661125"><ele>320.0</ele><time>2026-04-29T11:40:55.132Z</time></trkpt><trkpt lat="37.3177936" lon="13.6611141"><ele>319.3333333333333</ele><time>2026-04-29T11:40:56.133Z</time></trkpt><trkpt lat="37.3176959" lon="13.6611727"><ele>318.6666666666667</ele><time>2026-04-29T11:40:58.134Z</time></trkpt><trkpt lat="37.3176536" lon="13.6612384"><ele>318.0</ele><time>2026-04-29T11:40:59.133Z</time></trkpt><trkpt lat="37.3176387" lon="13.6613622"><ele>317.25</ele><time>2026-04-29T11:41:00.133Z</time></trkpt><trkpt lat="37.3176213" lon="13.6614916"><ele>316.5</ele><time>2026-04-29T11:41:01.134Z</time></trkpt><trkpt lat="37.3176044" lon="13.661629"><ele>315.75</ele><time>2026-04-29T11:41:02.134Z</time></trkpt><trkpt lat="37.317596" lon="13.6617937"><ele>315.0</ele><time>2026-04-29T11:41:03.133Z</time></trkpt><trkpt lat="37.317582" lon="13.6619385"><ele>315.3333333333333</ele><time>2026-04-29T11:41:04.132Z</time></trkpt><trkpt lat="37.3175588" lon="13.6620659"><ele>315.6666666666667</ele><time>2026-04-29T11:41:05.133Z</time></trkpt><trkpt lat="37.3175304" lon="13.6621731"><ele>316.0</ele><time>2026-04-29T11:41:06.134Z</time></trkpt><trkpt lat="37.3174722" lon="13.6622601"><ele>316.33333333333337</ele><time>2026-04-29T11:41:07.132Z</time></trkpt><trkpt lat="37.3174269" lon="13.6623383"><ele>316.6666666666667</ele><time>2026-04-29T11:41:08.132Z</time></trkpt><trkpt lat="37.3173607" lon="13.6624005"><ele>317.0</ele><time>2026-04-29T11:41:09.133Z</time></trkpt><trkpt lat="37.317268" lon="13.6624558"><ele>317.6666666666667</ele><time>2026-04-29T11:41:10.134Z</time></trkpt><trkpt lat="37.3171821" lon="13.6625306"><ele>318.33333333333337</ele><time>2026-04-29T11:41:11.133Z</time></trkpt><trkpt lat="37.3171164" lon="13.6625973"><ele>319.0</ele><time>2026-04-29T11:41:12.134Z</time></trkpt><trkpt lat="37.3170422" lon="13.6626539"><ele>319.6666666666667</ele><time>2026-04-29T11:41:13.134Z</time></trkpt><trkpt lat="37.3169773" lon="13.6626884"><ele>320.3333333333333</ele><time>2026-04-29T11:41:14.133Z</time></trkpt><trkpt lat="37.3169224" lon="13.6627304"><ele>321.0</ele><time>2026-04-29T11:41:15.134Z</time></trkpt><trkpt lat="37.316832" lon="13.6627863"><ele>321.0</ele><time>2026-04-29T11:41:18.133Z</time></trkpt><trkpt lat="37.3167454" lon="13.662894"><ele>321.0</ele><time>2026-04-29T11:41:20.132Z</time></trkpt><trkpt lat="37.3166545" lon="13.6629983"><ele>321.0</ele><time>2026-04-29T11:41:22.133Z</time></trkpt><trkpt lat="37.316577" lon="13.6630148"><ele>321.0</ele><time>2026-04-29T11:41:23.134Z</time></trkpt><trkpt lat="37.3164788" lon="13.6630469"><ele>321.0</ele><time>2026-04-29T11:41:24.133Z</time></trkpt><trkpt lat="37.3164243" lon="13.6631401"><ele>320.5</ele><time>2026-04-29T11:41:25.133Z</time></trkpt><trkpt lat="37.3163603" lon="13.6632209"><ele>320.0</ele><time>2026-04-29T11:41:26.133Z</time></trkpt><trkpt lat="37.3163069" lon="13.6632927"><ele>319.5</ele><time>2026-04-29T11:41:27.134Z</time></trkpt><trkpt lat="37.3162567" lon="13.6633521"><ele>319.0</ele><time>2026-04-29T11:41:28.134Z</time></trkpt><trkpt lat="37.3162141" lon="13.6634279"><ele>318.5</ele><time>2026-04-29T11:41:29.132Z</time></trkpt><trkpt lat="37.3161758" lon="13.6634927"><ele>318.0</ele><time>2026-04-29T11:41:30.134Z</time></trkpt><trkpt lat="37.3160881" lon="13.6635395"><ele>318.0</ele><time>2026-04-29T11:41:31.133Z</time></trkpt><trkpt lat="37.3160285" lon="13.663591"><ele>318.0</ele><time>2026-04-29T11:41:32.133Z</time></trkpt><trkpt lat="37.3159756" lon="13.6636345"><ele>318.0</ele><time>2026-04-29T11:41:33.132Z</time></trkpt><trkpt lat="37.3159124" lon="13.6636682"><ele>318.0</ele><time>2026-04-29T11:41:34.134Z</time></trkpt><trkpt lat="37.3158651" lon="13.663725"><ele>318.0</ele><time>2026-04-29T11:41:35.134Z</time></trkpt><trkpt lat="37.3158201" lon="13.663789"><ele>318.0</ele><time>2026-04-29T11:41:36.133Z</time></trkpt><trkpt lat="37.3158096" lon="13.6638905"><ele>318.0</ele><time>2026-04-29T11:41:37.133Z</time></trkpt><trkpt lat="37.3157904" lon="13.6639834"><ele>318.1428571428571</ele><time>2026-04-29T11:41:38.133Z</time></trkpt><trkpt lat="37.3157764" lon="13.6640779"><ele>318.28571428571433</ele><time>2026-04-29T11:41:39.132Z</time></trkpt><trkpt lat="37.3157323" lon="13.6641473"><ele>318.42857142857144</ele><time>2026-04-29T11:41:40.134Z</time></trkpt><trkpt lat="37.3156774" lon="13.6641975"><ele>318.57142857142856</ele><time>2026-04-29T11:41:41.134Z</time></trkpt><trkpt lat="37.3156079" lon="13.6642285"><ele>318.71428571428567</ele><time>2026-04-29T11:41:42.134Z</time></trkpt><trkpt lat="37.3155409" lon="13.6642759"><ele>318.8571428571429</ele><time>2026-04-29T11:41:43.133Z</time></trkpt><trkpt lat="37.315464" lon="13.6643044"><ele>319.0</ele><time>2026-04-29T11:41:44.132Z</time></trkpt><trkpt lat="37.3153811" lon="13.6644074"><ele>320.8333333333333</ele><time>2026-04-29T11:41:46.134Z</time></trkpt><trkpt lat="37.3153561" lon="13.6645188"><ele>322.66666666666663</ele><time>2026-04-29T11:41:48.132Z</time></trkpt><trkpt lat="37.3154331" lon="13.664537"><ele>324.5</ele><time>2026-04-29T11:41:50.133Z</time></trkpt><trkpt lat="37.3155393" lon="13.6644797"><ele>326.3333333333333</ele><time>2026-04-29T11:41:52.135Z</time></trkpt><trkpt lat="37.3156017" lon="13.6644414"><ele>328.1666666666667</ele><time>2026-04-29T11:41:53.134Z</time></trkpt><trkpt lat="37.3156678" lon="13.6644176"><ele>330.0</ele><time>2026-04-29T11:41:54.133Z</time></trkpt><trkpt lat="37.3157363" lon="13.6644103"><ele>330.0</ele><time>2026-04-29T11:41:55.133Z</time></trkpt><trkpt lat="37.3158088" lon="13.664435"><ele>330.0</ele><time>2026-04-29T11:41:56.133Z</time></trkpt><trkpt lat="37.3158707" lon="13.6644567"><ele>330.0</ele><time>2026-04-29T11:41:57.133Z</time></trkpt><trkpt lat="37.3159558" lon="13.6645511"><ele>330.0</ele><time>2026-04-29T11:41:59.134Z</time></trkpt><trkpt lat="37.3159665" lon="13.6647106"><ele>330.0</ele><time>2026-04-29T11:42:01.133Z</time></trkpt><trkpt lat="37.3159317" lon="13.6648066"><ele>330.1666666666667</ele><time>2026-04-29T11:42:02.133Z</time></trkpt><trkpt lat="37.3158854" lon="13.6649023"><ele>330.3333333333333</ele><time>2026-04-29T11:42:03.134Z</time></trkpt><trkpt lat="37.3158297" lon="13.6649914"><ele>330.5</ele><time>2026-04-29T11:42:04.134Z</time></trkpt><trkpt lat="37.3157694" lon="13.6650663"><ele>330.66666666666663</ele><time>2026-04-29T11:42:05.133Z</time></trkpt><trkpt lat="37.3157066" lon="13.6651278"><ele>330.8333333333333</ele><time>2026-04-29T11:42:06.133Z</time></trkpt><trkpt lat="37.3156211" lon="13.6651794"><ele>331.0</ele><time>2026-04-29T11:42:07.132Z</time></trkpt><trkpt lat="37.3155367" lon="13.6652381"><ele>330.5</ele><time>2026-04-29T11:42:08.134Z</time></trkpt><trkpt lat="37.3154531" lon="13.6652988"><ele>330.0</ele><time>2026-04-29T11:42:09.134Z</time></trkpt><trkpt lat="37.3153681" lon="13.6653409"><ele>329.5</ele><time>2026-04-29T11:42:10.133Z</time></trkpt><trkpt lat="37.3153099" lon="13.6653983"><ele>329.0</ele><time>2026-04-29T11:42:11.134Z</time></trkpt><trkpt lat="37.3152412" lon="13.6654449"><ele>328.5</ele><time>2026-04-29T11:42:12.133Z</time></trkpt><trkpt lat="37.3151759" lon="13.665484"><ele>328.0</ele><time>2026-04-29T11:42:13.132Z</time></trkpt><trkpt lat="37.315078" lon="13.6655281"><ele>328.0</ele><time>2026-04-29T11:42:15.134Z</time></trkpt><trkpt lat="37.3150671" lon="13.665652"><ele>328.0</ele><time>2026-04-29T11:42:17.134Z</time></trkpt><trkpt lat="37.3150752" lon="13.6657391"><ele>328.0</ele><time>2026-04-29T11:42:18.134Z</time></trkpt><trkpt lat="37.3150821" lon="13.6658301"><ele>328.0</ele><time>2026-04-29T11:42:19.132Z</time></trkpt><trkpt lat="37.3150847" lon="13.6659288"><ele>328.0</ele><time>2026-04-29T11:42:20.133Z</time></trkpt><trkpt lat="37.3150877" lon="13.6660189"><ele>328.0</ele><time>2026-04-29T11:42:21.133Z</time></trkpt><trkpt lat="37.3150996" lon="13.6660968"><ele>327.0</ele><time>2026-04-29T11:42:22.134Z</time></trkpt><trkpt lat="37.3151006" lon="13.6662191"><ele>326.0</ele><time>2026-04-29T11:42:24.132Z</time></trkpt><trkpt lat="37.3150036" lon="13.6662659"><ele>325.0</ele><time>2026-04-29T11:42:26.134Z</time></trkpt><trkpt lat="37.3148877" lon="13.6662958"><ele>324.0</ele><time>2026-04-29T11:42:28.133Z</time></trkpt><trkpt lat="37.314769" lon="13.6663119"><ele>323.0</ele><time>2026-04-29T11:42:30.134Z</time></trkpt><trkpt lat="37.3146512" lon="13.6663344"><ele>321.6666666666667</ele><time>2026-04-29T11:42:32.134Z</time></trkpt><trkpt lat="37.3145851" lon="13.6663402"><ele>320.33333333333337</ele><time>2026-04-29T11:42:33.132Z</time></trkpt><trkpt lat="37.3144882" lon="13.666348"><ele>319.0</ele><time>2026-04-29T11:42:35.133Z</time></trkpt><trkpt lat="37.314413" lon="13.6663821"><ele>317.6666666666667</ele><time>2026-04-29T11:42:37.135Z</time></trkpt><trkpt lat="37.3144483" lon="13.6665201"><ele>316.3333333333333</ele><time>2026-04-29T11:42:39.133Z</time></trkpt><trkpt lat="37.3144556" lon="13.6666132"><ele>315.0</ele><time>2026-04-29T11:42:40.134Z</time></trkpt><trkpt lat="37.314471" lon="13.6666918"><ele>315.0</ele><time>2026-04-29T11:42:41.132Z</time></trkpt><trkpt lat="37.3144805" lon="13.6668238"><ele>315.0</ele><time>2026-04-29T11:42:43.134Z</time></trkpt><trkpt lat="37.3145032" lon="13.6669032"><ele>315.0</ele><time>2026-04-29T11:42:45.133Z</time></trkpt><trkpt lat="37.3144123" lon="13.6669441"><ele>315.0</ele><time>2026-04-29T11:42:47.133Z</time></trkpt><trkpt lat="37.3143225" lon="13.6669697"><ele>315.0</ele><time>2026-04-29T11:42:49.134Z</time></trkpt><trkpt lat="37.3142412" lon="13.6669899"><ele>315.0</ele><time>2026-04-29T11:42:51.133Z</time></trkpt><trkpt lat="37.314133" lon="13.6670137"><ele>314.4</ele><time>2026-04-29T11:42:55.133Z</time></trkpt><trkpt lat="37.3140263" lon="13.6670198"><ele>313.8</ele><time>2026-04-29T11:42:57.134Z</time></trkpt><trkpt lat="37.3139455" lon="13.6670379"><ele>313.2</ele><time>2026-04-29T11:42:58.134Z</time></trkpt><trkpt lat="37.3138532" lon="13.6670578"><ele>312.6</ele><time>2026-04-29T11:42:59.133Z</time></trkpt><trkpt lat="37.3137555" lon="13.6670708"><ele>312.0</ele><time>2026-04-29T11:43:00.133Z</time></trkpt><trkpt lat="37.3136654" lon="13.6670767"><ele>311.8</ele><time>2026-04-29T11:43:01.135Z</time></trkpt><trkpt lat="37.3135435" lon="13.6670674"><ele>311.6</ele><time>2026-04-29T11:43:03.133Z</time></trkpt><trkpt lat="37.313474" lon="13.6669878"><ele>311.40000000000003</ele><time>2026-04-29T11:43:05.133Z</time></trkpt><trkpt lat="37.3134617" lon="13.6668904"><ele>311.2</ele><time>2026-04-29T11:43:06.133Z</time></trkpt><trkpt lat="37.3134439" lon="13.6667987"><ele>311.0</ele><time>2026-04-29T11:43:07.134Z</time></trkpt><trkpt lat="37.3134035" lon="13.6666663"><ele>311.1666666666667</ele><time>2026-04-29T11:43:09.134Z</time></trkpt><trkpt lat="37.3133367" lon="13.6666177"><ele>311.33333333333337</ele><time>2026-04-29T11:43:11.133Z</time></trkpt><trkpt lat="37.3132705" lon="13.6666193"><ele>311.5</ele><time>2026-04-29T11:43:12.134Z</time></trkpt><trkpt lat="37.3131851" lon="13.6666412"><ele>311.6666666666667</ele><time>2026-04-29T11:43:13.132Z</time></trkpt><trkpt lat="37.3130944" lon="13.6666555"><ele>311.8333333333333</ele><time>2026-04-29T11:43:14.132Z</time></trkpt><trkpt lat="37.3129944" lon="13.6666721"><ele>312.0</ele><time>2026-04-29T11:43:15.134Z</time></trkpt><trkpt lat="37.3128968" lon="13.6666914"><ele>312.0</ele><time>2026-04-29T11:43:16.134Z</time></trkpt><trkpt lat="37.3128177" lon="13.6667106"><ele>312.0</ele><time>2026-04-29T11:43:17.134Z</time></trkpt><trkpt lat="37.3127089" lon="13.6667544"><ele>312.0</ele><time>2026-04-29T11:43:19.133Z</time></trkpt><trkpt lat="37.3126264" lon="13.6668611"><ele>312.0</ele><time>2026-04-29T11:43:21.132Z</time></trkpt><trkpt lat="37.3125795" lon="13.6669525"><ele>312.0</ele><time>2026-04-29T11:43:22.132Z</time></trkpt><trkpt lat="37.3125248" lon="13.6670508"><ele>311.4</ele><time>2026-04-29T11:43:23.134Z</time></trkpt><trkpt lat="37.3124707" lon="13.667163"><ele>310.79999999999995</ele><time>2026-04-29T11:43:24.133Z</time></trkpt><trkpt lat="37.3124007" lon="13.6672883"><ele>310.2</ele><time>2026-04-29T11:43:25.134Z</time></trkpt><trkpt lat="37.3123324" lon="13.6674081"><ele>309.59999999999997</ele><time>2026-04-29T11:43:26.134Z</time></trkpt><trkpt lat="37.3122834" lon="13.6674984"><ele>309.0</ele><time>2026-04-29T11:43:27.134Z</time></trkpt><trkpt lat="37.3122379" lon="13.6675824"><ele>309.0</ele><time>2026-04-29T11:43:28.133Z</time></trkpt><trkpt lat="37.3121914" lon="13.6676652"><ele>309.0</ele><time>2026-04-29T11:43:29.133Z</time></trkpt><trkpt lat="37.3121379" lon="13.667762"><ele>309.0</ele><time>2026-04-29T11:43:30.133Z</time></trkpt><trkpt lat="37.3120805" lon="13.6678511"><ele>309.0</ele><time>2026-04-29T11:43:31.133Z</time></trkpt><trkpt lat="37.3120262" lon="13.6679373"><ele>309.0</ele><time>2026-04-29T11:43:32.133Z</time></trkpt><trkpt lat="37.3119536" lon="13.6680153"><ele>309.0</ele><time>2026-04-29T11:43:33.135Z</time></trkpt><trkpt lat="37.3118603" lon="13.6680816"><ele>307.5</ele><time>2026-04-29T11:43:34.134Z</time></trkpt><trkpt lat="37.3117667" lon="13.6681605"><ele>306.0</ele><time>2026-04-29T11:43:35.133Z</time></trkpt><trkpt lat="37.3116664" lon="13.6682488"><ele>304.5</ele><time>2026-04-29T11:43:36.133Z</time></trkpt><trkpt lat="37.3115676" lon="13.6683498"><ele>303.0</ele><time>2026-04-29T11:43:37.134Z</time></trkpt><trkpt lat="37.3114721" lon="13.6684544"><ele>303.5</ele><time>2026-04-29T11:43:38.134Z</time></trkpt><trkpt lat="37.3113871" lon="13.6685841"><ele>304.0</ele><time>2026-04-29T11:43:39.134Z</time></trkpt><trkpt lat="37.3113073" lon="13.6687185"><ele>304.5</ele><time>2026-04-29T11:43:40.132Z</time></trkpt><trkpt lat="37.3112395" lon="13.6688539"><ele>305.0</ele><time>2026-04-29T11:43:41.133Z</time></trkpt><trkpt lat="37.3111722" lon="13.6689908"><ele>303.5</ele><time>2026-04-29T11:43:42.134Z</time></trkpt><trkpt lat="37.3110935" lon="13.6691259"><ele>302.0</ele><time>2026-04-29T11:43:43.134Z</time></trkpt><trkpt lat="37.3110208" lon="13.6692568"><ele>300.5</ele><time>2026-04-29T11:43:44.134Z</time></trkpt><trkpt lat="37.3109566" lon="13.6693876"><ele>299.0</ele><time>2026-04-29T11:43:45.133Z</time></trkpt><trkpt lat="37.3108911" lon="13.6695287"><ele>298.25</ele><time>2026-04-29T11:43:46.133Z</time></trkpt><trkpt lat="37.3108218" lon="13.6696718"><ele>297.5</ele><time>2026-04-29T11:43:47.133Z</time></trkpt><trkpt lat="37.3107527" lon="13.6698019"><ele>296.75</ele><time>2026-04-29T11:43:48.134Z</time></trkpt><trkpt lat="37.3106884" lon="13.6699245"><ele>296.0</ele><time>2026-04-29T11:43:49.134Z</time></trkpt><trkpt lat="37.3106264" lon="13.6700438"><ele>295.75</ele><time>2026-04-29T11:43:50.133Z</time></trkpt><trkpt lat="37.3105604" lon="13.6701588"><ele>295.5</ele><time>2026-04-29T11:43:51.132Z</time></trkpt><trkpt lat="37.3104939" lon="13.6702835"><ele>295.25</ele><time>2026-04-29T11:43:52.133Z</time></trkpt><trkpt lat="37.3104265" lon="13.670414"><ele>295.0</ele><time>2026-04-29T11:43:53.133Z</time></trkpt><trkpt lat="37.3103668" lon="13.6705306"><ele>295.0</ele><time>2026-04-29T11:43:54.133Z</time></trkpt><trkpt lat="37.3103212" lon="13.670631"><ele>295.0</ele><time>2026-04-29T11:43:55.133Z</time></trkpt><trkpt lat="37.3102746" lon="13.6707222"><ele>295.0</ele><time>2026-04-29T11:43:56.134Z</time></trkpt><trkpt lat="37.3102191" lon="13.6708185"><ele>295.0</ele><time>2026-04-29T11:43:57.133Z</time></trkpt><trkpt lat="37.3101507" lon="13.670911"><ele>295.0</ele><time>2026-04-29T11:43:58.134Z</time></trkpt><trkpt lat="37.3100743" lon="13.671015"><ele>294.5</ele><time>2026-04-29T11:43:59.134Z</time></trkpt><trkpt lat="37.3099844" lon="13.671119"><ele>294.0</ele><time>2026-04-29T11:44:00.134Z</time></trkpt><trkpt lat="37.3098889" lon="13.6712211"><ele>293.5</ele><time>2026-04-29T11:44:01.133Z</time></trkpt><trkpt lat="37.3097972" lon="13.6713164"><ele>293.0</ele><time>2026-04-29T11:44:02.132Z</time></trkpt><trkpt lat="37.3097084" lon="13.6714014"><ele>293.0</ele><time>2026-04-29T11:44:03.132Z</time></trkpt><trkpt lat="37.3096117" lon="13.6714748"><ele>293.0</ele><time>2026-04-29T11:44:04.132Z</time></trkpt><trkpt lat="37.30951" lon="13.6715467"><ele>293.0</ele><time>2026-04-29T11:44:05.133Z</time></trkpt><trkpt lat="37.3094144" lon="13.6716102"><ele>293.0</ele><time>2026-04-29T11:44:06.133Z</time></trkpt><trkpt lat="37.3093204" lon="13.6716653"><ele>293.0</ele><time>2026-04-29T11:44:07.132Z</time></trkpt><trkpt lat="37.3092304" lon="13.6717157"><ele>293.0</ele><time>2026-04-29T11:44:08.133Z</time></trkpt><trkpt lat="37.3091454" lon="13.6717654"><ele>293.0</ele><time>2026-04-29T11:44:09.132Z</time></trkpt><trkpt lat="37.3090578" lon="13.6718269"><ele>293.0</ele><time>2026-04-29T11:44:10.133Z</time></trkpt><trkpt lat="37.3089769" lon="13.6718895"><ele>293.0</ele><time>2026-04-29T11:44:11.132Z</time></trkpt><trkpt lat="37.3089036" lon="13.6719587"><ele>293.0</ele><time>2026-04-29T11:44:12.134Z</time></trkpt><trkpt lat="37.3088302" lon="13.6720266"><ele>291.83333333333337</ele><time>2026-04-29T11:44:13.132Z</time></trkpt><trkpt lat="37.3087547" lon="13.672098"><ele>290.6666666666667</ele><time>2026-04-29T11:44:14.133Z</time></trkpt><trkpt lat="37.3086815" lon="13.6721733"><ele>289.5</ele><time>2026-04-29T11:44:15.132Z</time></trkpt><trkpt lat="37.3086208" lon="13.6722488"><ele>288.3333333333333</ele><time>2026-04-29T11:44:16.134Z</time></trkpt><trkpt lat="37.3085612" lon="13.6723191"><ele>287.16666666666663</ele><time>2026-04-29T11:44:17.133Z</time></trkpt><trkpt lat="37.3085004" lon="13.6723795"><ele>286.0</ele><time>2026-04-29T11:44:18.132Z</time></trkpt><trkpt lat="37.308432" lon="13.6724185"><ele>286.0</ele><time>2026-04-29T11:44:19.133Z</time></trkpt><trkpt lat="37.3083502" lon="13.6724493"><ele>286.0</ele><time>2026-04-29T11:44:20.133Z</time></trkpt><trkpt lat="37.3082589" lon="13.6724824"><ele>286.0</ele><time>2026-04-29T11:44:21.132Z</time></trkpt><trkpt lat="37.3081779" lon="13.6725235"><ele>286.0</ele><time>2026-04-29T11:44:22.133Z</time></trkpt><trkpt lat="37.3080955" lon="13.6725626"><ele>286.0</ele><time>2026-04-29T11:44:23.134Z</time></trkpt><trkpt lat="37.3080255" lon="13.6726028"><ele>286.0</ele><time>2026-04-29T11:44:24.133Z</time></trkpt><trkpt lat="37.3079566" lon="13.6726318"><ele>286.3333333333333</ele><time>2026-04-29T11:44:25.132Z</time></trkpt><trkpt lat="37.3078944" lon="13.67266"><ele>286.66666666666663</ele><time>2026-04-29T11:44:26.133Z</time></trkpt><trkpt lat="37.3078352" lon="13.6727059"><ele>287.0</ele><time>2026-04-29T11:44:27.133Z</time></trkpt><trkpt lat="37.3077701" lon="13.6727524"><ele>287.3333333333333</ele><time>2026-04-29T11:44:28.132Z</time></trkpt><trkpt lat="37.3076914" lon="13.6727805"><ele>287.6666666666667</ele><time>2026-04-29T11:44:29.133Z</time></trkpt><trkpt lat="37.3076019" lon="13.6728013"><ele>288.0</ele><time>2026-04-29T11:44:30.134Z</time></trkpt><trkpt lat="37.3075013" lon="13.672819"><ele>287.6</ele><time>2026-04-29T11:44:31.133Z</time></trkpt><trkpt lat="37.3073994" lon="13.6728322"><ele>287.20000000000005</ele><time>2026-04-29T11:44:32.133Z</time></trkpt><trkpt lat="37.3073018" lon="13.6728413"><ele>286.8</ele><time>2026-04-29T11:44:33.135Z</time></trkpt><trkpt lat="37.3072034" lon="13.6728618"><ele>286.40000000000003</ele><time>2026-04-29T11:44:34.133Z</time></trkpt><trkpt lat="37.3071126" lon="13.6728778"><ele>286.0</ele><time>2026-04-29T11:44:35.133Z</time></trkpt><trkpt lat="37.3070263" lon="13.6728941"><ele>286.0</ele><time>2026-04-29T11:44:36.133Z</time></trkpt><trkpt lat="37.3069416" lon="13.6729092"><ele>286.0</ele><time>2026-04-29T11:44:37.134Z</time></trkpt><trkpt lat="37.3068528" lon="13.6729255"><ele>286.0</ele><time>2026-04-29T11:44:38.134Z</time></trkpt><trkpt lat="37.3067634" lon="13.6729495"><ele>286.0</ele><time>2026-04-29T11:44:39.135Z</time></trkpt><trkpt lat="37.3066598" lon="13.6729753"><ele>286.0</ele><time>2026-04-29T11:44:40.133Z</time></trkpt><trkpt lat="37.3065677" lon="13.6729994"><ele>286.0</ele><time>2026-04-29T11:44:41.133Z</time></trkpt><trkpt lat="37.3064734" lon="13.6730224"><ele>286.0</ele><time>2026-04-29T11:44:42.133Z</time></trkpt><trkpt lat="37.3063862" lon="13.6730447"><ele>286.0</ele><time>2026-04-29T11:44:43.133Z</time></trkpt><trkpt lat="37.3063031" lon="13.6730594"><ele>286.0</ele><time>2026-04-29T11:44:44.134Z</time></trkpt><trkpt lat="37.3062323" lon="13.6730802"><ele>286.0</ele><time>2026-04-29T11:44:45.134Z</time></trkpt><trkpt lat="37.3061592" lon="13.6731224"><ele>286.0</ele><time>2026-04-29T11:44:46.133Z</time></trkpt><trkpt lat="37.3060916" lon="13.6731665"><ele>286.16666666666663</ele><time>2026-04-29T11:44:47.133Z</time></trkpt><trkpt lat="37.3060312" lon="13.6732192"><ele>286.3333333333333</ele><time>2026-04-29T11:44:48.132Z</time></trkpt><trkpt lat="37.3059729" lon="13.6732733"><ele>286.5</ele><time>2026-04-29T11:44:49.133Z</time></trkpt><trkpt lat="37.3059191" lon="13.6733225"><ele>286.6666666666667</ele><time>2026-04-29T11:44:50.134Z</time></trkpt><trkpt lat="37.3058566" lon="13.6733751"><ele>286.83333333333337</ele><time>2026-04-29T11:44:51.134Z</time></trkpt><trkpt lat="37.3057889" lon="13.6734232"><ele>287.0</ele><time>2026-04-29T11:44:52.134Z</time></trkpt><trkpt lat="37.3057141" lon="13.6734747"><ele>287.0</ele><time>2026-04-29T11:44:53.132Z</time></trkpt><trkpt lat="37.305639" lon="13.6735097"><ele>287.0</ele><time>2026-04-29T11:44:54.132Z</time></trkpt><trkpt lat="37.3055621" lon="13.6735266"><ele>287.0</ele><time>2026-04-29T11:44:55.133Z</time></trkpt><trkpt lat="37.3054869" lon="13.6735351"><ele>287.0</ele><time>2026-04-29T11:44:56.133Z</time></trkpt><trkpt lat="37.3054177" lon="13.6735552"><ele>287.0</ele><time>2026-04-29T11:44:57.133Z</time></trkpt><trkpt lat="37.3053578" lon="13.673592"><ele>287.0</ele><time>2026-04-29T11:44:58.132Z</time></trkpt><trkpt lat="37.305287" lon="13.6736445"><ele>284.8</ele><time>2026-04-29T11:44:59.134Z</time></trkpt><trkpt lat="37.3052145" lon="13.6737166"><ele>282.6</ele><time>2026-04-29T11:45:00.133Z</time></trkpt><trkpt lat="37.3051438" lon="13.6738022"><ele>280.40000000000003</ele><time>2026-04-29T11:45:01.134Z</time></trkpt><trkpt lat="37.3050721" lon="13.6738884"><ele>278.2</ele><time>2026-04-29T11:45:02.132Z</time></trkpt><trkpt lat="37.3050042" lon="13.6739797"><ele>276.0</ele><time>2026-04-29T11:45:03.134Z</time></trkpt><trkpt lat="37.3049343" lon="13.6740725"><ele>276.0</ele><time>2026-04-29T11:45:04.132Z</time></trkpt><trkpt lat="37.3048683" lon="13.6741704"><ele>276.0</ele><time>2026-04-29T11:45:05.133Z</time></trkpt><trkpt lat="37.30481" lon="13.6742728"><ele>276.0</ele><time>2026-04-29T11:45:06.132Z</time></trkpt><trkpt lat="37.3047549" lon="13.6743792"><ele>276.0</ele><time>2026-04-29T11:45:07.133Z</time></trkpt><trkpt lat="37.3047093" lon="13.6744815"><ele>276.0</ele><time>2026-04-29T11:45:08.134Z</time></trkpt><trkpt lat="37.3046857" lon="13.6745787"><ele>273.57142857142856</ele><time>2026-04-29T11:45:09.132Z</time></trkpt><trkpt lat="37.3046618" lon="13.6746686"><ele>271.14285714285717</ele><time>2026-04-29T11:45:10.134Z</time></trkpt><trkpt lat="37.3046409" lon="13.6747519"><ele>268.7142857142857</ele><time>2026-04-29T11:45:11.134Z</time></trkpt><trkpt lat="37.3046083" lon="13.6748299"><ele>266.2857142857143</ele><time>2026-04-29T11:45:12.133Z</time></trkpt><trkpt lat="37.3045672" lon="13.6749058"><ele>263.8571428571429</ele><time>2026-04-29T11:45:13.133Z</time></trkpt><trkpt lat="37.3045192" lon="13.6749772"><ele>261.42857142857144</ele><time>2026-04-29T11:45:14.134Z</time></trkpt><trkpt lat="37.3044589" lon="13.6750417"><ele>259.0</ele><time>2026-04-29T11:45:15.134Z</time></trkpt><trkpt lat="37.3044073" lon="13.6750996"><ele>259.0</ele><time>2026-04-29T11:45:16.132Z</time></trkpt><trkpt lat="37.3043585" lon="13.6751722"><ele>259.0</ele><time>2026-04-29T11:45:17.135Z</time></trkpt><trkpt lat="37.304321" lon="13.6752522"><ele>259.0</ele><time>2026-04-29T11:45:18.134Z</time></trkpt><trkpt lat="37.3042863" lon="13.6753249"><ele>259.0</ele><time>2026-04-29T11:45:19.133Z</time></trkpt><trkpt lat="37.3042369" lon="13.6754273"><ele>259.0</ele><time>2026-04-29T11:45:21.133Z</time></trkpt><trkpt lat="37.3041903" lon="13.6755136"><ele>259.0</ele><time>2026-04-29T11:45:23.133Z</time></trkpt><trkpt lat="37.3041428" lon="13.6755789"><ele>259.0</ele><time>2026-04-29T11:45:25.132Z</time></trkpt><trkpt lat="37.3040752" lon="13.6755767"><ele>259.0</ele><time>2026-04-29T11:45:54.133Z</time></trkpt><trkpt lat="37.3039844" lon="13.6756089"><ele>259.0</ele><time>2026-04-29T11:45:57.132Z</time></trkpt><trkpt lat="37.3039278" lon="13.6756784"><ele>259.0</ele><time>2026-04-29T11:45:59.133Z</time></trkpt><trkpt lat="37.3038711" lon="13.6757546"><ele>259.0</ele><time>2026-04-29T11:46:01.134Z</time></trkpt><trkpt lat="37.3038324" lon="13.6758211"><ele>259.0</ele><time>2026-04-29T11:46:03.133Z</time></trkpt><trkpt lat="37.3038171" lon="13.6759229"><ele>257.16666666666663</ele><time>2026-04-29T11:46:05.133Z</time></trkpt><trkpt lat="37.3038021" lon="13.6760201"><ele>255.33333333333331</ele><time>2026-04-29T11:46:07.133Z</time></trkpt><trkpt lat="37.303739" lon="13.6760956"><ele>253.5</ele><time>2026-04-29T11:46:09.133Z</time></trkpt><trkpt lat="37.3036785" lon="13.6761547"><ele>251.66666666666669</ele><time>2026-04-29T11:46:11.133Z</time></trkpt><trkpt lat="37.3036121" lon="13.6762364"><ele>249.83333333333334</ele><time>2026-04-29T11:46:13.133Z</time></trkpt><trkpt lat="37.3035533" lon="13.6763328"><ele>248.0</ele><time>2026-04-29T11:46:15.133Z</time></trkpt><trkpt lat="37.3035041" lon="13.6764281"><ele>248.0</ele><time>2026-04-29T11:46:17.132Z</time></trkpt><trkpt lat="37.3034511" lon="13.6765249"><ele>248.0</ele><time>2026-04-29T11:46:19.132Z</time></trkpt><trkpt lat="37.3034028" lon="13.6766094"><ele>248.0</ele><time>2026-04-29T11:46:21.133Z</time></trkpt><trkpt lat="37.3033421" lon="13.6767008"><ele>248.0</ele><time>2026-04-29T11:46:23.133Z</time></trkpt><trkpt lat="37.3032956" lon="13.676792"><ele>248.0</ele><time>2026-04-29T11:46:25.134Z</time></trkpt><trkpt lat="37.3032501" lon="13.6768938"><ele>247.8</ele><time>2026-04-29T11:46:27.134Z</time></trkpt><trkpt lat="37.3032232" lon="13.6769964"><ele>247.60000000000002</ele><time>2026-04-29T11:46:29.132Z</time></trkpt><trkpt lat="37.3031903" lon="13.6771102"><ele>247.39999999999998</ele><time>2026-04-29T11:46:31.132Z</time></trkpt><trkpt lat="37.3031435" lon="13.6772427"><ele>247.2</ele><time>2026-04-29T11:46:33.134Z</time></trkpt><trkpt lat="37.3030977" lon="13.6773662"><ele>247.0</ele><time>2026-04-29T11:46:35.133Z</time></trkpt><trkpt lat="37.3030448" lon="13.6774717"><ele>247.0</ele><time>2026-04-29T11:46:37.132Z</time></trkpt><trkpt lat="37.3029734" lon="13.6775397"><ele>247.0</ele><time>2026-04-29T11:46:39.133Z</time></trkpt><trkpt lat="37.302859" lon="13.6776088"><ele>247.0</ele><time>2026-04-29T11:46:41.133Z</time></trkpt><trkpt lat="37.3027895" lon="13.6776242"><ele>247.0</ele><time>2026-04-29T11:46:42.133Z</time></trkpt><trkpt lat="37.3026799" lon="13.6776221"><ele>247.0</ele><time>2026-04-29T11:46:44.132Z</time></trkpt><trkpt lat="37.3025572" lon="13.6775863"><ele>246.99999999999997</ele><time>2026-04-29T11:46:46.133Z</time></trkpt><trkpt lat="37.3024905" lon="13.6775544"><ele>247.0</ele><time>2026-04-29T11:46:47.133Z</time></trkpt><trkpt lat="37.3024145" lon="13.6775247"><ele>247.0</ele><time>2026-04-29T11:46:48.132Z</time></trkpt><trkpt lat="37.3023359" lon="13.6774901"><ele>247.0</ele><time>2026-04-29T11:46:49.133Z</time></trkpt><trkpt lat="37.302257" lon="13.6774573"><ele>246.99999999999997</ele><time>2026-04-29T11:46:50.134Z</time></trkpt><trkpt lat="37.3021833" lon="13.6774354"><ele>247.0</ele><time>2026-04-29T11:46:51.134Z</time></trkpt><trkpt lat="37.3021092" lon="13.677427"><ele>246.99999999999997</ele><time>2026-04-29T11:46:52.133Z</time></trkpt><trkpt lat="37.3020301" lon="13.6774353"><ele>247.0</ele><time>2026-04-29T11:46:53.132Z</time></trkpt><trkpt lat="37.3019583" lon="13.6774597"><ele>247.0</ele><time>2026-04-29T11:46:54.132Z</time></trkpt><trkpt lat="37.3018936" lon="13.6774951"><ele>247.0</ele><time>2026-04-29T11:46:55.132Z</time></trkpt><trkpt lat="37.301833" lon="13.6775369"><ele>246.99999999999997</ele><time>2026-04-29T11:46:56.133Z</time></trkpt><trkpt lat="37.3017793" lon="13.677581"><ele>247.0</ele><time>2026-04-29T11:46:57.132Z</time></trkpt><trkpt lat="37.3016887" lon="13.6776733"><ele>246.99999999999997</ele><time>2026-04-29T11:46:59.133Z</time></trkpt><trkpt lat="37.3016327" lon="13.6777316"><ele>247.0</ele><time>2026-04-29T11:47:00.132Z</time></trkpt><trkpt lat="37.3015771" lon="13.6777941"><ele>247.0</ele><time>2026-04-29T11:47:01.132Z</time></trkpt><trkpt lat="37.301496" lon="13.6778806"><ele>247.0</ele><time>2026-04-29T11:47:03.132Z</time></trkpt><trkpt lat="37.3014054" lon="13.6779371"><ele>246.99999999999997</ele><time>2026-04-29T11:47:06.133Z</time></trkpt><trkpt lat="37.3013309" lon="13.6780004"><ele>247.0</ele><time>2026-04-29T11:47:08.132Z</time></trkpt><trkpt lat="37.3012546" lon="13.6780792"><ele>245.66666666666666</ele><time>2026-04-29T11:47:10.132Z</time></trkpt><trkpt lat="37.3012025" lon="13.6781272"><ele>244.33333333333331</ele><time>2026-04-29T11:47:11.133Z</time></trkpt><trkpt lat="37.301125" lon="13.6782067"><ele>243.0</ele><time>2026-04-29T11:47:13.133Z</time></trkpt><trkpt lat="37.3010651" lon="13.6782677"><ele>241.66666666666669</ele><time>2026-04-29T11:47:15.132Z</time></trkpt><trkpt lat="37.3009991" lon="13.6783164"><ele>240.33333333333334</ele><time>2026-04-29T11:47:18.133Z</time></trkpt><trkpt lat="37.3009312" lon="13.6782695"><ele>239.0</ele><time>2026-04-29T11:47:22.133Z</time></trkpt><trkpt lat="37.3008822" lon="13.6781997"><ele>239.00000000000003</ele><time>2026-04-29T11:47:26.132Z</time></trkpt><trkpt lat="37.3008386" lon="13.6781109"><ele>239.0</ele><time>2026-04-29T11:47:30.132Z</time></trkpt><trkpt lat="37.3008014" lon="13.6780467"><ele>239.0</ele><time>2026-04-29T11:47:33.132Z</time></trkpt><trkpt lat="37.3007556" lon="13.6779798"><ele>239.0</ele><time>2026-04-29T11:47:36.133Z</time></trkpt><trkpt lat="37.3007068" lon="13.677904"><ele>239.00000000000003</ele><time>2026-04-29T11:47:39.133Z</time></trkpt><trkpt lat="37.3006566" lon="13.6778157"><ele>239.0</ele><time>2026-04-29T11:47:42.132Z</time></trkpt><trkpt lat="37.3006075" lon="13.6777536"><ele>238.83333333333334</ele><time>2026-04-29T11:47:44.133Z</time></trkpt><trkpt lat="37.3005578" lon="13.6776885"><ele>238.66666666666669</ele><time>2026-04-29T11:47:46.133Z</time></trkpt><trkpt lat="37.3005346" lon="13.6775543"><ele>238.5</ele><time>2026-04-29T11:47:48.133Z</time></trkpt><trkpt lat="37.3005178" lon="13.6774733"><ele>238.33333333333331</ele><time>2026-04-29T11:47:49.133Z</time></trkpt><trkpt lat="37.300501" lon="13.6773861"><ele>238.16666666666666</ele><time>2026-04-29T11:47:50.133Z</time></trkpt><trkpt lat="37.3004806" lon="13.6772926"><ele>238.0</ele><time>2026-04-29T11:47:51.133Z</time></trkpt><trkpt lat="37.3004681" lon="13.6772132"><ele>237.99999999999997</ele><time>2026-04-29T11:47:52.132Z</time></trkpt><trkpt lat="37.3004544" lon="13.6771322"><ele>238.0</ele><time>2026-04-29T11:47:53.133Z</time></trkpt><trkpt lat="37.3004113" lon="13.6769767"><ele>238.0</ele><time>2026-04-29T11:47:55.134Z</time></trkpt><trkpt lat="37.3003887" lon="13.676899"><ele>238.0</ele><time>2026-04-29T11:47:56.133Z</time></trkpt><trkpt lat="37.3003632" lon="13.676817"><ele>237.99999999999997</ele><time>2026-04-29T11:47:57.132Z</time></trkpt><trkpt lat="37.3003382" lon="13.6767376"><ele>238.0</ele><time>2026-04-29T11:47:58.132Z</time></trkpt><trkpt lat="37.3003109" lon="13.6766526"><ele>239.16666666666666</ele><time>2026-04-29T11:47:59.132Z</time></trkpt><trkpt lat="37.30028" lon="13.6765689"><ele>240.33333333333331</ele><time>2026-04-29T11:48:00.132Z</time></trkpt><trkpt lat="37.3002449" lon="13.6764866"><ele>241.5</ele><time>2026-04-29T11:48:01.133Z</time></trkpt><trkpt lat="37.3002096" lon="13.6763968"><ele>242.66666666666669</ele><time>2026-04-29T11:48:02.133Z</time></trkpt><trkpt lat="37.3001788" lon="13.6763189"><ele>243.83333333333334</ele><time>2026-04-29T11:48:03.132Z</time></trkpt><trkpt lat="37.3001144" lon="13.6762019"><ele>245.0</ele><time>2026-04-29T11:48:05.132Z</time></trkpt><trkpt lat="37.3000253" lon="13.6761627"><ele>245.0</ele><time>2026-04-29T11:48:07.132Z</time></trkpt><trkpt lat="37.2999373" lon="13.6761911"><ele>245.0</ele><time>2026-04-29T11:48:09.133Z</time></trkpt><trkpt lat="37.299846" lon="13.676278"><ele>245.0</ele><time>2026-04-29T11:48:11.132Z</time></trkpt><trkpt lat="37.2997461" lon="13.676353"><ele>245.0</ele><time>2026-04-29T11:48:13.133Z</time></trkpt><trkpt lat="37.2996595" lon="13.676336"><ele>245.0</ele><time>2026-04-29T11:48:15.133Z</time></trkpt><trkpt lat="37.2995547" lon="13.6762007"><ele>244.4</ele><time>2026-04-29T11:48:17.133Z</time></trkpt><trkpt lat="37.2995054" lon="13.6761122"><ele>243.8</ele><time>2026-04-29T11:48:18.133Z</time></trkpt><trkpt lat="37.2994665" lon="13.6760062"><ele>243.2</ele><time>2026-04-29T11:48:19.133Z</time></trkpt><trkpt lat="37.2994241" lon="13.6758932"><ele>242.6</ele><time>2026-04-29T11:48:20.132Z</time></trkpt><trkpt lat="37.2993774" lon="13.6757584"><ele>242.0</ele><time>2026-04-29T11:48:21.133Z</time></trkpt><trkpt lat="37.2993251" lon="13.6756126"><ele>243.39999999999998</ele><time>2026-04-29T11:48:22.132Z</time></trkpt><trkpt lat="37.2992814" lon="13.6754862"><ele>244.79999999999998</ele><time>2026-04-29T11:48:23.133Z</time></trkpt><trkpt lat="37.2992408" lon="13.675377"><ele>246.2</ele><time>2026-04-29T11:48:24.132Z</time></trkpt><trkpt lat="37.2992083" lon="13.6752797"><ele>247.6</ele><time>2026-04-29T11:48:25.132Z</time></trkpt><trkpt lat="37.2991677" lon="13.6751763"><ele>249.0</ele><time>2026-04-29T11:48:26.133Z</time></trkpt><trkpt lat="37.299121" lon="13.6750595"><ele>249.83333333333334</ele><time>2026-04-29T11:48:27.131Z</time></trkpt><trkpt lat="37.2990717" lon="13.6749432"><ele>250.66666666666669</ele><time>2026-04-29T11:48:28.133Z</time></trkpt><trkpt lat="37.2990302" lon="13.6748353"><ele>251.5</ele><time>2026-04-29T11:48:29.132Z</time></trkpt><trkpt lat="37.2989915" lon="13.6747387"><ele>252.33333333333334</ele><time>2026-04-29T11:48:30.133Z</time></trkpt><trkpt lat="37.2989611" lon="13.6746527"><ele>253.16666666666669</ele><time>2026-04-29T11:48:31.133Z</time></trkpt><trkpt lat="37.2989262" lon="13.6745598"><ele>254.0</ele><time>2026-04-29T11:48:32.132Z</time></trkpt><trkpt lat="37.2988842" lon="13.6744627"><ele>256.4</ele><time>2026-04-29T11:48:33.132Z</time></trkpt><trkpt lat="37.2988392" lon="13.6743634"><ele>258.79999999999995</ele><time>2026-04-29T11:48:34.131Z</time></trkpt><trkpt lat="37.29879" lon="13.6742632"><ele>261.20000000000005</ele><time>2026-04-29T11:48:35.132Z</time></trkpt><trkpt lat="37.298746" lon="13.6741606"><ele>263.6</ele><time>2026-04-29T11:48:36.132Z</time></trkpt><trkpt lat="37.2986931" lon="13.674049"><ele>266.0</ele><time>2026-04-29T11:48:37.134Z</time></trkpt><trkpt lat="37.2986395" lon="13.6739445"><ele>266.0</ele><time>2026-04-29T11:48:38.133Z</time></trkpt><trkpt lat="37.2985959" lon="13.6738496"><ele>266.0</ele><time>2026-04-29T11:48:39.132Z</time></trkpt><trkpt lat="37.2985513" lon="13.6737557"><ele>266.0</ele><time>2026-04-29T11:48:40.132Z</time></trkpt><trkpt lat="37.2984977" lon="13.6736496"><ele>266.0</ele><time>2026-04-29T11:48:41.133Z</time></trkpt><trkpt lat="37.2984474" lon="13.6735264"><ele>266.0</ele><time>2026-04-29T11:48:42.133Z</time></trkpt><trkpt lat="37.2983975" lon="13.6734167"><ele>268.0</ele><time>2026-04-29T11:48:43.132Z</time></trkpt><trkpt lat="37.2983478" lon="13.6733332"><ele>270.0</ele><time>2026-04-29T11:48:44.132Z</time></trkpt><trkpt lat="37.2982889" lon="13.6732103"><ele>272.0</ele><time>2026-04-29T11:48:46.133Z</time></trkpt><trkpt lat="37.2982295" lon="13.6731636"><ele>274.0</ele><time>2026-04-29T11:48:49.132Z</time></trkpt><trkpt lat="37.2981024" lon="13.6732649"><ele>276.0</ele><time>2026-04-29T11:48:51.133Z</time></trkpt><trkpt lat="37.2980177" lon="13.6733384"><ele>276.25</ele><time>2026-04-29T11:48:52.132Z</time></trkpt><trkpt lat="37.2979143" lon="13.6734211"><ele>276.5</ele><time>2026-04-29T11:48:53.133Z</time></trkpt><trkpt lat="37.2977925" lon="13.673512"><ele>276.75</ele><time>2026-04-29T11:48:54.134Z</time></trkpt><trkpt lat="37.2976559" lon="13.6735985"><ele>277.0</ele><time>2026-04-29T11:48:55.132Z</time></trkpt><trkpt lat="37.2975172" lon="13.6736895"><ele>275.25</ele><time>2026-04-29T11:48:56.133Z</time></trkpt><trkpt lat="37.2973904" lon="13.6737725"><ele>273.5</ele><time>2026-04-29T11:48:57.132Z</time></trkpt><trkpt lat="37.2972703" lon="13.6738703"><ele>271.75</ele><time>2026-04-29T11:48:58.133Z</time></trkpt><trkpt lat="37.2971688" lon="13.6739835"><ele>270.0</ele><time>2026-04-29T11:48:59.132Z</time></trkpt><trkpt lat="37.2970786" lon="13.674139"><ele>270.0</ele><time>2026-04-29T11:49:00.133Z</time></trkpt><trkpt lat="37.2969912" lon="13.6743141"><ele>270.0</ele><time>2026-04-29T11:49:01.132Z</time></trkpt><trkpt lat="37.29691" lon="13.6744915"><ele>270.0</ele><time>2026-04-29T11:49:02.133Z</time></trkpt><trkpt lat="37.2968314" lon="13.6746578"><ele>269.25</ele><time>2026-04-29T11:49:03.133Z</time></trkpt><trkpt lat="37.2967542" lon="13.6748107"><ele>268.5</ele><time>2026-04-29T11:49:04.132Z</time></trkpt><trkpt lat="37.2966671" lon="13.6749556"><ele>267.75</ele><time>2026-04-29T11:49:05.132Z</time></trkpt><trkpt lat="37.2965745" lon="13.6750887"><ele>267.0</ele><time>2026-04-29T11:49:06.134Z</time></trkpt><trkpt lat="37.2964696" lon="13.6752144"><ele>265.3333333333333</ele><time>2026-04-29T11:49:07.133Z</time></trkpt><trkpt lat="37.2963592" lon="13.6753438"><ele>263.66666666666663</ele><time>2026-04-29T11:49:08.132Z</time></trkpt><trkpt lat="37.2962332" lon="13.6754857"><ele>262.0</ele><time>2026-04-29T11:49:09.133Z</time></trkpt><trkpt lat="37.2960955" lon="13.675638"><ele>262.0</ele><time>2026-04-29T11:49:10.132Z</time></trkpt><trkpt lat="37.2959451" lon="13.6757978"><ele>262.0</ele><time>2026-04-29T11:49:11.133Z</time></trkpt><trkpt lat="37.2957821" lon="13.6759623"><ele>262.0</ele><time>2026-04-29T11:49:12.133Z</time></trkpt><trkpt lat="37.295616" lon="13.6761303"><ele>258.5</ele><time>2026-04-29T11:49:13.132Z</time></trkpt><trkpt lat="37.2954403" lon="13.6763103"><ele>255.0</ele><time>2026-04-29T11:49:14.133Z</time></trkpt><trkpt lat="37.29526" lon="13.6764904"><ele>255.0</ele><time>2026-04-29T11:49:15.132Z</time></trkpt><trkpt lat="37.2950746" lon="13.6766764"><ele>255.0</ele><time>2026-04-29T11:49:16.133Z</time></trkpt><trkpt lat="37.29489" lon="13.6768638"><ele>254.5</ele><time>2026-04-29T11:49:17.134Z</time></trkpt><trkpt lat="37.2946966" lon="13.6770531"><ele>254.0</ele><time>2026-04-29T11:49:18.132Z</time></trkpt><trkpt lat="37.2945102" lon="13.6772478"><ele>254.0</ele><time>2026-04-29T11:49:19.133Z</time></trkpt><trkpt lat="37.2943268" lon="13.6774586"><ele>254.0</ele><time>2026-04-29T11:49:20.132Z</time></trkpt><trkpt lat="37.2941403" lon="13.6776719"><ele>253.0</ele><time>2026-04-29T11:49:21.133Z</time></trkpt><trkpt lat="37.2939674" lon="13.6778681"><ele>252.0</ele><time>2026-04-29T11:49:22.132Z</time></trkpt><trkpt lat="37.2938048" lon="13.6780595"><ele>252.0</ele><time>2026-04-29T11:49:23.132Z</time></trkpt><trkpt lat="37.2936686" lon="13.6782268"><ele>252.0</ele><time>2026-04-29T11:49:24.133Z</time></trkpt><trkpt lat="37.2935264" lon="13.6783903"><ele>252.0</ele><time>2026-04-29T11:49:25.133Z</time></trkpt><trkpt lat="37.2934052" lon="13.6785314"><ele>252.0</ele><time>2026-04-29T11:49:26.132Z</time></trkpt><trkpt lat="37.2932897" lon="13.6786561"><ele>252.0</ele><time>2026-04-29T11:49:27.133Z</time></trkpt><trkpt lat="37.2931662" lon="13.6787744"><ele>252.0</ele><time>2026-04-29T11:49:28.133Z</time></trkpt><trkpt lat="37.2930323" lon="13.6788801"><ele>252.0</ele><time>2026-04-29T11:49:29.133Z</time></trkpt><trkpt lat="37.29289" lon="13.6789806"><ele>252.0</ele><time>2026-04-29T11:49:30.131Z</time></trkpt><trkpt lat="37.292741" lon="13.6790843"><ele>252.0</ele><time>2026-04-29T11:49:31.133Z</time></trkpt><trkpt lat="37.2925773" lon="13.6792006"><ele>252.0</ele><time>2026-04-29T11:49:32.132Z</time></trkpt><trkpt lat="37.2924059" lon="13.6793216"><ele>252.0</ele><time>2026-04-29T11:49:33.132Z</time></trkpt><trkpt lat="37.2922295" lon="13.6794479"><ele>252.0</ele><time>2026-04-29T11:49:34.133Z</time></trkpt><trkpt lat="37.2920408" lon="13.6795723"><ele>251.0</ele><time>2026-04-29T11:49:35.132Z</time></trkpt><trkpt lat="37.2918741" lon="13.6796905"><ele>250.0</ele><time>2026-04-29T11:49:36.133Z</time></trkpt><trkpt lat="37.2917065" lon="13.679815"><ele>249.0</ele><time>2026-04-29T11:49:37.133Z</time></trkpt><trkpt lat="37.2915507" lon="13.6799293"><ele>248.33333333333331</ele><time>2026-04-29T11:49:38.132Z</time></trkpt><trkpt lat="37.2913931" lon="13.6800408"><ele>247.66666666666666</ele><time>2026-04-29T11:49:39.132Z</time></trkpt><trkpt lat="37.2912344" lon="13.6801461"><ele>247.0</ele><time>2026-04-29T11:49:40.132Z</time></trkpt><trkpt lat="37.2910799" lon="13.680241"><ele>246.66666666666666</ele><time>2026-04-29T11:49:41.132Z</time></trkpt><trkpt lat="37.2909079" lon="13.6803361"><ele>246.33333333333331</ele><time>2026-04-29T11:49:42.132Z</time></trkpt><trkpt lat="37.2907206" lon="13.6804324"><ele>246.0</ele><time>2026-04-29T11:49:43.131Z</time></trkpt><trkpt lat="37.2905242" lon="13.6805338"><ele>245.0</ele><time>2026-04-29T11:49:44.131Z</time></trkpt><trkpt lat="37.290325" lon="13.680639"><ele>244.0</ele><time>2026-04-29T11:49:45.132Z</time></trkpt><trkpt lat="37.2901333" lon="13.6807402"><ele>243.0</ele><time>2026-04-29T11:49:46.132Z</time></trkpt><trkpt lat="37.2899349" lon="13.6808456"><ele>242.33333333333331</ele><time>2026-04-29T11:49:47.133Z</time></trkpt><trkpt lat="37.2897362" lon="13.6809494"><ele>241.66666666666666</ele><time>2026-04-29T11:49:48.134Z</time></trkpt><trkpt lat="37.2895358" lon="13.6810559"><ele>241.0</ele><time>2026-04-29T11:49:49.133Z</time></trkpt><trkpt lat="37.2893303" lon="13.6811718"><ele>240.0</ele><time>2026-04-29T11:49:50.132Z</time></trkpt><trkpt lat="37.2891312" lon="13.6812846"><ele>239.0</ele><time>2026-04-29T11:49:51.132Z</time></trkpt><trkpt lat="37.2889325" lon="13.6814008"><ele>238.0</ele><time>2026-04-29T11:49:52.132Z</time></trkpt><trkpt lat="37.2887271" lon="13.6815251"><ele>235.0</ele><time>2026-04-29T11:49:53.132Z</time></trkpt><trkpt lat="37.2885193" lon="13.6816526"><ele>232.0</ele><time>2026-04-29T11:49:54.131Z</time></trkpt><trkpt lat="37.2883081" lon="13.6817875"><ele>232.0</ele><time>2026-04-29T11:49:55.133Z</time></trkpt><trkpt lat="37.2881024" lon="13.6819116"><ele>232.0</ele><time>2026-04-29T11:49:56.133Z</time></trkpt><trkpt lat="37.2879092" lon="13.6820264"><ele>232.0</ele><time>2026-04-29T11:49:57.133Z</time></trkpt><trkpt lat="37.2877235" lon="13.6821416"><ele>230.66666666666666</ele><time>2026-04-29T11:49:58.131Z</time></trkpt><trkpt lat="37.2875371" lon="13.6822557"><ele>229.33333333333331</ele><time>2026-04-29T11:49:59.133Z</time></trkpt><trkpt lat="37.2873536" lon="13.682362"><ele>228.0</ele><time>2026-04-29T11:50:00.132Z</time></trkpt><trkpt lat="37.2871751" lon="13.6824596"><ele>227.33333333333331</ele><time>2026-04-29T11:50:01.133Z</time></trkpt><trkpt lat="37.2869956" lon="13.6825489"><ele>226.66666666666666</ele><time>2026-04-29T11:50:02.133Z</time></trkpt><trkpt lat="37.2868127" lon="13.6826358"><ele>226.0</ele><time>2026-04-29T11:50:03.133Z</time></trkpt><trkpt lat="37.2866271" lon="13.6827181"><ele>226.33333333333331</ele><time>2026-04-29T11:50:04.132Z</time></trkpt><trkpt lat="37.2864349" lon="13.6827884"><ele>226.66666666666669</ele><time>2026-04-29T11:50:05.133Z</time></trkpt><trkpt lat="37.286237" lon="13.6828629"><ele>227.0</ele><time>2026-04-29T11:50:06.132Z</time></trkpt><trkpt lat="37.2860463" lon="13.6829332"><ele>226.33333333333334</ele><time>2026-04-29T11:50:07.132Z</time></trkpt><trkpt lat="37.2858507" lon="13.6830093"><ele>225.66666666666669</ele><time>2026-04-29T11:50:08.132Z</time></trkpt><trkpt lat="37.2856517" lon="13.6830808"><ele>225.0</ele><time>2026-04-29T11:50:09.133Z</time></trkpt><trkpt lat="37.2854594" lon="13.6831498"><ele>224.0</ele><time>2026-04-29T11:50:10.132Z</time></trkpt><trkpt lat="37.2852597" lon="13.6832224"><ele>223.0</ele><time>2026-04-29T11:50:11.133Z</time></trkpt><trkpt lat="37.2850623" lon="13.6833014"><ele>222.0</ele><time>2026-04-29T11:50:12.133Z</time></trkpt><trkpt lat="37.2848786" lon="13.6833775"><ele>221.66666666666669</ele><time>2026-04-29T11:50:13.131Z</time></trkpt><trkpt lat="37.2847066" lon="13.6834522"><ele>221.33333333333334</ele><time>2026-04-29T11:50:14.133Z</time></trkpt><trkpt lat="37.2845479" lon="13.6835174"><ele>221.0</ele><time>2026-04-29T11:50:15.133Z</time></trkpt><trkpt lat="37.2844013" lon="13.6835745"><ele>220.5</ele><time>2026-04-29T11:50:16.132Z</time></trkpt><trkpt lat="37.2842662" lon="13.6836241"><ele>220.0</ele><time>2026-04-29T11:50:17.132Z</time></trkpt><trkpt lat="37.2841349" lon="13.6836733"><ele>219.5</ele><time>2026-04-29T11:50:18.131Z</time></trkpt><trkpt lat="37.2840165" lon="13.6837158"><ele>219.0</ele><time>2026-04-29T11:50:19.132Z</time></trkpt><trkpt lat="37.2838781" lon="13.6837606"><ele>219.0</ele><time>2026-04-29T11:50:20.132Z</time></trkpt><trkpt lat="37.2837229" lon="13.6838042"><ele>219.0</ele><time>2026-04-29T11:50:21.132Z</time></trkpt><trkpt lat="37.2835482" lon="13.6838497"><ele>219.0</ele><time>2026-04-29T11:50:22.131Z</time></trkpt><trkpt lat="37.2833787" lon="13.6838932"><ele>219.0</ele><time>2026-04-29T11:50:23.132Z</time></trkpt><trkpt lat="37.2832094" lon="13.6839385"><ele>219.0</ele><time>2026-04-29T11:50:24.133Z</time></trkpt><trkpt lat="37.2830371" lon="13.6839797"><ele>219.0</ele><time>2026-04-29T11:50:25.132Z</time></trkpt><trkpt lat="37.2828754" lon="13.6840079"><ele>218.33333333333331</ele><time>2026-04-29T11:50:26.131Z</time></trkpt><trkpt lat="37.2827108" lon="13.6840459"><ele>217.66666666666666</ele><time>2026-04-29T11:50:27.133Z</time></trkpt><trkpt lat="37.2825537" lon="13.6840968"><ele>217.0</ele><time>2026-04-29T11:50:28.133Z</time></trkpt><trkpt lat="37.282384" lon="13.6841548"><ele>216.33333333333331</ele><time>2026-04-29T11:50:29.133Z</time></trkpt><trkpt lat="37.2822048" lon="13.6842196"><ele>215.66666666666669</ele><time>2026-04-29T11:50:30.133Z</time></trkpt><trkpt lat="37.2820073" lon="13.684292"><ele>215.0</ele><time>2026-04-29T11:50:31.133Z</time></trkpt><trkpt lat="37.2818084" lon="13.6843687"><ele>213.66666666666669</ele><time>2026-04-29T11:50:32.132Z</time></trkpt><trkpt lat="37.2815989" lon="13.684447"><ele>212.33333333333331</ele><time>2026-04-29T11:50:33.133Z</time></trkpt><trkpt lat="37.2813851" lon="13.6845239"><ele>211.0</ele><time>2026-04-29T11:50:34.133Z</time></trkpt><trkpt lat="37.281179" lon="13.6845992"><ele>209.66666666666666</ele><time>2026-04-29T11:50:35.133Z</time></trkpt><trkpt lat="37.28098" lon="13.6846729"><ele>208.33333333333331</ele><time>2026-04-29T11:50:36.131Z</time></trkpt><trkpt lat="37.2807871" lon="13.6847451"><ele>207.0</ele><time>2026-04-29T11:50:37.131Z</time></trkpt><trkpt lat="37.2805913" lon="13.6848144"><ele>207.0</ele><time>2026-04-29T11:50:38.133Z</time></trkpt><trkpt lat="37.2803906" lon="13.6848841"><ele>207.0</ele><time>2026-04-29T11:50:39.133Z</time></trkpt><trkpt lat="37.2801924" lon="13.6849582"><ele>207.0</ele><time>2026-04-29T11:50:40.132Z</time></trkpt><trkpt lat="37.2800115" lon="13.6850271"><ele>207.0</ele><time>2026-04-29T11:50:41.134Z</time></trkpt><trkpt lat="37.2798392" lon="13.6850907"><ele>207.0</ele><time>2026-04-29T11:50:42.132Z</time></trkpt><trkpt lat="37.2796708" lon="13.6851526"><ele>207.0</ele><time>2026-04-29T11:50:43.132Z</time></trkpt><trkpt lat="37.2795138" lon="13.685209"><ele>207.33333333333331</ele><time>2026-04-29T11:50:44.133Z</time></trkpt><trkpt lat="37.279358" lon="13.685259"><ele>207.66666666666666</ele><time>2026-04-29T11:50:45.132Z</time></trkpt><trkpt lat="37.2792024" lon="13.6852994"><ele>208.0</ele><time>2026-04-29T11:50:46.133Z</time></trkpt><trkpt lat="37.2790515" lon="13.6853418"><ele>203.0</ele><time>2026-04-29T11:50:47.132Z</time></trkpt><trkpt lat="37.2788955" lon="13.6853916"><ele>198.0</ele><time>2026-04-29T11:50:48.133Z</time></trkpt><trkpt lat="37.2787352" lon="13.6854308"><ele>193.0</ele><time>2026-04-29T11:50:49.131Z</time></trkpt><trkpt lat="37.2785823" lon="13.6854711"><ele>193.0</ele><time>2026-04-29T11:50:50.133Z</time></trkpt><trkpt lat="37.2784269" lon="13.6855078"><ele>193.0</ele><time>2026-04-29T11:50:51.132Z</time></trkpt><trkpt lat="37.2782696" lon="13.6855317"><ele>193.0</ele><time>2026-04-29T11:50:52.133Z</time></trkpt><trkpt lat="37.2780943" lon="13.6855429"><ele>191.66666666666666</ele><time>2026-04-29T11:50:53.132Z</time></trkpt><trkpt lat="37.2779338" lon="13.6855397"><ele>190.33333333333331</ele><time>2026-04-29T11:50:54.133Z</time></trkpt><trkpt lat="37.2777775" lon="13.6855216"><ele>189.0</ele><time>2026-04-29T11:50:55.132Z</time></trkpt><trkpt lat="37.2776119" lon="13.6854728"><ele>189.0</ele><time>2026-04-29T11:50:56.132Z</time></trkpt><trkpt lat="37.2774373" lon="13.6854028"><ele>189.0</ele><time>2026-04-29T11:50:57.132Z</time></trkpt><trkpt lat="37.2772687" lon="13.685341"><ele>189.0</ele><time>2026-04-29T11:50:58.132Z</time></trkpt><trkpt lat="37.2771014" lon="13.6852743"><ele>188.66666666666666</ele><time>2026-04-29T11:50:59.133Z</time></trkpt><trkpt lat="37.2769394" lon="13.685206"><ele>188.33333333333331</ele><time>2026-04-29T11:51:00.133Z</time></trkpt><trkpt lat="37.2767828" lon="13.6851377"><ele>188.0</ele><time>2026-04-29T11:51:01.132Z</time></trkpt><trkpt lat="37.2766346" lon="13.6850694"><ele>188.0</ele><time>2026-04-29T11:51:02.132Z</time></trkpt><trkpt lat="37.2764939" lon="13.6850007"><ele>188.0</ele><time>2026-04-29T11:51:03.132Z</time></trkpt><trkpt lat="37.2763683" lon="13.684932"><ele>188.0</ele><time>2026-04-29T11:51:04.133Z</time></trkpt><trkpt lat="37.2762481" lon="13.6848629"><ele>188.0</ele><time>2026-04-29T11:51:05.131Z</time></trkpt><trkpt lat="37.2761319" lon="13.6848013"><ele>185.75</ele><time>2026-04-29T11:51:06.133Z</time></trkpt><trkpt lat="37.2760228" lon="13.6847432"><ele>183.5</ele><time>2026-04-29T11:51:07.132Z</time></trkpt><trkpt lat="37.2759169" lon="13.6846831"><ele>181.25</ele><time>2026-04-29T11:51:08.131Z</time></trkpt><trkpt lat="37.2758162" lon="13.6846224"><ele>179.0</ele><time>2026-04-29T11:51:09.133Z</time></trkpt><trkpt lat="37.2757126" lon="13.6845691"><ele>179.0</ele><time>2026-04-29T11:51:10.132Z</time></trkpt><trkpt lat="37.2756097" lon="13.6845181"><ele>179.0</ele><time>2026-04-29T11:51:11.133Z</time></trkpt><trkpt lat="37.275509" lon="13.6844592"><ele>179.0</ele><time>2026-04-29T11:51:12.133Z</time></trkpt><trkpt lat="37.2754071" lon="13.6843899"><ele>179.0</ele><time>2026-04-29T11:51:13.131Z</time></trkpt><trkpt lat="37.2752959" lon="13.6843099"><ele>175.33333333333331</ele><time>2026-04-29T11:51:14.133Z</time></trkpt><trkpt lat="37.275174" lon="13.6842198"><ele>171.66666666666666</ele><time>2026-04-29T11:51:15.131Z</time></trkpt><trkpt lat="37.2750342" lon="13.6841177"><ele>168.0</ele><time>2026-04-29T11:51:16.133Z</time></trkpt><trkpt lat="37.2749011" lon="13.6840123"><ele>168.0</ele><time>2026-04-29T11:51:17.132Z</time></trkpt><trkpt lat="37.2747729" lon="13.6839105"><ele>168.0</ele><time>2026-04-29T11:51:18.133Z</time></trkpt><trkpt lat="37.2746464" lon="13.6838211"><ele>168.0</ele><time>2026-04-29T11:51:19.131Z</time></trkpt><trkpt lat="37.2745259" lon="13.6837309"><ele>168.0</ele><time>2026-04-29T11:51:20.131Z</time></trkpt><trkpt lat="37.2744085" lon="13.683649"><ele>166.25</ele><time>2026-04-29T11:51:21.131Z</time></trkpt><trkpt lat="37.2742926" lon="13.6835822"><ele>164.5</ele><time>2026-04-29T11:51:22.132Z</time></trkpt><trkpt lat="37.2741747" lon="13.6835353"><ele>162.75</ele><time>2026-04-29T11:51:23.131Z</time></trkpt><trkpt lat="37.2740583" lon="13.6835037"><ele>161.0</ele><time>2026-04-29T11:51:24.131Z</time></trkpt><trkpt lat="37.2739429" lon="13.683477"><ele>158.8</ele><time>2026-04-29T11:51:25.133Z</time></trkpt><trkpt lat="37.2738286" lon="13.6834593"><ele>156.60000000000002</ele><time>2026-04-29T11:51:26.133Z</time></trkpt><trkpt lat="37.2737186" lon="13.6834335"><ele>154.4</ele><time>2026-04-29T11:51:27.132Z</time></trkpt><trkpt lat="37.2736093" lon="13.6834146"><ele>152.2</ele><time>2026-04-29T11:51:28.133Z</time></trkpt><trkpt lat="37.2734999" lon="13.6833962"><ele>150.0</ele><time>2026-04-29T11:51:29.131Z</time></trkpt><trkpt lat="37.2733912" lon="13.6833884"><ele>150.0</ele><time>2026-04-29T11:51:30.133Z</time></trkpt><trkpt lat="37.2732783" lon="13.6833949"><ele>150.0</ele><time>2026-04-29T11:51:31.133Z</time></trkpt><trkpt lat="37.2731616" lon="13.6834025"><ele>150.0</ele><time>2026-04-29T11:51:32.132Z</time></trkpt><trkpt lat="37.2730458" lon="13.6834151"><ele>150.0</ele><time>2026-04-29T11:51:33.133Z</time></trkpt><trkpt lat="37.2729297" lon="13.6834319"><ele>147.25</ele><time>2026-04-29T11:51:34.132Z</time></trkpt><trkpt lat="37.272811" lon="13.6834484"><ele>144.5</ele><time>2026-04-29T11:51:35.132Z</time></trkpt><trkpt lat="37.2726934" lon="13.683453"><ele>141.75</ele><time>2026-04-29T11:51:36.133Z</time></trkpt><trkpt lat="37.2725729" lon="13.6834505"><ele>139.0</ele><time>2026-04-29T11:51:37.132Z</time></trkpt><trkpt lat="37.2724501" lon="13.6834395"><ele>139.0</ele><time>2026-04-29T11:51:38.131Z</time></trkpt><trkpt lat="37.272335" lon="13.6834142"><ele>139.0</ele><time>2026-04-29T11:51:39.132Z</time></trkpt><trkpt lat="37.2722234" lon="13.6833869"><ele>139.0</ele><time>2026-04-29T11:51:40.131Z</time></trkpt><trkpt lat="37.2721145" lon="13.6833498"><ele>139.0</ele><time>2026-04-29T11:51:41.133Z</time></trkpt><trkpt lat="37.272012" lon="13.6833088"><ele>137.0</ele><time>2026-04-29T11:51:42.131Z</time></trkpt><trkpt lat="37.2719091" lon="13.6832718"><ele>135.0</ele><time>2026-04-29T11:51:43.131Z</time></trkpt><trkpt lat="37.2718132" lon="13.6832453"><ele>133.0</ele><time>2026-04-29T11:51:44.132Z</time></trkpt><trkpt lat="37.2717154" lon="13.6832194"><ele>131.0</ele><time>2026-04-29T11:51:45.133Z</time></trkpt><trkpt lat="37.2716249" lon="13.683199"><ele>129.0</ele><time>2026-04-29T11:51:46.131Z</time></trkpt><trkpt lat="37.2715366" lon="13.6831786"><ele>129.0</ele><time>2026-04-29T11:51:47.133Z</time></trkpt><trkpt lat="37.2714575" lon="13.6831576"><ele>129.0</ele><time>2026-04-29T11:51:48.132Z</time></trkpt><trkpt lat="37.2713774" lon="13.683146"><ele>129.0</ele><time>2026-04-29T11:51:49.133Z</time></trkpt><trkpt lat="37.2712965" lon="13.6831471"><ele>129.0</ele><time>2026-04-29T11:51:50.133Z</time></trkpt><trkpt lat="37.27121" lon="13.683155"><ele>129.0</ele><time>2026-04-29T11:51:51.131Z</time></trkpt><trkpt lat="37.2711051" lon="13.6831746"><ele>129.0</ele><time>2026-04-29T11:51:52.131Z</time></trkpt><trkpt lat="37.2710045" lon="13.6831982"><ele>128.0</ele><time>2026-04-29T11:51:53.132Z</time></trkpt><trkpt lat="37.2709009" lon="13.6832208"><ele>127.0</ele><time>2026-04-29T11:51:54.131Z</time></trkpt><trkpt lat="37.2708058" lon="13.6832438"><ele>126.0</ele><time>2026-04-29T11:51:55.131Z</time></trkpt><trkpt lat="37.2707136" lon="13.6832634"><ele>125.0</ele><time>2026-04-29T11:51:56.131Z</time></trkpt><trkpt lat="37.2706255" lon="13.6832794"><ele>124.0</ele><time>2026-04-29T11:51:57.132Z</time></trkpt><trkpt lat="37.2705224" lon="13.683279"><ele>122.0</ele><time>2026-04-29T11:51:58.133Z</time></trkpt><trkpt lat="37.2704204" lon="13.6832744"><ele>120.0</ele><time>2026-04-29T11:51:59.132Z</time></trkpt><trkpt lat="37.2703009" lon="13.6832485"><ele>118.0</ele><time>2026-04-29T11:52:00.132Z</time></trkpt><trkpt lat="37.2701663" lon="13.6832435"><ele>116.0</ele><time>2026-04-29T11:52:01.132Z</time></trkpt><trkpt lat="37.2700231" lon="13.6832515"><ele>116.0</ele><time>2026-04-29T11:52:02.133Z</time></trkpt><trkpt lat="37.2698661" lon="13.6832828"><ele>116.0</ele><time>2026-04-29T11:52:03.132Z</time></trkpt><trkpt lat="37.2697202" lon="13.6833193"><ele>116.0</ele><time>2026-04-29T11:52:04.133Z</time></trkpt><trkpt lat="37.2695772" lon="13.6833523"><ele>113.0</ele><time>2026-04-29T11:52:05.132Z</time></trkpt><trkpt lat="37.2694416" lon="13.6833728"><ele>110.0</ele><time>2026-04-29T11:52:06.133Z</time></trkpt><trkpt lat="37.2693026" lon="13.683384"><ele>107.0</ele><time>2026-04-29T11:52:07.132Z</time></trkpt><trkpt lat="37.269166" lon="13.6834018"><ele>104.0</ele><time>2026-04-29T11:52:08.132Z</time></trkpt><trkpt lat="37.2690459" lon="13.6834361"><ele>103.2</ele><time>2026-04-29T11:52:09.132Z</time></trkpt><trkpt lat="37.2689415" lon="13.6834887"><ele>102.4</ele><time>2026-04-29T11:52:10.132Z</time></trkpt><trkpt lat="37.2688327" lon="13.6835315"><ele>101.6</ele><time>2026-04-29T11:52:11.132Z</time></trkpt><trkpt lat="37.2687249" lon="13.6835657"><ele>100.8</ele><time>2026-04-29T11:52:12.132Z</time></trkpt><trkpt lat="37.2686305" lon="13.6835895"><ele>100.0</ele><time>2026-04-29T11:52:13.131Z</time></trkpt><trkpt lat="37.2685476" lon="13.6835979"><ele>99.83333333333334</ele><time>2026-04-29T11:52:14.131Z</time></trkpt><trkpt lat="37.2684746" lon="13.6835783"><ele>99.66666666666667</ele><time>2026-04-29T11:52:15.132Z</time></trkpt><trkpt lat="37.2684162" lon="13.683545"><ele>99.5</ele><time>2026-04-29T11:52:16.132Z</time></trkpt><trkpt lat="37.2683474" lon="13.6834645"><ele>99.33333333333334</ele><time>2026-04-29T11:52:18.132Z</time></trkpt><trkpt lat="37.2682985" lon="13.6834114"><ele>99.16666666666667</ele><time>2026-04-29T11:52:34.133Z</time></trkpt><trkpt lat="37.2682077" lon="13.6833193"><ele>99.0</ele><time>2026-04-29T11:52:36.131Z</time></trkpt><trkpt lat="37.268096" lon="13.6832721"><ele>99.0</ele><time>2026-04-29T11:52:38.131Z</time></trkpt><trkpt lat="37.268021" lon="13.6832786"><ele>99.0</ele><time>2026-04-29T11:52:39.133Z</time></trkpt><trkpt lat="37.2679235" lon="13.6833179"><ele>99.0</ele><time>2026-04-29T11:52:40.134Z</time></trkpt><trkpt lat="37.2678094" lon="13.6833673"><ele>99.0</ele><time>2026-04-29T11:52:41.132Z</time></trkpt><trkpt lat="37.2676771" lon="13.6834299"><ele>99.0</ele><time>2026-04-29T11:52:42.131Z</time></trkpt><trkpt lat="37.2675345" lon="13.6834863"><ele>99.0</ele><time>2026-04-29T11:52:43.133Z</time></trkpt><trkpt lat="37.2673955" lon="13.6835457"><ele>99.0</ele><time>2026-04-29T11:52:44.131Z</time></trkpt><trkpt lat="37.2672641" lon="13.6836049"><ele>99.0</ele><time>2026-04-29T11:52:45.132Z</time></trkpt><trkpt lat="37.2671303" lon="13.68367"><ele>99.0</ele><time>2026-04-29T11:52:46.132Z</time></trkpt><trkpt lat="37.2669991" lon="13.6837379"><ele>101.0</ele><time>2026-04-29T11:52:47.132Z</time></trkpt><trkpt lat="37.2668766" lon="13.6838147"><ele>103.0</ele><time>2026-04-29T11:52:48.132Z</time></trkpt><trkpt lat="37.2667568" lon="13.6839062"><ele>105.0</ele><time>2026-04-29T11:52:49.132Z</time></trkpt><trkpt lat="37.2666413" lon="13.6840023"><ele>107.0</ele><time>2026-04-29T11:52:50.133Z</time></trkpt><trkpt lat="37.2665332" lon="13.6840915"><ele>108.6</ele><time>2026-04-29T11:52:51.132Z</time></trkpt><trkpt lat="37.2664343" lon="13.6841758"><ele>110.19999999999999</ele><time>2026-04-29T11:52:52.131Z</time></trkpt><trkpt lat="37.2663324" lon="13.684248"><ele>111.8</ele><time>2026-04-29T11:52:53.131Z</time></trkpt><trkpt lat="37.2662288" lon="13.6842946"><ele>113.4</ele><time>2026-04-29T11:52:54.132Z</time></trkpt><trkpt lat="37.2661283" lon="13.6843037"><ele>115.0</ele><time>2026-04-29T11:52:55.131Z</time></trkpt><trkpt lat="37.2660347" lon="13.6842894"><ele>115.0</ele><time>2026-04-29T11:52:56.132Z</time></trkpt><trkpt lat="37.2659469" lon="13.684256"><ele>115.0</ele><time>2026-04-29T11:52:57.131Z</time></trkpt><trkpt lat="37.2658457" lon="13.6842106"><ele>115.0</ele><time>2026-04-29T11:52:58.133Z</time></trkpt><trkpt lat="37.2657365" lon="13.6841689"><ele>115.0</ele><time>2026-04-29T11:52:59.131Z</time></trkpt><trkpt lat="37.2656141" lon="13.6841261"><ele>115.0</ele><time>2026-04-29T11:53:00.132Z</time></trkpt><trkpt lat="37.265486" lon="13.6840825"><ele>117.5</ele><time>2026-04-29T11:53:01.131Z</time></trkpt><trkpt lat="37.2653684" lon="13.6840469"><ele>120.0</ele><time>2026-04-29T11:53:02.134Z</time></trkpt><trkpt lat="37.2652458" lon="13.6840225"><ele>122.5</ele><time>2026-04-29T11:53:03.131Z</time></trkpt><trkpt lat="37.2651289" lon="13.6840138"><ele>125.0</ele><time>2026-04-29T11:53:04.134Z</time></trkpt><trkpt lat="37.2650118" lon="13.6840053"><ele>125.0</ele><time>2026-04-29T11:53:05.132Z</time></trkpt><trkpt lat="37.2649031" lon="13.6839842"><ele>125.0</ele><time>2026-04-29T11:53:06.132Z</time></trkpt><trkpt lat="37.2647987" lon="13.6839484"><ele>125.0</ele><time>2026-04-29T11:53:07.131Z</time></trkpt><trkpt lat="37.2647022" lon="13.6838983"><ele>125.0</ele><time>2026-04-29T11:53:08.132Z</time></trkpt><trkpt lat="37.2646056" lon="13.6838457"><ele>125.0</ele><time>2026-04-29T11:53:09.134Z</time></trkpt><trkpt lat="37.2645123" lon="13.6837915"><ele>127.8</ele><time>2026-04-29T11:53:10.132Z</time></trkpt><trkpt lat="37.2644142" lon="13.6837394"><ele>130.6</ele><time>2026-04-29T11:53:11.132Z</time></trkpt><trkpt lat="37.2643181" lon="13.6836976"><ele>133.4</ele><time>2026-04-29T11:53:12.132Z</time></trkpt><trkpt lat="37.2642175" lon="13.6836465"><ele>136.2</ele><time>2026-04-29T11:53:13.132Z</time></trkpt><trkpt lat="37.2641398" lon="13.6836015"><ele>139.0</ele><time>2026-04-29T11:53:14.131Z</time></trkpt><trkpt lat="37.2640689" lon="13.6835625"><ele>139.2</ele><time>2026-04-29T11:53:16.132Z</time></trkpt><trkpt lat="37.2640003" lon="13.6835416"><ele>139.4</ele><time>2026-04-29T11:54:07.131Z</time></trkpt><trkpt lat="37.263862" lon="13.6834922"><ele>139.6</ele><time>2026-04-29T11:54:09.132Z</time></trkpt><trkpt lat="37.2637666" lon="13.6834397"><ele>139.8</ele><time>2026-04-29T11:54:10.131Z</time></trkpt><trkpt lat="37.2636688" lon="13.6834017"><ele>140.0</ele><time>2026-04-29T11:54:11.131Z</time></trkpt><trkpt lat="37.2635659" lon="13.6834003"><ele>142.6</ele><time>2026-04-29T11:54:12.133Z</time></trkpt><trkpt lat="37.2634678" lon="13.683431"><ele>145.2</ele><time>2026-04-29T11:54:13.132Z</time></trkpt><trkpt lat="37.2633673" lon="13.6834959"><ele>147.8</ele><time>2026-04-29T11:54:14.133Z</time></trkpt><trkpt lat="37.263278" lon="13.6835621"><ele>150.4</ele><time>2026-04-29T11:54:15.131Z</time></trkpt><trkpt lat="37.2631989" lon="13.6836086"><ele>153.0</ele><time>2026-04-29T11:54:16.132Z</time></trkpt><trkpt lat="37.2631195" lon="13.6836295"><ele>156.60000000000002</ele><time>2026-04-29T11:54:17.131Z</time></trkpt><trkpt lat="37.2630402" lon="13.6836179"><ele>160.20000000000002</ele><time>2026-04-29T11:54:18.132Z</time></trkpt><trkpt lat="37.2629702" lon="13.6835652"><ele>163.8</ele><time>2026-04-29T11:54:19.132Z</time></trkpt><trkpt lat="37.2629052" lon="13.6834884"><ele>167.4</ele><time>2026-04-29T11:54:20.133Z</time></trkpt><trkpt lat="37.2628296" lon="13.6833919"><ele>171.0</ele><time>2026-04-29T11:54:21.132Z</time></trkpt><trkpt lat="37.2627535" lon="13.6833097"><ele>171.33333333333334</ele><time>2026-04-29T11:54:22.131Z</time></trkpt><trkpt lat="37.2626747" lon="13.6832646"><ele>171.66666666666666</ele><time>2026-04-29T11:54:23.133Z</time></trkpt><trkpt lat="37.2625937" lon="13.6832516"><ele>172.0</ele><time>2026-04-29T11:54:24.132Z</time></trkpt><trkpt lat="37.2625139" lon="13.6833016"><ele>172.33333333333331</ele><time>2026-04-29T11:54:25.132Z</time></trkpt><trkpt lat="37.2624533" lon="13.6833814"><ele>172.66666666666666</ele><time>2026-04-29T11:54:26.131Z</time></trkpt><trkpt lat="37.2623897" lon="13.6834177"><ele>173.0</ele><time>2026-04-29T11:54:27.131Z</time></trkpt><trkpt lat="37.2623161" lon="13.6833952"><ele>175.5</ele><time>2026-04-29T11:54:28.132Z</time></trkpt><trkpt lat="37.2622428" lon="13.6833481"><ele>178.0</ele><time>2026-04-29T11:54:29.132Z</time></trkpt><trkpt lat="37.2621618" lon="13.6833076"><ele>180.5</ele><time>2026-04-29T11:54:30.132Z</time></trkpt><trkpt lat="37.2620806" lon="13.6833061"><ele>183.0</ele><time>2026-04-29T11:54:31.132Z</time></trkpt><trkpt lat="37.2620027" lon="13.6833294"><ele>185.5</ele><time>2026-04-29T11:54:32.131Z</time></trkpt><trkpt lat="37.2619081" lon="13.6833844"><ele>188.0</ele><time>2026-04-29T11:54:33.133Z</time></trkpt><trkpt lat="37.2618059" lon="13.6834387"><ele>188.0</ele><time>2026-04-29T11:54:34.133Z</time></trkpt><trkpt lat="37.2616944" lon="13.6834953"><ele>188.0</ele><time>2026-04-29T11:54:35.133Z</time></trkpt><trkpt lat="37.2615841" lon="13.6835397"><ele>188.0</ele><time>2026-04-29T11:54:36.132Z</time></trkpt><trkpt lat="37.2615028" lon="13.6835698"><ele>188.0</ele><time>2026-04-29T11:54:37.132Z</time></trkpt><trkpt lat="37.261443" lon="13.6836017"><ele>188.0</ele><time>2026-04-29T11:54:38.132Z</time></trkpt><trkpt lat="37.2613179" lon="13.683575"><ele>189.8</ele><time>2026-04-29T11:54:40.131Z</time></trkpt><trkpt lat="37.2612409" lon="13.6835332"><ele>191.60000000000002</ele><time>2026-04-29T11:54:41.132Z</time></trkpt><trkpt lat="37.2611416" lon="13.6834965"><ele>193.39999999999998</ele><time>2026-04-29T11:54:42.132Z</time></trkpt><trkpt lat="37.2610233" lon="13.6834555"><ele>195.2</ele><time>2026-04-29T11:54:43.132Z</time></trkpt><trkpt lat="37.2609042" lon="13.6834225"><ele>197.0</ele><time>2026-04-29T11:54:44.131Z</time></trkpt><trkpt lat="37.2607692" lon="13.6833884"><ele>197.0</ele><time>2026-04-29T11:54:45.132Z</time></trkpt><trkpt lat="37.2606299" lon="13.6833525"><ele>197.0</ele><time>2026-04-29T11:54:46.131Z</time></trkpt><trkpt lat="37.2604794" lon="13.6833163"><ele>197.0</ele><time>2026-04-29T11:54:47.132Z</time></trkpt><trkpt lat="37.2603303" lon="13.6832906"><ele>197.0</ele><time>2026-04-29T11:54:48.132Z</time></trkpt><trkpt lat="37.2601964" lon="13.6832787"><ele>196.75</ele><time>2026-04-29T11:54:49.132Z</time></trkpt><trkpt lat="37.2600646" lon="13.6832605"><ele>196.5</ele><time>2026-04-29T11:54:50.132Z</time></trkpt><trkpt lat="37.2599513" lon="13.6832473"><ele>196.25</ele><time>2026-04-29T11:54:51.131Z</time></trkpt><trkpt lat="37.2598307" lon="13.6832256"><ele>196.0</ele><time>2026-04-29T11:54:52.131Z</time></trkpt><trkpt lat="37.2597129" lon="13.6832131"><ele>196.0</ele><time>2026-04-29T11:54:53.132Z</time></trkpt><trkpt lat="37.2595937" lon="13.6832032"><ele>196.0</ele><time>2026-04-29T11:54:54.132Z</time></trkpt><trkpt lat="37.2594772" lon="13.6831997"><ele>196.0</ele><time>2026-04-29T11:54:55.131Z</time></trkpt><trkpt lat="37.2593703" lon="13.6831957"><ele>196.0</ele><time>2026-04-29T11:54:56.132Z</time></trkpt><trkpt lat="37.2592562" lon="13.6831979"><ele>196.0</ele><time>2026-04-29T11:54:57.132Z</time></trkpt><trkpt lat="37.2591381" lon="13.6832044"><ele>196.0</ele><time>2026-04-29T11:54:58.131Z</time></trkpt><trkpt lat="37.2590207" lon="13.6832168"><ele>196.0</ele><time>2026-04-29T11:54:59.132Z</time></trkpt><trkpt lat="37.2588992" lon="13.6832331"><ele>196.0</ele><time>2026-04-29T11:55:00.132Z</time></trkpt><trkpt lat="37.2587748" lon="13.6832465"><ele>195.0</ele><time>2026-04-29T11:55:01.132Z</time></trkpt><trkpt lat="37.2586561" lon="13.6832546"><ele>194.0</ele><time>2026-04-29T11:55:02.132Z</time></trkpt><trkpt lat="37.2585412" lon="13.6832664"><ele>193.0</ele><time>2026-04-29T11:55:03.131Z</time></trkpt><trkpt lat="37.2584321" lon="13.6832816"><ele>192.0</ele><time>2026-04-29T11:55:04.131Z</time></trkpt><trkpt lat="37.25833" lon="13.6833076"><ele>191.0</ele><time>2026-04-29T11:55:05.132Z</time></trkpt><trkpt lat="37.2582282" lon="13.6833476"><ele>191.0</ele><time>2026-04-29T11:55:06.132Z</time></trkpt><trkpt lat="37.2581299" lon="13.6834026"><ele>191.0</ele><time>2026-04-29T11:55:07.131Z</time></trkpt><trkpt lat="37.258031" lon="13.6834665"><ele>191.0</ele><time>2026-04-29T11:55:08.132Z</time></trkpt><trkpt lat="37.2579313" lon="13.6835132"><ele>191.0</ele><time>2026-04-29T11:55:09.131Z</time></trkpt><trkpt lat="37.2578229" lon="13.6835503"><ele>191.0</ele><time>2026-04-29T11:55:10.131Z</time></trkpt><trkpt lat="37.2577121" lon="13.683559"><ele>189.4</ele><time>2026-04-29T11:55:11.132Z</time></trkpt><trkpt lat="37.2576031" lon="13.6835571"><ele>187.8</ele><time>2026-04-29T11:55:12.131Z</time></trkpt><trkpt lat="37.2574969" lon="13.683551"><ele>186.20000000000002</ele><time>2026-04-29T11:55:13.132Z</time></trkpt><trkpt lat="37.2573944" lon="13.6835427"><ele>184.60000000000002</ele><time>2026-04-29T11:55:14.133Z</time></trkpt><trkpt lat="37.2572972" lon="13.6835415"><ele>183.0</ele><time>2026-04-29T11:55:15.132Z</time></trkpt><trkpt lat="37.2572008" lon="13.683531"><ele>182.5</ele><time>2026-04-29T11:55:16.132Z</time></trkpt><trkpt lat="37.2571148" lon="13.6835207"><ele>182.0</ele><time>2026-04-29T11:55:17.131Z</time></trkpt><trkpt lat="37.2570331" lon="13.6835096"><ele>181.5</ele><time>2026-04-29T11:55:18.132Z</time></trkpt><trkpt lat="37.256948" lon="13.6835027"><ele>181.0</ele><time>2026-04-29T11:55:19.132Z</time></trkpt><trkpt lat="37.2568629" lon="13.6834933"><ele>180.5</ele><time>2026-04-29T11:55:20.131Z</time></trkpt><trkpt lat="37.2567755" lon="13.6834857"><ele>180.0</ele><time>2026-04-29T11:55:21.132Z</time></trkpt><trkpt lat="37.2566878" lon="13.6834846"><ele>180.0</ele><time>2026-04-29T11:55:22.132Z</time></trkpt><trkpt lat="37.2565993" lon="13.6834874"><ele>180.0</ele><time>2026-04-29T11:55:23.132Z</time></trkpt><trkpt lat="37.2565118" lon="13.683495"><ele>180.0</ele><time>2026-04-29T11:55:24.132Z</time></trkpt><trkpt lat="37.2564283" lon="13.6834999"><ele>180.0</ele><time>2026-04-29T11:55:25.132Z</time></trkpt><trkpt lat="37.2563423" lon="13.6835112"><ele>180.0</ele><time>2026-04-29T11:55:26.132Z</time></trkpt><trkpt lat="37.256252" lon="13.6835256"><ele>180.0</ele><time>2026-04-29T11:55:27.132Z</time></trkpt><trkpt lat="37.2561667" lon="13.6835204"><ele>180.0</ele><time>2026-04-29T11:55:28.131Z</time></trkpt><trkpt lat="37.2560853" lon="13.6835023"><ele>180.0</ele><time>2026-04-29T11:55:29.132Z</time></trkpt><trkpt lat="37.2560058" lon="13.6834725"><ele>180.0</ele><time>2026-04-29T11:55:30.131Z</time></trkpt><trkpt lat="37.2559275" lon="13.6834361"><ele>180.0</ele><time>2026-04-29T11:55:31.132Z</time></trkpt><trkpt lat="37.2558533" lon="13.6833949"><ele>180.0</ele><time>2026-04-29T11:55:32.132Z</time></trkpt><trkpt lat="37.2557841" lon="13.6833618"><ele>180.0</ele><time>2026-04-29T11:55:33.133Z</time></trkpt><trkpt lat="37.255708" lon="13.6833285"><ele>180.0</ele><time>2026-04-29T11:55:34.131Z</time></trkpt><trkpt lat="37.2556322" lon="13.683296"><ele>180.0</ele><time>2026-04-29T11:55:35.131Z</time></trkpt><trkpt lat="37.2555617" lon="13.6832687"><ele>180.0</ele><time>2026-04-29T11:55:36.132Z</time></trkpt><trkpt lat="37.2554961" lon="13.6832617"><ele>180.0</ele><time>2026-04-29T11:55:37.132Z</time></trkpt><trkpt lat="37.2553751" lon="13.683258"><ele>180.0</ele><time>2026-04-29T11:55:39.132Z</time></trkpt><trkpt lat="37.255263" lon="13.6832616"><ele>179.4</ele><time>2026-04-29T11:55:41.132Z</time></trkpt><trkpt lat="37.2551664" lon="13.683307"><ele>178.8</ele><time>2026-04-29T11:55:43.132Z</time></trkpt><trkpt lat="37.2550703" lon="13.6833594"><ele>178.2</ele><time>2026-04-29T11:55:45.133Z</time></trkpt><trkpt lat="37.2549672" lon="13.6833988"><ele>177.6</ele><time>2026-04-29T11:55:47.131Z</time></trkpt><trkpt lat="37.2548689" lon="13.6834364"><ele>177.0</ele><time>2026-04-29T11:55:49.131Z</time></trkpt><trkpt lat="37.2547543" lon="13.6834863"><ele>176.39999999999998</ele><time>2026-04-29T11:55:51.132Z</time></trkpt><trkpt lat="37.2546351" lon="13.6835394"><ele>175.79999999999998</ele><time>2026-04-29T11:55:53.131Z</time></trkpt><trkpt lat="37.254573" lon="13.683557"><ele>175.2</ele><time>2026-04-29T11:55:54.132Z</time></trkpt><trkpt lat="37.254512" lon="13.6835785"><ele>174.6</ele><time>2026-04-29T11:55:55.132Z</time></trkpt><trkpt lat="37.2543921" lon="13.683622"><ele>174.0</ele><time>2026-04-29T11:55:57.132Z</time></trkpt><trkpt lat="37.2542834" lon="13.6836676"><ele>174.0</ele><time>2026-04-29T11:55:59.131Z</time></trkpt><trkpt lat="37.2541688" lon="13.6837249"><ele>174.0</ele><time>2026-04-29T11:56:01.132Z</time></trkpt><trkpt lat="37.2540566" lon="13.6837762"><ele>174.0</ele><time>2026-04-29T11:56:03.131Z</time></trkpt><trkpt lat="37.2539506" lon="13.6838361"><ele>174.0</ele><time>2026-04-29T11:56:05.131Z</time></trkpt><trkpt lat="37.2538747" lon="13.6839097"><ele>171.66666666666666</ele><time>2026-04-29T11:56:07.13Z</time></trkpt><trkpt lat="37.2538225" lon="13.6839897"><ele>169.33333333333334</ele><time>2026-04-29T11:56:10.131Z</time></trkpt><trkpt lat="37.2537848" lon="13.6840556"><ele>167.0</ele><time>2026-04-29T11:56:13.131Z</time></trkpt><trkpt lat="37.2537379" lon="13.6841272"><ele>164.66666666666669</ele><time>2026-04-29T11:56:55.131Z</time></trkpt><trkpt lat="37.2537074" lon="13.6842361"><ele>162.33333333333334</ele><time>2026-04-29T11:56:58.132Z</time></trkpt><trkpt lat="37.2536575" lon="13.6843434"><ele>160.0</ele><time>2026-04-29T11:57:00.131Z</time></trkpt><trkpt lat="37.2535974" lon="13.6844613"><ele>159.4</ele><time>2026-04-29T11:57:02.132Z</time></trkpt><trkpt lat="37.2535301" lon="13.6846014"><ele>158.8</ele><time>2026-04-29T11:57:04.13Z</time></trkpt><trkpt lat="37.2534907" lon="13.6846787"><ele>158.2</ele><time>2026-04-29T11:57:05.131Z</time></trkpt><trkpt lat="37.2534466" lon="13.6847626"><ele>157.6</ele><time>2026-04-29T11:57:06.131Z</time></trkpt><trkpt lat="37.2533987" lon="13.6848518"><ele>157.0</ele><time>2026-04-29T11:57:07.131Z</time></trkpt><trkpt lat="37.2533475" lon="13.6849383"><ele>157.0</ele><time>2026-04-29T11:57:08.131Z</time></trkpt><trkpt lat="37.2532925" lon="13.6850305"><ele>157.0</ele><time>2026-04-29T11:57:09.131Z</time></trkpt><trkpt lat="37.2532369" lon="13.6851227"><ele>157.0</ele><time>2026-04-29T11:57:10.131Z</time></trkpt><trkpt lat="37.2531777" lon="13.6852149"><ele>157.0</ele><time>2026-04-29T11:57:11.133Z</time></trkpt><trkpt lat="37.2531111" lon="13.6852994"><ele>157.0</ele><time>2026-04-29T11:57:12.13Z</time></trkpt><trkpt lat="37.2530325" lon="13.6853567"><ele>155.0</ele><time>2026-04-29T11:57:13.131Z</time></trkpt><trkpt lat="37.252946" lon="13.6853939"><ele>153.0</ele><time>2026-04-29T11:57:14.131Z</time></trkpt><trkpt lat="37.2480416" lon="13.6860498"><ele>120.5</ele><time>2026-04-29T11:58:27.889Z</time></trkpt><trkpt lat="37.2480124" lon="13.6856665"><ele>88.0</ele><time>2026-04-29T11:58:29.131Z</time></trkpt><trkpt lat="37.2479953" lon="13.6854578"><ele>88.0</ele><time>2026-04-29T11:58:30.13Z</time></trkpt><trkpt lat="37.2480512" lon="13.6852669"><ele>88.0</ele><time>2026-04-29T11:58:31.131Z</time></trkpt><trkpt lat="37.2480545" lon="13.6850561"><ele>88.0</ele><time>2026-04-29T11:58:32.13Z</time></trkpt><trkpt lat="37.2480611" lon="13.6848416"><ele>87.33333333333333</ele><time>2026-04-29T11:58:33.132Z</time></trkpt><trkpt lat="37.24808" lon="13.6846236"><ele>86.66666666666667</ele><time>2026-04-29T11:58:34.131Z</time></trkpt><trkpt lat="37.2481148" lon="13.6844089"><ele>86.0</ele><time>2026-04-29T11:58:35.13Z</time></trkpt><trkpt lat="37.24818" lon="13.6839649"><ele>87.0</ele><time>2026-04-29T11:58:37.13Z</time></trkpt><trkpt lat="37.2482254" lon="13.6837407"><ele>88.0</ele><time>2026-04-29T11:58:38.13Z</time></trkpt><trkpt lat="37.2482797" lon="13.6835039"><ele>89.0</ele><time>2026-04-29T11:58:39.13Z</time></trkpt><trkpt lat="37.2483474" lon="13.6832585"><ele>89.0</ele><time>2026-04-29T11:58:40.131Z</time></trkpt><trkpt lat="37.2484178" lon="13.6830373"><ele>89.0</ele><time>2026-04-29T11:58:41.131Z</time></trkpt><trkpt lat="37.2484912" lon="13.6828314"><ele>89.0</ele><time>2026-04-29T11:58:42.13Z</time></trkpt><trkpt lat="37.2485679" lon="13.6826284"><ele>88.66666666666667</ele><time>2026-04-29T11:58:43.131Z</time></trkpt><trkpt lat="37.2486408" lon="13.6824351"><ele>88.33333333333333</ele><time>2026-04-29T11:58:44.131Z</time></trkpt><trkpt lat="37.2487048" lon="13.6822362"><ele>88.0</ele><time>2026-04-29T11:58:45.131Z</time></trkpt><trkpt lat="37.2487542" lon="13.6820283"><ele>86.66666666666666</ele><time>2026-04-29T11:58:46.132Z</time></trkpt><trkpt lat="37.2487884" lon="13.6818051"><ele>85.33333333333333</ele><time>2026-04-29T11:58:47.131Z</time></trkpt><trkpt lat="37.2488104" lon="13.6815669"><ele>84.0</ele><time>2026-04-29T11:58:48.131Z</time></trkpt><trkpt lat="37.2488185" lon="13.6813194"><ele>83.0</ele><time>2026-04-29T11:58:49.132Z</time></trkpt><trkpt lat="37.2488045" lon="13.6810788"><ele>82.0</ele><time>2026-04-29T11:58:50.13Z</time></trkpt><trkpt lat="37.2487669" lon="13.6808474"><ele>81.0</ele><time>2026-04-29T11:58:51.13Z</time></trkpt><trkpt lat="37.2487098" lon="13.6806173"><ele>81.0</ele><time>2026-04-29T11:58:52.131Z</time></trkpt><trkpt lat="37.2486361" lon="13.6803865"><ele>81.0</ele><time>2026-04-29T11:58:53.132Z</time></trkpt><trkpt lat="37.2485432" lon="13.6801651"><ele>81.0</ele><time>2026-04-29T11:58:54.131Z</time></trkpt><trkpt lat="37.2484265" lon="13.6799592"><ele>80.33333333333333</ele><time>2026-04-29T11:58:55.13Z</time></trkpt><trkpt lat="37.2482948" lon="13.6797559"><ele>79.66666666666666</ele><time>2026-04-29T11:58:56.13Z</time></trkpt><trkpt lat="37.2481587" lon="13.6795495"><ele>79.0</ele><time>2026-04-29T11:58:57.131Z</time></trkpt><trkpt lat="37.2480183" lon="13.6793399"><ele>78.0</ele><time>2026-04-29T11:58:58.131Z</time></trkpt><trkpt lat="37.2478673" lon="13.6791255"><ele>77.0</ele><time>2026-04-29T11:58:59.13Z</time></trkpt><trkpt lat="37.2477116" lon="13.678909"><ele>77.0</ele><time>2026-04-29T11:59:00.131Z</time></trkpt><trkpt lat="37.2475545" lon="13.6786877"><ele>77.0</ele><time>2026-04-29T11:59:01.131Z</time></trkpt><trkpt lat="37.2473954" lon="13.678462"><ele>75.5</ele><time>2026-04-29T11:59:02.131Z</time></trkpt><trkpt lat="37.2472341" lon="13.6782328"><ele>74.0</ele><time>2026-04-29T11:59:03.131Z</time></trkpt><trkpt lat="37.2470725" lon="13.6779988"><ele>73.0</ele><time>2026-04-29T11:59:04.131Z</time></trkpt><trkpt lat="37.2469089" lon="13.6777654"><ele>72.0</ele><time>2026-04-29T11:59:05.13Z</time></trkpt><trkpt lat="37.2467443" lon="13.6775296"><ele>72.0</ele><time>2026-04-29T11:59:06.13Z</time></trkpt><trkpt lat="37.2465785" lon="13.677292"><ele>72.0</ele><time>2026-04-29T11:59:07.131Z</time></trkpt><trkpt lat="37.2464133" lon="13.6770521"><ele>72.5</ele><time>2026-04-29T11:59:08.131Z</time></trkpt><trkpt lat="37.2462486" lon="13.6768126"><ele>73.0</ele><time>2026-04-29T11:59:09.13Z</time></trkpt><trkpt lat="37.2460865" lon="13.6765759"><ele>73.0</ele><time>2026-04-29T11:59:10.132Z</time></trkpt><trkpt lat="37.2459337" lon="13.6763554"><ele>73.0</ele><time>2026-04-29T11:59:11.131Z</time></trkpt><trkpt lat="37.2457782" lon="13.6761323"><ele>72.0</ele><time>2026-04-29T11:59:12.131Z</time></trkpt><trkpt lat="37.2456229" lon="13.675908"><ele>71.0</ele><time>2026-04-29T11:59:13.131Z</time></trkpt><trkpt lat="37.2454659" lon="13.6756822"><ele>71.0</ele><time>2026-04-29T11:59:14.13Z</time></trkpt><trkpt lat="37.2453071" lon="13.6754531"><ele>71.0</ele><time>2026-04-29T11:59:15.131Z</time></trkpt><trkpt lat="37.2451467" lon="13.6752205"><ele>70.0</ele><time>2026-04-29T11:59:16.13Z</time></trkpt><trkpt lat="37.2449831" lon="13.6749871"><ele>69.0</ele><time>2026-04-29T11:59:17.13Z</time></trkpt><trkpt lat="37.244818" lon="13.6747525"><ele>69.0</ele><time>2026-04-29T11:59:18.131Z</time></trkpt><trkpt lat="37.2446665" lon="13.6745348"><ele>69.0</ele><time>2026-04-29T11:59:19.131Z</time></trkpt><trkpt lat="37.2445264" lon="13.6743347"><ele>69.0</ele><time>2026-04-29T11:59:20.13Z</time></trkpt><trkpt lat="37.2443979" lon="13.6741455"><ele>68.0</ele><time>2026-04-29T11:59:21.132Z</time></trkpt><trkpt lat="37.244271" lon="13.6739541"><ele>67.0</ele><time>2026-04-29T11:59:22.131Z</time></trkpt><trkpt lat="37.2441378" lon="13.6737589"><ele>66.0</ele><time>2026-04-29T11:59:23.13Z</time></trkpt><trkpt lat="37.2440005" lon="13.6735649"><ele>64.0</ele><time>2026-04-29T11:59:24.13Z</time></trkpt><trkpt lat="37.2438752" lon="13.6733857"><ele>62.0</ele><time>2026-04-29T11:59:25.131Z</time></trkpt><trkpt lat="37.2437599" lon="13.6732137"><ele>60.0</ele><time>2026-04-29T11:59:26.131Z</time></trkpt><trkpt lat="37.2436501" lon="13.6730548"><ele>60.0</ele><time>2026-04-29T11:59:27.132Z</time></trkpt><trkpt lat="37.2435532" lon="13.6729152"><ele>60.0</ele><time>2026-04-29T11:59:28.132Z</time></trkpt><trkpt lat="37.2434699" lon="13.6727932"><ele>60.0</ele><time>2026-04-29T11:59:29.132Z</time></trkpt><trkpt lat="37.2433969" lon="13.6726848"><ele>60.0</ele><time>2026-04-29T11:59:30.132Z</time></trkpt><trkpt lat="37.2433386" lon="13.6725935"><ele>60.0</ele><time>2026-04-29T11:59:31.132Z</time></trkpt><trkpt lat="37.2432928" lon="13.6725119"><ele>60.0</ele><time>2026-04-29T11:59:32.132Z</time></trkpt><trkpt lat="37.2432268" lon="13.6723918"><ele>60.0</ele><time>2026-04-29T11:59:34.132Z</time></trkpt><trkpt lat="37.2431696" lon="13.672345"><ele>60.0</ele><time>2026-04-29T11:59:42.132Z</time></trkpt><trkpt lat="37.2430562" lon="13.6723239"><ele>60.0</ele><time>2026-04-29T11:59:45.131Z</time></trkpt><trkpt lat="37.2429689" lon="13.6723545"><ele>59.5</ele><time>2026-04-29T11:59:46.132Z</time></trkpt><trkpt lat="37.2428748" lon="13.67242"><ele>59.0</ele><time>2026-04-29T11:59:47.131Z</time></trkpt><trkpt lat="37.2427658" lon="13.6725101"><ele>58.5</ele><time>2026-04-29T11:59:48.13Z</time></trkpt><trkpt lat="37.2426453" lon="13.6726124"><ele>58.0</ele><time>2026-04-29T11:59:49.132Z</time></trkpt><trkpt lat="37.2425075" lon="13.6727237"><ele>58.33333333333333</ele><time>2026-04-29T11:59:50.132Z</time></trkpt><trkpt lat="37.2423642" lon="13.672838"><ele>58.66666666666667</ele><time>2026-04-29T11:59:51.131Z</time></trkpt><trkpt lat="37.2422375" lon="13.672942"><ele>59.0</ele><time>2026-04-29T11:59:52.131Z</time></trkpt><trkpt lat="37.242125" lon="13.6730336"><ele>60.0</ele><time>2026-04-29T11:59:53.131Z</time></trkpt><trkpt lat="37.2420245" lon="13.6731209"><ele>61.00000000000001</ele><time>2026-04-29T11:59:54.131Z</time></trkpt><trkpt lat="37.2419383" lon="13.6731862"><ele>62.00000000000001</ele><time>2026-04-29T11:59:55.132Z</time></trkpt><trkpt lat="37.2418606" lon="13.6732255"><ele>63.0</ele><time>2026-04-29T11:59:56.13Z</time></trkpt><trkpt lat="37.2417855" lon="13.6732275"><ele>64.0</ele><time>2026-04-29T11:59:57.131Z</time></trkpt><trkpt lat="37.2417045" lon="13.6731804"><ele>64.0</ele><time>2026-04-29T11:59:58.13Z</time></trkpt><trkpt lat="37.2416069" lon="13.6731042"><ele>64.0</ele><time>2026-04-29T11:59:59.132Z</time></trkpt><trkpt lat="37.2414991" lon="13.673015"><ele>64.0</ele><time>2026-04-29T12:00:00.131Z</time></trkpt><trkpt lat="37.2413753" lon="13.6729505"><ele>64.0</ele><time>2026-04-29T12:00:01.131Z</time></trkpt><trkpt lat="37.241245" lon="13.6728772"><ele>65.2</ele><time>2026-04-29T12:00:02.132Z</time></trkpt><trkpt lat="37.2411336" lon="13.6728221"><ele>66.4</ele><time>2026-04-29T12:00:03.131Z</time></trkpt><trkpt lat="37.2410311" lon="13.6727691"><ele>67.6</ele><time>2026-04-29T12:00:04.131Z</time></trkpt><trkpt lat="37.240944" lon="13.6727241"><ele>68.8</ele><time>2026-04-29T12:00:05.131Z</time></trkpt><trkpt lat="37.2408729" lon="13.6726922"><ele>70.0</ele><time>2026-04-29T12:00:06.13Z</time></trkpt><trkpt lat="37.2408102" lon="13.6726672"><ele>70.0</ele><time>2026-04-29T12:00:07.131Z</time></trkpt><trkpt lat="37.2407285" lon="13.6726168"><ele>70.0</ele><time>2026-04-29T12:00:09.131Z</time></trkpt><trkpt lat="37.2406558" lon="13.6725907"><ele>70.0</ele><time>2026-04-29T12:02:17.129Z</time></trkpt><trkpt lat="37.2405473" lon="13.6725424"><ele>70.0</ele><time>2026-04-29T12:02:19.13Z</time></trkpt><trkpt lat="37.2404721" lon="13.6725062"><ele>70.0</ele><time>2026-04-29T12:02:20.13Z</time></trkpt><trkpt lat="37.2403936" lon="13.6724661"><ele>70.0</ele><time>2026-04-29T12:02:21.129Z</time></trkpt><trkpt lat="37.2403229" lon="13.6724288"><ele>70.71428571428571</ele><time>2026-04-29T12:02:22.13Z</time></trkpt><trkpt lat="37.2402602" lon="13.6723957"><ele>71.42857142857143</ele><time>2026-04-29T12:02:23.129Z</time></trkpt><trkpt lat="37.2401996" lon="13.6723635"><ele>72.14285714285714</ele><time>2026-04-29T12:02:24.131Z</time></trkpt><trkpt lat="37.2401355" lon="13.6723294"><ele>72.85714285714286</ele><time>2026-04-29T12:02:25.131Z</time></trkpt><trkpt lat="37.2400706" lon="13.6722923"><ele>73.57142857142857</ele><time>2026-04-29T12:02:26.129Z</time></trkpt><trkpt lat="37.2399998" lon="13.6722508"><ele>74.28571428571428</ele><time>2026-04-29T12:02:27.131Z</time></trkpt><trkpt lat="37.2399241" lon="13.6722049"><ele>75.0</ele><time>2026-04-29T12:02:28.13Z</time></trkpt><trkpt lat="37.2398496" lon="13.6721644"><ele>75.5</ele><time>2026-04-29T12:02:29.131Z</time></trkpt><trkpt lat="37.2397787" lon="13.6721283"><ele>76.0</ele><time>2026-04-29T12:02:30.13Z</time></trkpt><trkpt lat="37.2397068" lon="13.6720933"><ele>76.5</ele><time>2026-04-29T12:02:31.13Z</time></trkpt><trkpt lat="37.2396358" lon="13.6720614"><ele>77.0</ele><time>2026-04-29T12:02:32.13Z</time></trkpt><trkpt lat="37.2395658" lon="13.6720285"><ele>77.5</ele><time>2026-04-29T12:02:33.131Z</time></trkpt><trkpt lat="37.2394952" lon="13.6719932"><ele>78.0</ele><time>2026-04-29T12:02:34.131Z</time></trkpt><trkpt lat="37.2394303" lon="13.67196"><ele>78.16666666666667</ele><time>2026-04-29T12:02:35.131Z</time></trkpt><trkpt lat="37.239333" lon="13.6719221"><ele>78.33333333333333</ele><time>2026-04-29T12:02:37.13Z</time></trkpt><trkpt lat="37.2392639" lon="13.6719202"><ele>78.5</ele><time>2026-04-29T12:02:40.131Z</time></trkpt><trkpt lat="37.2391932" lon="13.6718937"><ele>78.66666666666666</ele><time>2026-04-29T12:02:43.131Z</time></trkpt><trkpt lat="37.2391028" lon="13.6718386"><ele>78.83333333333333</ele><time>2026-04-29T12:02:46.131Z</time></trkpt><trkpt lat="37.2390036" lon="13.6718128"><ele>79.0</ele><time>2026-04-29T12:02:48.13Z</time></trkpt><trkpt lat="37.238896" lon="13.6717605"><ele>79.16666666666666</ele><time>2026-04-29T12:02:50.13Z</time></trkpt><trkpt lat="37.2388312" lon="13.6717257"><ele>79.33333333333333</ele><time>2026-04-29T12:02:51.13Z</time></trkpt><trkpt lat="37.2387667" lon="13.6716862"><ele>79.5</ele><time>2026-04-29T12:02:52.13Z</time></trkpt><trkpt lat="37.2387007" lon="13.6716521"><ele>79.66666666666667</ele><time>2026-04-29T12:02:53.129Z</time></trkpt><trkpt lat="37.2386313" lon="13.6716083"><ele>79.83333333333334</ele><time>2026-04-29T12:02:54.13Z</time></trkpt><trkpt lat="37.2385748" lon="13.6715675"><ele>80.0</ele><time>2026-04-29T12:02:55.129Z</time></trkpt><trkpt lat="37.2384688" lon="13.6714917"><ele>80.0</ele><time>2026-04-29T12:02:57.13Z</time></trkpt><trkpt lat="37.2383833" lon="13.6714487"><ele>80.0</ele><time>2026-04-29T12:02:59.131Z</time></trkpt><trkpt lat="37.2383089" lon="13.6714077"><ele>80.0</ele><time>2026-04-29T12:03:01.13Z</time></trkpt><trkpt lat="37.2382447" lon="13.6713742"><ele>80.0</ele><time>2026-04-29T12:03:03.13Z</time></trkpt><trkpt lat="37.2381765" lon="13.6712993"><ele>80.0</ele><time>2026-04-29T12:03:05.131Z</time></trkpt><trkpt lat="37.2381029" lon="13.6712361"><ele>80.0</ele><time>2026-04-29T12:03:07.132Z</time></trkpt><trkpt lat="37.238045" lon="13.6712048"><ele>79.75</ele><time>2026-04-29T12:03:09.131Z</time></trkpt><trkpt lat="37.237978" lon="13.6711662"><ele>79.5</ele><time>2026-04-29T12:03:11.131Z</time></trkpt><trkpt lat="37.2378395" lon="13.6710794"><ele>79.25</ele><time>2026-04-29T12:03:13.13Z</time></trkpt><trkpt lat="37.2377392" lon="13.6710157"><ele>79.0</ele><time>2026-04-29T12:03:14.131Z</time></trkpt><trkpt lat="37.2376137" lon="13.6709344"><ele>78.66666666666666</ele><time>2026-04-29T12:03:15.131Z</time></trkpt><trkpt lat="37.2374813" lon="13.6708476"><ele>78.33333333333333</ele><time>2026-04-29T12:03:16.13Z</time></trkpt><trkpt lat="37.2373358" lon="13.6707549"><ele>78.0</ele><time>2026-04-29T12:03:17.129Z</time></trkpt><trkpt lat="37.2371886" lon="13.6706575"><ele>79.0</ele><time>2026-04-29T12:03:18.132Z</time></trkpt><trkpt lat="37.2370563" lon="13.6705732"><ele>80.0</ele><time>2026-04-29T12:03:19.13Z</time></trkpt><trkpt lat="37.236942" lon="13.6705113"><ele>81.0</ele><time>2026-04-29T12:03:20.131Z</time></trkpt><trkpt lat="37.2368317" lon="13.670448"><ele>82.0</ele><time>2026-04-29T12:03:21.129Z</time></trkpt><trkpt lat="37.2367323" lon="13.6703882"><ele>82.0</ele><time>2026-04-29T12:03:22.13Z</time></trkpt><trkpt lat="37.2366378" lon="13.6703357"><ele>82.0</ele><time>2026-04-29T12:03:23.13Z</time></trkpt><trkpt lat="37.236562" lon="13.6702963"><ele>82.0</ele><time>2026-04-29T12:03:24.131Z</time></trkpt><trkpt lat="37.2364922" lon="13.6702571"><ele>82.0</ele><time>2026-04-29T12:03:25.13Z</time></trkpt><trkpt lat="37.2364345" lon="13.6702229"><ele>82.0</ele><time>2026-04-29T12:03:26.13Z</time></trkpt><trkpt lat="37.2363557" lon="13.6701795"><ele>82.0</ele><time>2026-04-29T12:03:27.131Z</time></trkpt><trkpt lat="37.2362729" lon="13.670126"><ele>81.85714285714285</ele><time>2026-04-29T12:03:28.131Z</time></trkpt><trkpt lat="37.2362021" lon="13.6700821"><ele>81.71428571428571</ele><time>2026-04-29T12:03:29.131Z</time></trkpt><trkpt lat="37.2361333" lon="13.6700486"><ele>81.57142857142857</ele><time>2026-04-29T12:03:30.131Z</time></trkpt><trkpt lat="37.2360662" lon="13.6700221"><ele>81.42857142857142</ele><time>2026-04-29T12:03:31.13Z</time></trkpt><trkpt lat="37.2360067" lon="13.6699932"><ele>81.28571428571428</ele><time>2026-04-29T12:03:32.129Z</time></trkpt><trkpt lat="37.2359487" lon="13.6699615"><ele>81.14285714285714</ele><time>2026-04-29T12:03:33.131Z</time></trkpt><trkpt lat="37.2358893" lon="13.6699283"><ele>81.0</ele><time>2026-04-29T12:03:34.131Z</time></trkpt><trkpt lat="37.2358264" lon="13.6699011"><ele>81.0</ele><time>2026-04-29T12:03:35.129Z</time></trkpt><trkpt lat="37.235764" lon="13.6698553"><ele>81.0</ele><time>2026-04-29T12:03:36.131Z</time></trkpt><trkpt lat="37.2356946" lon="13.6698243"><ele>81.0</ele><time>2026-04-29T12:03:37.13Z</time></trkpt><trkpt lat="37.2356152" lon="13.6697856"><ele>81.0</ele><time>2026-04-29T12:03:38.131Z</time></trkpt><trkpt lat="37.2355291" lon="13.6697432"><ele>81.0</ele><time>2026-04-29T12:03:39.131Z</time></trkpt><trkpt lat="37.2354462" lon="13.6696979"><ele>81.0</ele><time>2026-04-29T12:03:40.13Z</time></trkpt><trkpt lat="37.2353714" lon="13.669657"><ele>80.83333333333333</ele><time>2026-04-29T12:03:41.13Z</time></trkpt><trkpt lat="37.2352952" lon="13.6696174"><ele>80.66666666666667</ele><time>2026-04-29T12:03:42.129Z</time></trkpt><trkpt lat="37.2352264" lon="13.669578"><ele>80.5</ele><time>2026-04-29T12:03:43.129Z</time></trkpt><trkpt lat="37.2351565" lon="13.6695381"><ele>80.33333333333334</ele><time>2026-04-29T12:03:44.13Z</time></trkpt><trkpt lat="37.2350864" lon="13.6695028"><ele>80.16666666666667</ele><time>2026-04-29T12:03:45.13Z</time></trkpt><trkpt lat="37.2350097" lon="13.6694646"><ele>80.0</ele><time>2026-04-29T12:03:46.131Z</time></trkpt><trkpt lat="37.2349298" lon="13.6694176"><ele>79.4</ele><time>2026-04-29T12:03:47.132Z</time></trkpt><trkpt lat="37.234846" lon="13.6693735"><ele>78.8</ele><time>2026-04-29T12:03:48.132Z</time></trkpt><trkpt lat="37.2347565" lon="13.6693269"><ele>78.2</ele><time>2026-04-29T12:03:49.131Z</time></trkpt><trkpt lat="37.2346572" lon="13.6692796"><ele>77.6</ele><time>2026-04-29T12:03:50.131Z</time></trkpt><trkpt lat="37.2345586" lon="13.6692305"><ele>77.0</ele><time>2026-04-29T12:03:51.129Z</time></trkpt><trkpt lat="37.2344694" lon="13.6691801"><ele>77.0</ele><time>2026-04-29T12:03:52.129Z</time></trkpt><trkpt lat="37.2343862" lon="13.6691325"><ele>77.0</ele><time>2026-04-29T12:03:53.13Z</time></trkpt><trkpt lat="37.2343034" lon="13.6690898"><ele>77.0</ele><time>2026-04-29T12:03:54.13Z</time></trkpt><trkpt lat="37.2342242" lon="13.6690516"><ele>77.0</ele><time>2026-04-29T12:03:55.129Z</time></trkpt><trkpt lat="37.2341499" lon="13.6689985"><ele>77.0</ele><time>2026-04-29T12:03:56.131Z</time></trkpt><trkpt lat="37.2340688" lon="13.6689547"><ele>77.0</ele><time>2026-04-29T12:03:57.129Z</time></trkpt><trkpt lat="37.2339865" lon="13.6689158"><ele>77.14285714285714</ele><time>2026-04-29T12:03:58.13Z</time></trkpt><trkpt lat="37.2339149" lon="13.6688805"><ele>77.28571428571428</ele><time>2026-04-29T12:03:59.131Z</time></trkpt><trkpt lat="37.2338525" lon="13.6688455"><ele>77.42857142857143</ele><time>2026-04-29T12:04:00.13Z</time></trkpt><trkpt lat="37.2337925" lon="13.6688125"><ele>77.57142857142857</ele><time>2026-04-29T12:04:01.131Z</time></trkpt><trkpt lat="37.2337244" lon="13.6687848"><ele>77.71428571428571</ele><time>2026-04-29T12:04:02.131Z</time></trkpt><trkpt lat="37.2336436" lon="13.6687573"><ele>77.85714285714286</ele><time>2026-04-29T12:04:03.13Z</time></trkpt><trkpt lat="37.2335689" lon="13.6687308"><ele>78.0</ele><time>2026-04-29T12:04:04.131Z</time></trkpt><trkpt lat="37.2334996" lon="13.6687075"><ele>78.0</ele><time>2026-04-29T12:04:05.13Z</time></trkpt><trkpt lat="37.2334337" lon="13.6686876"><ele>78.0</ele><time>2026-04-29T12:04:06.13Z</time></trkpt><trkpt lat="37.2333117" lon="13.6686388"><ele>78.0</ele><time>2026-04-29T12:04:08.131Z</time></trkpt><trkpt lat="37.2332432" lon="13.6686215"><ele>78.0</ele><time>2026-04-29T12:04:09.131Z</time></trkpt><trkpt lat="37.233174" lon="13.6686053"><ele>78.0</ele><time>2026-04-29T12:04:10.129Z</time></trkpt><trkpt lat="37.2330931" lon="13.6685889"><ele>78.0</ele><time>2026-04-29T12:04:11.13Z</time></trkpt><trkpt lat="37.2330091" lon="13.6685671"><ele>77.66666666666667</ele><time>2026-04-29T12:04:12.13Z</time></trkpt><trkpt lat="37.232934" lon="13.6685461"><ele>77.33333333333333</ele><time>2026-04-29T12:04:13.129Z</time></trkpt><trkpt lat="37.2328619" lon="13.66853"><ele>77.0</ele><time>2026-04-29T12:04:14.131Z</time></trkpt><trkpt lat="37.2327895" lon="13.6685156"><ele>76.66666666666666</ele><time>2026-04-29T12:04:15.129Z</time></trkpt><trkpt lat="37.2327069" lon="13.6684808"><ele>76.33333333333333</ele><time>2026-04-29T12:04:16.13Z</time></trkpt><trkpt lat="37.2326186" lon="13.6684291"><ele>76.0</ele><time>2026-04-29T12:04:17.131Z</time></trkpt><trkpt lat="37.2325276" lon="13.6683692"><ele>76.0</ele><time>2026-04-29T12:04:18.131Z</time></trkpt><trkpt lat="37.2324292" lon="13.6683078"><ele>76.0</ele><time>2026-04-29T12:04:19.13Z</time></trkpt><trkpt lat="37.2323279" lon="13.6682386"><ele>76.0</ele><time>2026-04-29T12:04:20.131Z</time></trkpt><trkpt lat="37.2322246" lon="13.6681672"><ele>76.0</ele><time>2026-04-29T12:04:21.13Z</time></trkpt><trkpt lat="37.2321109" lon="13.6680954"><ele>76.5</ele><time>2026-04-29T12:04:22.129Z</time></trkpt><trkpt lat="37.2319969" lon="13.6680195"><ele>77.0</ele><time>2026-04-29T12:04:23.13Z</time></trkpt><trkpt lat="37.231883" lon="13.6679433"><ele>77.5</ele><time>2026-04-29T12:04:24.13Z</time></trkpt><trkpt lat="37.2317639" lon="13.6678722"><ele>78.0</ele><time>2026-04-29T12:04:25.129Z</time></trkpt><trkpt lat="37.2316476" lon="13.6677971"><ele>77.5</ele><time>2026-04-29T12:04:26.13Z</time></trkpt><trkpt lat="37.2315363" lon="13.6677275"><ele>77.0</ele><time>2026-04-29T12:04:27.129Z</time></trkpt><trkpt lat="37.2314221" lon="13.6676568"><ele>76.5</ele><time>2026-04-29T12:04:28.131Z</time></trkpt><trkpt lat="37.2313085" lon="13.6675829"><ele>76.0</ele><time>2026-04-29T12:04:29.129Z</time></trkpt><trkpt lat="37.2311973" lon="13.6675139"><ele>76.8</ele><time>2026-04-29T12:04:30.129Z</time></trkpt><trkpt lat="37.2310887" lon="13.6674446"><ele>77.6</ele><time>2026-04-29T12:04:31.13Z</time></trkpt><trkpt lat="37.2309874" lon="13.6673804"><ele>78.4</ele><time>2026-04-29T12:04:32.131Z</time></trkpt><trkpt lat="37.2308965" lon="13.6673292"><ele>79.2</ele><time>2026-04-29T12:04:33.131Z</time></trkpt><trkpt lat="37.2308128" lon="13.6672944"><ele>80.0</ele><time>2026-04-29T12:04:34.13Z</time></trkpt><trkpt lat="37.2307367" lon="13.6672566"><ele>80.0</ele><time>2026-04-29T12:04:35.13Z</time></trkpt><trkpt lat="37.2306631" lon="13.6672248"><ele>80.0</ele><time>2026-04-29T12:04:36.13Z</time></trkpt><trkpt lat="37.230581" lon="13.6671969"><ele>80.0</ele><time>2026-04-29T12:04:37.129Z</time></trkpt><trkpt lat="37.230508" lon="13.6671746"><ele>80.0</ele><time>2026-04-29T12:04:38.13Z</time></trkpt><trkpt lat="37.2304297" lon="13.6671481"><ele>80.0</ele><time>2026-04-29T12:04:39.129Z</time></trkpt><trkpt lat="37.2303482" lon="13.6671197"><ele>80.0</ele><time>2026-04-29T12:04:40.129Z</time></trkpt><trkpt lat="37.2302648" lon="13.667094"><ele>80.0</ele><time>2026-04-29T12:04:41.129Z</time></trkpt><trkpt lat="37.2301862" lon="13.667059"><ele>80.0</ele><time>2026-04-29T12:04:42.13Z</time></trkpt><trkpt lat="37.2301055" lon="13.6670308"><ele>80.0</ele><time>2026-04-29T12:04:43.13Z</time></trkpt><trkpt lat="37.2300242" lon="13.6670007"><ele>80.0</ele><time>2026-04-29T12:04:44.13Z</time></trkpt><trkpt lat="37.2299581" lon="13.6669765"><ele>80.0</ele><time>2026-04-29T12:04:45.13Z</time></trkpt><trkpt lat="37.2298871" lon="13.6669503"><ele>80.0</ele><time>2026-04-29T12:04:46.131Z</time></trkpt><trkpt lat="37.2298078" lon="13.6669111"><ele>80.0</ele><time>2026-04-29T12:04:47.13Z</time></trkpt><trkpt lat="37.2297255" lon="13.6668856"><ele>80.0</ele><time>2026-04-29T12:04:48.13Z</time></trkpt><trkpt lat="37.2296497" lon="13.6668547"><ele>80.0</ele><time>2026-04-29T12:04:49.13Z</time></trkpt><trkpt lat="37.2295737" lon="13.6668225"><ele>80.0</ele><time>2026-04-29T12:04:50.131Z</time></trkpt><trkpt lat="37.2294977" lon="13.6667834"><ele>80.0</ele><time>2026-04-29T12:04:51.131Z</time></trkpt><trkpt lat="37.2294221" lon="13.6667516"><ele>80.0</ele><time>2026-04-29T12:04:52.131Z</time></trkpt><trkpt lat="37.2293475" lon="13.6667285"><ele>80.0</ele><time>2026-04-29T12:04:53.131Z</time></trkpt><trkpt lat="37.2292646" lon="13.6667021"><ele>80.0</ele><time>2026-04-29T12:04:54.131Z</time></trkpt><trkpt lat="37.2291834" lon="13.66667"><ele>80.0</ele><time>2026-04-29T12:04:55.13Z</time></trkpt><trkpt lat="37.2290986" lon="13.6666326"><ele>80.0</ele><time>2026-04-29T12:04:56.129Z</time></trkpt><trkpt lat="37.2290211" lon="13.6665976"><ele>80.0</ele><time>2026-04-29T12:04:57.131Z</time></trkpt><trkpt lat="37.2289429" lon="13.6665635"><ele>80.0</ele><time>2026-04-29T12:04:58.129Z</time></trkpt><trkpt lat="37.2288657" lon="13.6665344"><ele>79.85714285714286</ele><time>2026-04-29T12:04:59.13Z</time></trkpt><trkpt lat="37.2287931" lon="13.6665086"><ele>79.71428571428572</ele><time>2026-04-29T12:05:00.13Z</time></trkpt><trkpt lat="37.2287236" lon="13.6664827"><ele>79.57142857142858</ele><time>2026-04-29T12:05:01.13Z</time></trkpt><trkpt lat="37.2286511" lon="13.6664676"><ele>79.42857142857143</ele><time>2026-04-29T12:05:02.132Z</time></trkpt><trkpt lat="37.2285801" lon="13.666444"><ele>79.28571428571429</ele><time>2026-04-29T12:05:03.131Z</time></trkpt><trkpt lat="37.2285107" lon="13.6664137"><ele>79.14285714285715</ele><time>2026-04-29T12:05:04.13Z</time></trkpt><trkpt lat="37.2284409" lon="13.6663802"><ele>79.0</ele><time>2026-04-29T12:05:05.13Z</time></trkpt><trkpt lat="37.2283696" lon="13.6663472"><ele>79.0</ele><time>2026-04-29T12:05:06.13Z</time></trkpt><trkpt lat="37.2283004" lon="13.6663166"><ele>79.0</ele><time>2026-04-29T12:05:07.13Z</time></trkpt><trkpt lat="37.2282304" lon="13.6662877"><ele>79.0</ele><time>2026-04-29T12:05:08.129Z</time></trkpt><trkpt lat="37.2281603" lon="13.66626"><ele>79.0</ele><time>2026-04-29T12:05:09.131Z</time></trkpt><trkpt lat="37.228087" lon="13.6662224"><ele>79.0</ele><time>2026-04-29T12:05:10.129Z</time></trkpt><trkpt lat="37.2280137" lon="13.6661782"><ele>79.0</ele><time>2026-04-29T12:05:11.13Z</time></trkpt><trkpt lat="37.2279397" lon="13.666137"><ele>78.33333333333333</ele><time>2026-04-29T12:05:12.13Z</time></trkpt><trkpt lat="37.2278584" lon="13.6660928"><ele>77.66666666666666</ele><time>2026-04-29T12:05:13.13Z</time></trkpt><trkpt lat="37.2277774" lon="13.6660355"><ele>77.0</ele><time>2026-04-29T12:05:14.13Z</time></trkpt><trkpt lat="37.227699" lon="13.6659711"><ele>76.33333333333333</ele><time>2026-04-29T12:05:15.129Z</time></trkpt><trkpt lat="37.2276247" lon="13.6659056"><ele>75.66666666666667</ele><time>2026-04-29T12:05:16.13Z</time></trkpt><trkpt lat="37.2275597" lon="13.6658455"><ele>75.0</ele><time>2026-04-29T12:05:17.131Z</time></trkpt><trkpt lat="37.2274992" lon="13.6657922"><ele>75.0</ele><time>2026-04-29T12:05:18.131Z</time></trkpt><trkpt lat="37.2274363" lon="13.6657398"><ele>75.0</ele><time>2026-04-29T12:05:19.13Z</time></trkpt><trkpt lat="37.2273739" lon="13.665682"><ele>75.0</ele><time>2026-04-29T12:05:20.13Z</time></trkpt><trkpt lat="37.2273132" lon="13.6656309"><ele>75.0</ele><time>2026-04-29T12:05:21.13Z</time></trkpt><trkpt lat="37.2272506" lon="13.6655718"><ele>75.0</ele><time>2026-04-29T12:05:22.13Z</time></trkpt><trkpt lat="37.2271936" lon="13.6655053"><ele>75.0</ele><time>2026-04-29T12:05:23.13Z</time></trkpt><trkpt lat="37.2271329" lon="13.6654442"><ele>74.42857142857142</ele><time>2026-04-29T12:05:24.13Z</time></trkpt><trkpt lat="37.2270679" lon="13.6653886"><ele>73.85714285714286</ele><time>2026-04-29T12:05:25.13Z</time></trkpt><trkpt lat="37.2270106" lon="13.6653268"><ele>73.28571428571428</ele><time>2026-04-29T12:05:26.13Z</time></trkpt><trkpt lat="37.2269565" lon="13.6652786"><ele>72.71428571428571</ele><time>2026-04-29T12:05:27.131Z</time></trkpt><trkpt lat="37.2268926" lon="13.6652291"><ele>72.14285714285714</ele><time>2026-04-29T12:05:28.129Z</time></trkpt><trkpt lat="37.2268359" lon="13.6651677"><ele>71.57142857142857</ele><time>2026-04-29T12:05:29.131Z</time></trkpt><trkpt lat="37.2267748" lon="13.6651191"><ele>71.0</ele><time>2026-04-29T12:05:30.13Z</time></trkpt><trkpt lat="37.2267122" lon="13.6650642"><ele>71.0</ele><time>2026-04-29T12:05:31.131Z</time></trkpt><trkpt lat="37.226658" lon="13.6650208"><ele>71.0</ele><time>2026-04-29T12:05:32.13Z</time></trkpt><trkpt lat="37.2265638" lon="13.6649214"><ele>71.0</ele><time>2026-04-29T12:05:34.13Z</time></trkpt><trkpt lat="37.2265001" lon="13.66482"><ele>71.0</ele><time>2026-04-29T12:05:36.13Z</time></trkpt><trkpt lat="37.2264496" lon="13.6647563"><ele>71.0</ele><time>2026-04-29T12:05:38.131Z</time></trkpt><trkpt lat="37.2263961" lon="13.6646521"><ele>69.8</ele><time>2026-04-29T12:05:41.129Z</time></trkpt><trkpt lat="37.2264118" lon="13.6645427"><ele>68.6</ele><time>2026-04-29T12:05:43.129Z</time></trkpt><trkpt lat="37.2263533" lon="13.6646224"><ele>67.4</ele><time>2026-04-29T12:05:49.129Z</time></trkpt><trkpt lat="37.2263358" lon="13.6647206"><ele>66.2</ele><time>2026-04-29T12:05:50.131Z</time></trkpt><trkpt lat="37.2263027" lon="13.6648636"><ele>65.0</ele><time>2026-04-29T12:05:51.129Z</time></trkpt><trkpt lat="37.2262672" lon="13.6650051"><ele>65.0</ele><time>2026-04-29T12:05:52.13Z</time></trkpt><trkpt lat="37.2262291" lon="13.6651592"><ele>65.0</ele><time>2026-04-29T12:05:53.129Z</time></trkpt><trkpt lat="37.2261823" lon="13.665324"><ele>65.0</ele><time>2026-04-29T12:05:54.132Z</time></trkpt><trkpt lat="37.2261348" lon="13.6655041"><ele>65.0</ele><time>2026-04-29T12:05:55.13Z</time></trkpt><trkpt lat="37.2260809" lon="13.6657017"><ele>64.33333333333334</ele><time>2026-04-29T12:05:56.131Z</time></trkpt><trkpt lat="37.2260255" lon="13.6659042"><ele>63.66666666666667</ele><time>2026-04-29T12:05:57.131Z</time></trkpt><trkpt lat="37.2259685" lon="13.6660899"><ele>63.0</ele><time>2026-04-29T12:05:58.131Z</time></trkpt><trkpt lat="37.2259149" lon="13.6662744"><ele>62.75</ele><time>2026-04-29T12:05:59.129Z</time></trkpt><trkpt lat="37.2258687" lon="13.6664441"><ele>62.5</ele><time>2026-04-29T12:06:00.13Z</time></trkpt><trkpt lat="37.2258231" lon="13.6666066"><ele>62.25</ele><time>2026-04-29T12:06:01.13Z</time></trkpt><trkpt lat="37.2257793" lon="13.6667539"><ele>62.0</ele><time>2026-04-29T12:06:02.129Z</time></trkpt><trkpt lat="37.2257404" lon="13.6668979"><ele>62.2</ele><time>2026-04-29T12:06:03.129Z</time></trkpt><trkpt lat="37.2257018" lon="13.667032"><ele>62.400000000000006</ele><time>2026-04-29T12:06:04.13Z</time></trkpt><trkpt lat="37.2256672" lon="13.6671628"><ele>62.599999999999994</ele><time>2026-04-29T12:06:05.131Z</time></trkpt><trkpt lat="37.2256331" lon="13.667278"><ele>62.8</ele><time>2026-04-29T12:06:06.13Z</time></trkpt><trkpt lat="37.225602" lon="13.6673866"><ele>63.0</ele><time>2026-04-29T12:06:07.129Z</time></trkpt><trkpt lat="37.2255723" lon="13.6674797"><ele>62.666666666666664</ele><time>2026-04-29T12:06:08.13Z</time></trkpt><trkpt lat="37.2255343" lon="13.6675523"><ele>62.33333333333333</ele><time>2026-04-29T12:06:09.129Z</time></trkpt><trkpt lat="37.2254799" lon="13.6676005"><ele>62.0</ele><time>2026-04-29T12:06:10.13Z</time></trkpt><trkpt lat="37.2254259" lon="13.6676573"><ele>61.666666666666664</ele><time>2026-04-29T12:06:11.129Z</time></trkpt><trkpt lat="37.2253408" lon="13.6677669"><ele>61.33333333333333</ele><time>2026-04-29T12:06:13.13Z</time></trkpt><trkpt lat="37.2252996" lon="13.6678396"><ele>61.0</ele><time>2026-04-29T12:06:14.131Z</time></trkpt><trkpt lat="37.2252567" lon="13.6679024"><ele>61.0</ele><time>2026-04-29T12:06:15.13Z</time></trkpt><trkpt lat="37.2251717" lon="13.6680031"><ele>60.99999999999999</ele><time>2026-04-29T12:06:17.13Z</time></trkpt><trkpt lat="37.2250588" lon="13.6680737"><ele>60.99999999999999</ele><time>2026-04-29T12:06:19.13Z</time></trkpt><trkpt lat="37.2249832" lon="13.6680984"><ele>61.0</ele><time>2026-04-29T12:06:20.13Z</time></trkpt><trkpt lat="37.2249046" lon="13.6681062"><ele>61.0</ele><time>2026-04-29T12:06:21.13Z</time></trkpt><trkpt lat="37.2248098" lon="13.6681027"><ele>59.599999999999994</ele><time>2026-04-29T12:06:22.13Z</time></trkpt><trkpt lat="37.2246929" lon="13.6680903"><ele>58.199999999999996</ele><time>2026-04-29T12:06:23.129Z</time></trkpt><trkpt lat="37.224581" lon="13.6680749"><ele>56.800000000000004</ele><time>2026-04-29T12:06:24.13Z</time></trkpt><trkpt lat="37.224476" lon="13.668062"><ele>55.400000000000006</ele><time>2026-04-29T12:06:25.13Z</time></trkpt><trkpt lat="37.2243796" lon="13.6680496"><ele>54.0</ele><time>2026-04-29T12:06:26.131Z</time></trkpt><trkpt lat="37.2242879" lon="13.6680559"><ele>54.0</ele><time>2026-04-29T12:06:27.129Z</time></trkpt><trkpt lat="37.2242009" lon="13.6680667"><ele>54.0</ele><time>2026-04-29T12:06:28.13Z</time></trkpt><trkpt lat="37.2241193" lon="13.6680986"><ele>54.0</ele><time>2026-04-29T12:06:29.13Z</time></trkpt><trkpt lat="37.2240373" lon="13.6681289"><ele>54.0</ele><time>2026-04-29T12:06:30.13Z</time></trkpt><trkpt lat="37.2239619" lon="13.6681488"><ele>54.0</ele><time>2026-04-29T12:06:31.129Z</time></trkpt><trkpt lat="37.2238883" lon="13.6681597"><ele>54.0</ele><time>2026-04-29T12:06:32.129Z</time></trkpt><trkpt lat="37.2238138" lon="13.6681463"><ele>53.400000000000006</ele><time>2026-04-29T12:06:33.131Z</time></trkpt><trkpt lat="37.2237363" lon="13.6681156"><ele>52.800000000000004</ele><time>2026-04-29T12:06:34.129Z</time></trkpt><trkpt lat="37.2236513" lon="13.6680722"><ele>52.2</ele><time>2026-04-29T12:06:35.129Z</time></trkpt><trkpt lat="37.2235486" lon="13.6680155"><ele>51.599999999999994</ele><time>2026-04-29T12:06:36.13Z</time></trkpt><trkpt lat="37.2234597" lon="13.6679681"><ele>51.0</ele><time>2026-04-29T12:06:37.13Z</time></trkpt><trkpt lat="37.2233734" lon="13.6679321"><ele>51.0</ele><time>2026-04-29T12:06:38.129Z</time></trkpt><trkpt lat="37.2232941" lon="13.6679081"><ele>51.0</ele><time>2026-04-29T12:06:39.131Z</time></trkpt><trkpt lat="37.2232172" lon="13.6679002"><ele>51.0</ele><time>2026-04-29T12:06:40.13Z</time></trkpt><trkpt lat="37.2231264" lon="13.6679005"><ele>51.0</ele><time>2026-04-29T12:06:41.129Z</time></trkpt><trkpt lat="37.2230323" lon="13.6679034"><ele>51.0</ele><time>2026-04-29T12:06:42.131Z</time></trkpt><trkpt lat="37.2229487" lon="13.6679021"><ele>51.0</ele><time>2026-04-29T12:06:43.13Z</time></trkpt><trkpt lat="37.2228687" lon="13.6679051"><ele>50.0</ele><time>2026-04-29T12:06:44.131Z</time></trkpt><trkpt lat="37.2227844" lon="13.6679085"><ele>49.0</ele><time>2026-04-29T12:06:45.13Z</time></trkpt><trkpt lat="37.2226994" lon="13.6679047"><ele>48.0</ele><time>2026-04-29T12:06:46.131Z</time></trkpt><trkpt lat="37.2226117" lon="13.6678968"><ele>47.0</ele><time>2026-04-29T12:06:47.129Z</time></trkpt><trkpt lat="37.2225301" lon="13.6678788"><ele>46.0</ele><time>2026-04-29T12:06:48.13Z</time></trkpt><trkpt lat="37.222443" lon="13.6678519"><ele>45.0</ele><time>2026-04-29T12:06:49.13Z</time></trkpt><trkpt lat="37.2223589" lon="13.6678226"><ele>44.714285714285715</ele><time>2026-04-29T12:06:50.129Z</time></trkpt><trkpt lat="37.2222806" lon="13.6677999"><ele>44.42857142857143</ele><time>2026-04-29T12:06:51.13Z</time></trkpt><trkpt lat="37.2222064" lon="13.6677847"><ele>44.142857142857146</ele><time>2026-04-29T12:06:52.131Z</time></trkpt><trkpt lat="37.222137" lon="13.6677833"><ele>43.85714285714286</ele><time>2026-04-29T12:06:53.13Z</time></trkpt><trkpt lat="37.2220708" lon="13.6677915"><ele>43.57142857142857</ele><time>2026-04-29T12:06:54.131Z</time></trkpt><trkpt lat="37.2219999" lon="13.6678244"><ele>43.28571428571429</ele><time>2026-04-29T12:06:55.129Z</time></trkpt><trkpt lat="37.2219363" lon="13.6678811"><ele>43.0</ele><time>2026-04-29T12:06:56.13Z</time></trkpt><trkpt lat="37.221881" lon="13.6679436"><ele>43.00000000000001</ele><time>2026-04-29T12:06:57.13Z</time></trkpt><trkpt lat="37.2218317" lon="13.6680108"><ele>43.0</ele><time>2026-04-29T12:06:58.129Z</time></trkpt><trkpt lat="37.2217757" lon="13.6680673"><ele>43.0</ele><time>2026-04-29T12:06:59.129Z</time></trkpt><trkpt lat="37.2217151" lon="13.6681041"><ele>43.0</ele><time>2026-04-29T12:07:00.129Z</time></trkpt><trkpt lat="37.2216505" lon="13.6681225"><ele>43.0</ele><time>2026-04-29T12:07:01.129Z</time></trkpt><trkpt lat="37.2215859" lon="13.6681334"><ele>43.00000000000001</ele><time>2026-04-29T12:07:03.131Z</time></trkpt><trkpt lat="37.2214914" lon="13.6680918"><ele>43.0</ele><time>2026-04-29T12:07:06.129Z</time></trkpt><trkpt lat="37.2214417" lon="13.6679791"><ele>43.714285714285715</ele><time>2026-04-29T12:07:08.13Z</time></trkpt><trkpt lat="37.2214399" lon="13.6678914"><ele>44.42857142857143</ele><time>2026-04-29T12:07:09.13Z</time></trkpt><trkpt lat="37.2214473" lon="13.6677905"><ele>45.14285714285714</ele><time>2026-04-29T12:07:10.13Z</time></trkpt><trkpt lat="37.2214413" lon="13.6677036"><ele>45.85714285714286</ele><time>2026-04-29T12:07:11.13Z</time></trkpt><trkpt lat="37.2214328" lon="13.6676202"><ele>46.57142857142857</ele><time>2026-04-29T12:07:12.13Z</time></trkpt><trkpt lat="37.2214186" lon="13.6675313"><ele>47.285714285714285</ele><time>2026-04-29T12:07:13.129Z</time></trkpt><trkpt lat="37.2214168" lon="13.6674428"><ele>48.0</ele><time>2026-04-29T12:07:14.131Z</time></trkpt><trkpt lat="37.2214276" lon="13.6673397"><ele>48.0</ele><time>2026-04-29T12:07:15.13Z</time></trkpt><trkpt lat="37.2214259" lon="13.667253"><ele>48.0</ele><time>2026-04-29T12:07:16.13Z</time></trkpt><trkpt lat="37.2214201" lon="13.667169"><ele>48.0</ele><time>2026-04-29T12:07:17.131Z</time></trkpt><trkpt lat="37.22141" lon="13.6670844"><ele>48.0</ele><time>2026-04-29T12:07:18.13Z</time></trkpt><trkpt lat="37.2213841" lon="13.6669998"><ele>48.0</ele><time>2026-04-29T12:07:19.129Z</time></trkpt><trkpt lat="37.2213257" lon="13.6669188"><ele>48.0</ele><time>2026-04-29T12:07:20.13Z</time></trkpt><trkpt lat="37.2212669" lon="13.6668373"><ele>47.599999999999994</ele><time>2026-04-29T12:07:21.129Z</time></trkpt><trkpt lat="37.2211911" lon="13.666779"><ele>47.199999999999996</ele><time>2026-04-29T12:07:22.129Z</time></trkpt><trkpt lat="37.2211028" lon="13.6667206"><ele>46.8</ele><time>2026-04-29T12:07:23.129Z</time></trkpt><trkpt lat="37.2209944" lon="13.6666574"><ele>46.4</ele><time>2026-04-29T12:07:24.129Z</time></trkpt><trkpt lat="37.2208746" lon="13.6665869"><ele>46.0</ele><time>2026-04-29T12:07:25.129Z</time></trkpt><trkpt lat="37.2207624" lon="13.6665262"><ele>46.0</ele><time>2026-04-29T12:07:26.13Z</time></trkpt><trkpt lat="37.2206672" lon="13.6664817"><ele>46.0</ele><time>2026-04-29T12:07:27.13Z</time></trkpt><trkpt lat="37.2205703" lon="13.666441"><ele>46.0</ele><time>2026-04-29T12:07:28.13Z</time></trkpt><trkpt lat="37.2204671" lon="13.6664148"><ele>46.0</ele><time>2026-04-29T12:07:29.13Z</time></trkpt><trkpt lat="37.2203585" lon="13.6664046"><ele>46.0</ele><time>2026-04-29T12:07:30.13Z</time></trkpt><trkpt lat="37.2202624" lon="13.6663968"><ele>46.199999999999996</ele><time>2026-04-29T12:07:31.129Z</time></trkpt><trkpt lat="37.2201658" lon="13.6663603"><ele>46.4</ele><time>2026-04-29T12:07:32.13Z</time></trkpt><trkpt lat="37.2200538" lon="13.6663193"><ele>46.6</ele><time>2026-04-29T12:07:33.131Z</time></trkpt><trkpt lat="37.2199475" lon="13.6662808"><ele>46.8</ele><time>2026-04-29T12:07:34.13Z</time></trkpt><trkpt lat="37.2198419" lon="13.6662516"><ele>47.0</ele><time>2026-04-29T12:07:35.13Z</time></trkpt><trkpt lat="37.219757" lon="13.6662273"><ele>47.0</ele><time>2026-04-29T12:07:36.13Z</time></trkpt><trkpt lat="37.2196712" lon="13.6662025"><ele>47.0</ele><time>2026-04-29T12:07:37.129Z</time></trkpt><trkpt lat="37.2195803" lon="13.6661739"><ele>47.0</ele><time>2026-04-29T12:07:38.13Z</time></trkpt><trkpt lat="37.2194901" lon="13.6661427"><ele>47.0</ele><time>2026-04-29T12:07:39.129Z</time></trkpt><trkpt lat="37.2194095" lon="13.6661107"><ele>47.0</ele><time>2026-04-29T12:07:40.129Z</time></trkpt><trkpt lat="37.2193328" lon="13.6660861"><ele>47.0</ele><time>2026-04-29T12:07:41.128Z</time></trkpt><trkpt lat="37.2192567" lon="13.6660753"><ele>47.0</ele><time>2026-04-29T12:07:42.13Z</time></trkpt><trkpt lat="37.2191873" lon="13.6660949"><ele>47.0</ele><time>2026-04-29T12:07:43.129Z</time></trkpt><trkpt lat="37.2191114" lon="13.6661221"><ele>47.0</ele><time>2026-04-29T12:07:44.129Z</time></trkpt><trkpt lat="37.2190272" lon="13.6661742"><ele>47.0</ele><time>2026-04-29T12:07:45.13Z</time></trkpt><trkpt lat="37.2189475" lon="13.6662415"><ele>47.0</ele><time>2026-04-29T12:07:46.13Z</time></trkpt><trkpt lat="37.2188707" lon="13.6663067"><ele>47.0</ele><time>2026-04-29T12:07:47.129Z</time></trkpt><trkpt lat="37.2188107" lon="13.6663605"><ele>46.714285714285715</ele><time>2026-04-29T12:07:48.129Z</time></trkpt><trkpt lat="37.2187593" lon="13.6664088"><ele>46.42857142857143</ele><time>2026-04-29T12:07:49.13Z</time></trkpt><trkpt lat="37.2187014" lon="13.6664581"><ele>46.14285714285714</ele><time>2026-04-29T12:07:50.129Z</time></trkpt><trkpt lat="37.2186279" lon="13.6664929"><ele>45.85714285714286</ele><time>2026-04-29T12:07:51.13Z</time></trkpt><trkpt lat="37.2185464" lon="13.6665026"><ele>45.57142857142858</ele><time>2026-04-29T12:07:52.129Z</time></trkpt><trkpt lat="37.2184696" lon="13.6664847"><ele>45.285714285714285</ele><time>2026-04-29T12:07:53.13Z</time></trkpt><trkpt lat="37.218399" lon="13.6664551"><ele>45.0</ele><time>2026-04-29T12:07:54.13Z</time></trkpt><trkpt lat="37.2183375" lon="13.6663963"><ele>45.0</ele><time>2026-04-29T12:07:55.13Z</time></trkpt><trkpt lat="37.2182848" lon="13.6663176"><ele>45.0</ele><time>2026-04-29T12:07:56.129Z</time></trkpt><trkpt lat="37.2182332" lon="13.6662248"><ele>45.0</ele><time>2026-04-29T12:07:57.131Z</time></trkpt><trkpt lat="37.2181829" lon="13.6661397"><ele>45.0</ele><time>2026-04-29T12:07:58.13Z</time></trkpt><trkpt lat="37.2181355" lon="13.6660488"><ele>45.0</ele><time>2026-04-29T12:07:59.13Z</time></trkpt><trkpt lat="37.2180762" lon="13.6659864"><ele>45.0</ele><time>2026-04-29T12:08:00.131Z</time></trkpt><trkpt lat="37.2180054" lon="13.6659507"><ele>45.666666666666664</ele><time>2026-04-29T12:08:01.13Z</time></trkpt><trkpt lat="37.2179255" lon="13.6659353"><ele>46.33333333333333</ele><time>2026-04-29T12:08:02.131Z</time></trkpt><trkpt lat="37.2178402" lon="13.6659451"><ele>47.0</ele><time>2026-04-29T12:08:03.129Z</time></trkpt><trkpt lat="37.2177587" lon="13.6659713"><ele>47.666666666666664</ele><time>2026-04-29T12:08:04.129Z</time></trkpt><trkpt lat="37.2176797" lon="13.6660127"><ele>48.33333333333333</ele><time>2026-04-29T12:08:05.129Z</time></trkpt><trkpt lat="37.2175935" lon="13.6660383"><ele>49.0</ele><time>2026-04-29T12:08:06.129Z</time></trkpt><trkpt lat="37.2174871" lon="13.6660529"><ele>48.99999999999999</ele><time>2026-04-29T12:08:07.13Z</time></trkpt><trkpt lat="37.217383" lon="13.6660536"><ele>49.0</ele><time>2026-04-29T12:08:08.13Z</time></trkpt><trkpt lat="37.2172885" lon="13.666047"><ele>49.0</ele><time>2026-04-29T12:08:09.131Z</time></trkpt><trkpt lat="37.2172037" lon="13.6660277"><ele>49.0</ele><time>2026-04-29T12:08:10.13Z</time></trkpt><trkpt lat="37.2171225" lon="13.66601"><ele>48.99999999999999</ele><time>2026-04-29T12:08:11.13Z</time></trkpt><trkpt lat="37.2170409" lon="13.6660016"><ele>49.0</ele><time>2026-04-29T12:08:12.129Z</time></trkpt><trkpt lat="37.2169529" lon="13.6659987"><ele>49.49999999999999</ele><time>2026-04-29T12:08:13.128Z</time></trkpt><trkpt lat="37.2168675" lon="13.6659753"><ele>50.0</ele><time>2026-04-29T12:08:14.13Z</time></trkpt><trkpt lat="37.2167836" lon="13.6659399"><ele>50.5</ele><time>2026-04-29T12:08:15.13Z</time></trkpt><trkpt lat="37.2167052" lon="13.6658988"><ele>51.0</ele><time>2026-04-29T12:08:16.129Z</time></trkpt><trkpt lat="37.2166216" lon="13.6658501"><ele>51.49999999999999</ele><time>2026-04-29T12:08:17.13Z</time></trkpt><trkpt lat="37.216543" lon="13.6657919"><ele>52.0</ele><time>2026-04-29T12:08:18.128Z</time></trkpt><trkpt lat="37.2164619" lon="13.6657286"><ele>52.8</ele><time>2026-04-29T12:08:19.128Z</time></trkpt><trkpt lat="37.2163823" lon="13.6656562"><ele>53.6</ele><time>2026-04-29T12:08:20.13Z</time></trkpt><trkpt lat="37.2162986" lon="13.6655959"><ele>54.39999999999999</ele><time>2026-04-29T12:08:21.128Z</time></trkpt><trkpt lat="37.2162111" lon="13.6655443"><ele>55.199999999999996</ele><time>2026-04-29T12:08:22.13Z</time></trkpt><trkpt lat="37.2161305" lon="13.6655123"><ele>56.0</ele><time>2026-04-29T12:08:23.129Z</time></trkpt><trkpt lat="37.2160445" lon="13.6654815"><ele>56.00000000000001</ele><time>2026-04-29T12:08:24.129Z</time></trkpt><trkpt lat="37.2159637" lon="13.6654451"><ele>56.0</ele><time>2026-04-29T12:08:25.129Z</time></trkpt><trkpt lat="37.2158774" lon="13.6654132"><ele>56.0</ele><time>2026-04-29T12:08:26.129Z</time></trkpt><trkpt lat="37.215793" lon="13.6653783"><ele>56.0</ele><time>2026-04-29T12:08:27.13Z</time></trkpt><trkpt lat="37.2157213" lon="13.6653349"><ele>56.00000000000001</ele><time>2026-04-29T12:08:28.129Z</time></trkpt><trkpt lat="37.2156351" lon="13.6652869"><ele>56.0</ele><time>2026-04-29T12:08:29.129Z</time></trkpt><trkpt lat="37.2155278" lon="13.6652275"><ele>57.199999999999996</ele><time>2026-04-29T12:08:30.13Z</time></trkpt><trkpt lat="37.2154354" lon="13.665173"><ele>58.39999999999999</ele><time>2026-04-29T12:08:31.128Z</time></trkpt><trkpt lat="37.215348" lon="13.6651359"><ele>59.6</ele><time>2026-04-29T12:08:32.13Z</time></trkpt><trkpt lat="37.2152603" lon="13.6651175"><ele>60.8</ele><time>2026-04-29T12:08:33.129Z</time></trkpt><trkpt lat="37.2151698" lon="13.6651044"><ele>62.0</ele><time>2026-04-29T12:08:34.128Z</time></trkpt><trkpt lat="37.2150758" lon="13.6650865"><ele>62.0</ele><time>2026-04-29T12:08:35.129Z</time></trkpt><trkpt lat="37.2149587" lon="13.665066"><ele>62.0</ele><time>2026-04-29T12:08:36.13Z</time></trkpt><trkpt lat="37.2148587" lon="13.6650523"><ele>62.0</ele><time>2026-04-29T12:08:37.129Z</time></trkpt><trkpt lat="37.2147688" lon="13.6650403"><ele>62.0</ele><time>2026-04-29T12:08:38.13Z</time></trkpt><trkpt lat="37.2146931" lon="13.6650321"><ele>62.0</ele><time>2026-04-29T12:08:39.13Z</time></trkpt><trkpt lat="37.2146223" lon="13.665018"><ele>62.66666666666667</ele><time>2026-04-29T12:08:40.129Z</time></trkpt><trkpt lat="37.2145453" lon="13.6650112"><ele>63.333333333333336</ele><time>2026-04-29T12:08:41.128Z</time></trkpt><trkpt lat="37.2144669" lon="13.6650113"><ele>64.0</ele><time>2026-04-29T12:08:42.13Z</time></trkpt><trkpt lat="37.2143838" lon="13.665018"><ele>64.66666666666667</ele><time>2026-04-29T12:08:43.13Z</time></trkpt><trkpt lat="37.2143045" lon="13.6650269"><ele>65.33333333333333</ele><time>2026-04-29T12:08:44.128Z</time></trkpt><trkpt lat="37.2142175" lon="13.6650385"><ele>66.0</ele><time>2026-04-29T12:08:45.129Z</time></trkpt><trkpt lat="37.2141151" lon="13.6650546"><ele>66.0</ele><time>2026-04-29T12:08:46.128Z</time></trkpt><trkpt lat="37.2140028" lon="13.665073"><ele>66.0</ele><time>2026-04-29T12:08:47.129Z</time></trkpt><trkpt lat="37.2138666" lon="13.665098"><ele>66.0</ele><time>2026-04-29T12:08:48.13Z</time></trkpt><trkpt lat="37.2137367" lon="13.6651228"><ele>66.0</ele><time>2026-04-29T12:08:49.129Z</time></trkpt><trkpt lat="37.2136181" lon="13.6651419"><ele>66.8</ele><time>2026-04-29T12:08:50.129Z</time></trkpt><trkpt lat="37.2135126" lon="13.6651527"><ele>67.6</ele><time>2026-04-29T12:08:51.13Z</time></trkpt><trkpt lat="37.2134068" lon="13.6651644"><ele>68.4</ele><time>2026-04-29T12:08:52.129Z</time></trkpt><trkpt lat="37.2132925" lon="13.6651898"><ele>69.2</ele><time>2026-04-29T12:08:53.129Z</time></trkpt><trkpt lat="37.2131912" lon="13.6652097"><ele>70.0</ele><time>2026-04-29T12:08:54.131Z</time></trkpt><trkpt lat="37.2130989" lon="13.6652364"><ele>70.0</ele><time>2026-04-29T12:08:55.129Z</time></trkpt><trkpt lat="37.2130264" lon="13.6652567"><ele>70.0</ele><time>2026-04-29T12:08:56.129Z</time></trkpt><trkpt lat="37.2129647" lon="13.6652779"><ele>70.0</ele><time>2026-04-29T12:08:57.129Z</time></trkpt><trkpt lat="37.2128977" lon="13.665309"><ele>70.0</ele><time>2026-04-29T12:08:58.129Z</time></trkpt><trkpt lat="37.2128287" lon="13.6653347"><ele>70.0</ele><time>2026-04-29T12:08:59.128Z</time></trkpt><trkpt lat="37.2127569" lon="13.6653663"><ele>70.0</ele><time>2026-04-29T12:09:00.13Z</time></trkpt><trkpt lat="37.2126838" lon="13.6654043"><ele>70.0</ele><time>2026-04-29T12:09:01.13Z</time></trkpt><trkpt lat="37.2126152" lon="13.6654251"><ele>71.0</ele><time>2026-04-29T12:09:02.129Z</time></trkpt><trkpt lat="37.2125488" lon="13.6654336"><ele>72.0</ele><time>2026-04-29T12:09:03.129Z</time></trkpt><trkpt lat="37.2124784" lon="13.665423"><ele>73.0</ele><time>2026-04-29T12:09:04.129Z</time></trkpt><trkpt lat="37.2124078" lon="13.6654072"><ele>74.0</ele><time>2026-04-29T12:09:05.13Z</time></trkpt><trkpt lat="37.2123285" lon="13.6653849"><ele>75.0</ele><time>2026-04-29T12:09:06.129Z</time></trkpt><trkpt lat="37.2122475" lon="13.6653615"><ele>76.0</ele><time>2026-04-29T12:09:07.129Z</time></trkpt><trkpt lat="37.2121611" lon="13.6653288"><ele>75.6</ele><time>2026-04-29T12:09:08.129Z</time></trkpt><trkpt lat="37.2120631" lon="13.6652823"><ele>75.19999999999999</ele><time>2026-04-29T12:09:09.129Z</time></trkpt><trkpt lat="37.211969" lon="13.6652245"><ele>74.80000000000001</ele><time>2026-04-29T12:09:10.129Z</time></trkpt><trkpt lat="37.2118841" lon="13.6651699"><ele>74.4</ele><time>2026-04-29T12:09:11.129Z</time></trkpt><trkpt lat="37.2118011" lon="13.6651218"><ele>74.0</ele><time>2026-04-29T12:09:12.129Z</time></trkpt><trkpt lat="37.2117229" lon="13.6650795"><ele>74.0</ele><time>2026-04-29T12:09:13.131Z</time></trkpt><trkpt lat="37.21164" lon="13.665034"><ele>74.0</ele><time>2026-04-29T12:09:14.128Z</time></trkpt><trkpt lat="37.2115505" lon="13.6649804"><ele>74.0</ele><time>2026-04-29T12:09:15.129Z</time></trkpt><trkpt lat="37.2114604" lon="13.6649306"><ele>74.0</ele><time>2026-04-29T12:09:16.13Z</time></trkpt><trkpt lat="37.2113642" lon="13.664879"><ele>74.0</ele><time>2026-04-29T12:09:17.129Z</time></trkpt><trkpt lat="37.2112752" lon="13.6648272"><ele>74.8</ele><time>2026-04-29T12:09:18.13Z</time></trkpt><trkpt lat="37.2111846" lon="13.6647787"><ele>75.60000000000001</ele><time>2026-04-29T12:09:19.129Z</time></trkpt><trkpt lat="37.2110896" lon="13.6647251"><ele>76.4</ele><time>2026-04-29T12:09:20.13Z</time></trkpt><trkpt lat="37.2109774" lon="13.6646673"><ele>77.2</ele><time>2026-04-29T12:09:21.129Z</time></trkpt><trkpt lat="37.2108694" lon="13.664615"><ele>78.0</ele><time>2026-04-29T12:09:22.13Z</time></trkpt><trkpt lat="37.2107701" lon="13.6645647"><ele>78.0</ele><time>2026-04-29T12:09:23.13Z</time></trkpt><trkpt lat="37.2106826" lon="13.6645267"><ele>78.0</ele><time>2026-04-29T12:09:24.129Z</time></trkpt><trkpt lat="37.2106139" lon="13.6644968"><ele>78.0</ele><time>2026-04-29T12:09:25.129Z</time></trkpt><trkpt lat="37.2105412" lon="13.6644695"><ele>78.0</ele><time>2026-04-29T12:09:26.13Z</time></trkpt><trkpt lat="37.2104783" lon="13.664435"><ele>78.0</ele><time>2026-04-29T12:09:27.13Z</time></trkpt><trkpt lat="37.2103994" lon="13.664409"><ele>78.0</ele><time>2026-04-29T12:09:28.13Z</time></trkpt><trkpt lat="37.2103146" lon="13.6643785"><ele>77.83333333333333</ele><time>2026-04-29T12:09:29.129Z</time></trkpt><trkpt lat="37.210231" lon="13.6643512"><ele>77.66666666666667</ele><time>2026-04-29T12:09:30.128Z</time></trkpt><trkpt lat="37.2101594" lon="13.6643245"><ele>77.5</ele><time>2026-04-29T12:09:31.13Z</time></trkpt><trkpt lat="37.2100919" lon="13.6642953"><ele>77.33333333333334</ele><time>2026-04-29T12:09:32.128Z</time></trkpt><trkpt lat="37.2100312" lon="13.6642608"><ele>77.16666666666667</ele><time>2026-04-29T12:09:33.13Z</time></trkpt><trkpt lat="37.209959" lon="13.6642147"><ele>77.0</ele><time>2026-04-29T12:09:35.129Z</time></trkpt><trkpt lat="37.2098961" lon="13.6641709"><ele>78.0</ele><time>2026-04-29T12:09:37.129Z</time></trkpt><trkpt lat="37.2097789" lon="13.6641091"><ele>79.0</ele><time>2026-04-29T12:09:39.129Z</time></trkpt><trkpt lat="37.209705" lon="13.6640722"><ele>80.0</ele><time>2026-04-29T12:09:40.129Z</time></trkpt><trkpt lat="37.2096253" lon="13.664034"><ele>81.0</ele><time>2026-04-29T12:09:41.13Z</time></trkpt><trkpt lat="37.2095513" lon="13.6639992"><ele>82.0</ele><time>2026-04-29T12:09:42.13Z</time></trkpt><trkpt lat="37.2094714" lon="13.6639568"><ele>82.0</ele><time>2026-04-29T12:09:43.129Z</time></trkpt><trkpt lat="37.2093894" lon="13.6639041"><ele>82.0</ele><time>2026-04-29T12:09:44.13Z</time></trkpt><trkpt lat="37.2093073" lon="13.6638467"><ele>82.0</ele><time>2026-04-29T12:09:45.129Z</time></trkpt><trkpt lat="37.209233" lon="13.6637938"><ele>82.0</ele><time>2026-04-29T12:09:46.13Z</time></trkpt><trkpt lat="37.2091601" lon="13.6637409"><ele>82.0</ele><time>2026-04-29T12:09:47.13Z</time></trkpt><trkpt lat="37.2090903" lon="13.6636909"><ele>82.0</ele><time>2026-04-29T12:09:48.128Z</time></trkpt><trkpt lat="37.2090132" lon="13.663645"><ele>81.66666666666666</ele><time>2026-04-29T12:09:49.128Z</time></trkpt><trkpt lat="37.2089288" lon="13.6636126"><ele>81.33333333333333</ele><time>2026-04-29T12:09:50.13Z</time></trkpt><trkpt lat="37.2088401" lon="13.6635992"><ele>81.0</ele><time>2026-04-29T12:09:51.131Z</time></trkpt><trkpt lat="37.2087472" lon="13.6635875"><ele>80.66666666666667</ele><time>2026-04-29T12:09:52.128Z</time></trkpt><trkpt lat="37.2086652" lon="13.6635802"><ele>80.33333333333334</ele><time>2026-04-29T12:09:53.131Z</time></trkpt><trkpt lat="37.2085996" lon="13.6635737"><ele>80.0</ele><time>2026-04-29T12:09:54.129Z</time></trkpt><trkpt lat="37.2084975" lon="13.6635646"><ele>80.0</ele><time>2026-04-29T12:09:56.128Z</time></trkpt><trkpt lat="37.2084176" lon="13.663566"><ele>80.0</ele><time>2026-04-29T12:09:58.128Z</time></trkpt><trkpt lat="37.20831" lon="13.663594"><ele>80.0</ele><time>2026-04-29T12:10:00.129Z</time></trkpt><trkpt lat="37.2082453" lon="13.6636069"><ele>80.0</ele><time>2026-04-29T12:10:01.129Z</time></trkpt><trkpt lat="37.208175" lon="13.6636216"><ele>80.0</ele><time>2026-04-29T12:10:02.129Z</time></trkpt><trkpt lat="37.2080961" lon="13.663642"><ele>80.0</ele><time>2026-04-29T12:10:03.13Z</time></trkpt><trkpt lat="37.2080307" lon="13.6636546"><ele>80.0</ele><time>2026-04-29T12:10:04.13Z</time></trkpt><trkpt lat="37.2079191" lon="13.6636625"><ele>80.0</ele><time>2026-04-29T12:10:06.129Z</time></trkpt><trkpt lat="37.2078518" lon="13.6636621"><ele>80.0</ele><time>2026-04-29T12:10:09.129Z</time></trkpt><trkpt lat="37.207915" lon="13.6637012"><ele>80.0</ele><time>2026-04-29T12:10:14.129Z</time></trkpt><trkpt lat="37.2080316" lon="13.6636558"><ele>80.0</ele><time>2026-04-29T12:10:16.129Z</time></trkpt><trkpt lat="37.2081026" lon="13.6636419"><ele>80.0</ele><time>2026-04-29T12:10:17.13Z</time></trkpt><trkpt lat="37.2082167" lon="13.6636034"><ele>80.0</ele><time>2026-04-29T12:10:19.13Z</time></trkpt><trkpt lat="37.2083083" lon="13.6635797"><ele>80.0</ele><time>2026-04-29T12:10:21.13Z</time></trkpt><trkpt lat="37.2083954" lon="13.6635692"><ele>80.0</ele><time>2026-04-29T12:10:23.13Z</time></trkpt><trkpt lat="37.2084645" lon="13.6635705"><ele>80.0</ele><time>2026-04-29T12:10:25.129Z</time></trkpt><trkpt lat="37.208521" lon="13.6635304"><ele>80.0</ele><time>2026-04-29T12:10:28.129Z</time></trkpt><trkpt lat="37.2085149" lon="13.6634403"><ele>80.0</ele><time>2026-04-29T12:10:31.128Z</time></trkpt><trkpt lat="37.2085053" lon="13.6633578"><ele>80.0</ele><time>2026-04-29T12:10:33.129Z</time></trkpt><trkpt lat="37.2084889" lon="13.6632782"><ele>80.0</ele><time>2026-04-29T12:10:35.13Z</time></trkpt><trkpt lat="37.2084583" lon="13.6631989"><ele>80.0</ele><time>2026-04-29T12:10:37.129Z</time></trkpt><trkpt lat="37.2084087" lon="13.6631178"><ele>80.0</ele><time>2026-04-29T12:10:40.13Z</time></trkpt><trkpt lat="37.2083591" lon="13.6630227"><ele>80.0</ele><time>2026-04-29T12:10:43.129Z</time></trkpt><trkpt lat="37.2083269" lon="13.662933"><ele>80.0</ele><time>2026-04-29T12:10:45.128Z</time></trkpt><trkpt lat="37.2082866" lon="13.6628444"><ele>79.0</ele><time>2026-04-29T12:10:47.131Z</time></trkpt><trkpt lat="37.2082444" lon="13.6627441"><ele>78.0</ele><time>2026-04-29T12:10:49.129Z</time></trkpt><trkpt lat="37.2081932" lon="13.6626162"><ele>77.0</ele><time>2026-04-29T12:10:51.129Z</time></trkpt><trkpt lat="37.2081438" lon="13.6624675"><ele>76.0</ele><time>2026-04-29T12:10:53.13Z</time></trkpt><trkpt lat="37.2081003" lon="13.6623372"><ele>75.0</ele><time>2026-04-29T12:10:55.13Z</time></trkpt><trkpt lat="37.2080586" lon="13.6622214"><ele>75.0</ele><time>2026-04-29T12:10:57.129Z</time></trkpt><trkpt lat="37.2080051" lon="13.6621048"><ele>75.0</ele><time>2026-04-29T12:10:59.129Z</time></trkpt><trkpt lat="37.2079636" lon="13.6620204"><ele>75.0</ele><time>2026-04-29T12:11:00.13Z</time></trkpt><trkpt lat="37.2078914" lon="13.6618761"><ele>75.0</ele><time>2026-04-29T12:11:02.129Z</time></trkpt><trkpt lat="37.207853" lon="13.6617903"><ele>75.0</ele><time>2026-04-29T12:11:03.129Z</time></trkpt><trkpt lat="37.2078155" lon="13.6617021"><ele>74.28571428571428</ele><time>2026-04-29T12:11:04.129Z</time></trkpt><trkpt lat="37.2077769" lon="13.6616226"><ele>73.57142857142857</ele><time>2026-04-29T12:11:05.13Z</time></trkpt><trkpt lat="37.2077454" lon="13.6615447"><ele>72.85714285714286</ele><time>2026-04-29T12:11:06.129Z</time></trkpt><trkpt lat="37.2077139" lon="13.6614641"><ele>72.14285714285714</ele><time>2026-04-29T12:11:07.128Z</time></trkpt><trkpt lat="37.207682" lon="13.6613744"><ele>71.42857142857143</ele><time>2026-04-29T12:11:08.129Z</time></trkpt><trkpt lat="37.207659" lon="13.6612948"><ele>70.71428571428571</ele><time>2026-04-29T12:11:09.129Z</time></trkpt><trkpt lat="37.2076367" lon="13.6612205"><ele>70.0</ele><time>2026-04-29T12:11:10.128Z</time></trkpt><trkpt lat="37.2076144" lon="13.6611389"><ele>69.2</ele><time>2026-04-29T12:11:11.13Z</time></trkpt><trkpt lat="37.2075958" lon="13.6610592"><ele>68.4</ele><time>2026-04-29T12:11:12.13Z</time></trkpt><trkpt lat="37.2075671" lon="13.66092"><ele>67.6</ele><time>2026-04-29T12:11:14.131Z</time></trkpt><trkpt lat="37.2075442" lon="13.6607659"><ele>66.8</ele><time>2026-04-29T12:11:16.129Z</time></trkpt><trkpt lat="37.2075332" lon="13.6606241"><ele>66.0</ele><time>2026-04-29T12:11:18.129Z</time></trkpt><trkpt lat="37.2075299" lon="13.660509"><ele>66.0</ele><time>2026-04-29T12:11:20.129Z</time></trkpt><trkpt lat="37.2075094" lon="13.6603953"><ele>66.0</ele><time>2026-04-29T12:11:22.13Z</time></trkpt><trkpt lat="37.2074785" lon="13.6602885"><ele>66.0</ele><time>2026-04-29T12:11:25.129Z</time></trkpt><trkpt lat="37.207444" lon="13.6602125"><ele>66.0</ele><time>2026-04-29T12:11:27.128Z</time></trkpt><trkpt lat="37.2074287" lon="13.6601339"><ele>66.0</ele><time>2026-04-29T12:11:29.129Z</time></trkpt><trkpt lat="37.2074246" lon="13.660051"><ele>66.0</ele><time>2026-04-29T12:11:31.131Z</time></trkpt><trkpt lat="37.2074378" lon="13.6599565"><ele>66.0</ele><time>2026-04-29T12:11:34.129Z</time></trkpt><trkpt lat="37.2074179" lon="13.6600492"><ele>66.0</ele><time>2026-04-29T12:11:57.128Z</time></trkpt><trkpt lat="37.2074181" lon="13.66014"><ele>66.0</ele><time>2026-04-29T12:36:15.124Z</time></trkpt><trkpt lat="37.2074463" lon="13.6602397"><ele>66.0</ele><time>2026-04-29T12:36:18.124Z</time></trkpt><trkpt lat="37.2074924" lon="13.6603339"><ele>66.0</ele><time>2026-04-29T12:36:20.124Z</time></trkpt><trkpt lat="37.207513" lon="13.6604618"><ele>66.0</ele><time>2026-04-29T12:36:22.124Z</time></trkpt><trkpt lat="37.207512" lon="13.6605852"><ele>66.0</ele><time>2026-04-29T12:36:24.124Z</time></trkpt><trkpt lat="37.2075319" lon="13.6607292"><ele>66.0</ele><time>2026-04-29T12:36:26.125Z</time></trkpt><trkpt lat="37.2075622" lon="13.6608687"><ele>66.0</ele><time>2026-04-29T12:36:28.125Z</time></trkpt><trkpt lat="37.2075848" lon="13.6610025"><ele>66.0</ele><time>2026-04-29T12:36:30.125Z</time></trkpt><trkpt lat="37.2076137" lon="13.6611401"><ele>66.66666666666667</ele><time>2026-04-29T12:36:32.124Z</time></trkpt><trkpt lat="37.2076592" lon="13.6612887"><ele>67.33333333333333</ele><time>2026-04-29T12:36:34.125Z</time></trkpt><trkpt lat="37.2076841" lon="13.6613625"><ele>68.0</ele><time>2026-04-29T12:36:35.124Z</time></trkpt><trkpt lat="37.2077127" lon="13.6614422"><ele>68.66666666666666</ele><time>2026-04-29T12:36:36.124Z</time></trkpt><trkpt lat="37.2077454" lon="13.6615171"><ele>69.33333333333333</ele><time>2026-04-29T12:36:37.125Z</time></trkpt><trkpt lat="37.2077712" lon="13.6616014"><ele>70.0</ele><time>2026-04-29T12:36:38.124Z</time></trkpt><trkpt lat="37.2078026" lon="13.6616925"><ele>70.0</ele><time>2026-04-29T12:36:39.123Z</time></trkpt><trkpt lat="37.2078448" lon="13.6617846"><ele>70.0</ele><time>2026-04-29T12:36:40.125Z</time></trkpt><trkpt lat="37.2078894" lon="13.6618819"><ele>70.0</ele><time>2026-04-29T12:36:41.123Z</time></trkpt><trkpt lat="37.2079347" lon="13.6619648"><ele>70.0</ele><time>2026-04-29T12:36:42.123Z</time></trkpt><trkpt lat="37.2079763" lon="13.6620388"><ele>70.0</ele><time>2026-04-29T12:36:43.124Z</time></trkpt><trkpt lat="37.2080159" lon="13.6621103"><ele>70.0</ele><time>2026-04-29T12:36:44.124Z</time></trkpt><trkpt lat="37.2080496" lon="13.6621846"><ele>70.33333333333333</ele><time>2026-04-29T12:36:45.123Z</time></trkpt><trkpt lat="37.2080856" lon="13.662269"><ele>70.66666666666666</ele><time>2026-04-29T12:36:46.124Z</time></trkpt><trkpt lat="37.2081217" lon="13.6623459"><ele>71.0</ele><time>2026-04-29T12:36:47.125Z</time></trkpt><trkpt lat="37.2081544" lon="13.6624379"><ele>71.33333333333333</ele><time>2026-04-29T12:36:48.123Z</time></trkpt><trkpt lat="37.2081786" lon="13.6625277"><ele>71.66666666666667</ele><time>2026-04-29T12:36:49.125Z</time></trkpt><trkpt lat="37.2082143" lon="13.6626236"><ele>72.0</ele><time>2026-04-29T12:36:50.125Z</time></trkpt><trkpt lat="37.2082429" lon="13.6627122"><ele>73.33333333333333</ele><time>2026-04-29T12:36:51.124Z</time></trkpt><trkpt lat="37.2082848" lon="13.6628046"><ele>74.66666666666667</ele><time>2026-04-29T12:36:52.125Z</time></trkpt><trkpt lat="37.2083199" lon="13.6628898"><ele>76.0</ele><time>2026-04-29T12:36:53.124Z</time></trkpt><trkpt lat="37.2083402" lon="13.6629713"><ele>77.33333333333334</ele><time>2026-04-29T12:36:54.125Z</time></trkpt><trkpt lat="37.208372" lon="13.6630441"><ele>78.66666666666667</ele><time>2026-04-29T12:36:55.125Z</time></trkpt><trkpt lat="37.2084069" lon="13.6631411"><ele>80.0</ele><time>2026-04-29T12:36:57.124Z</time></trkpt><trkpt lat="37.2084722" lon="13.6632382"><ele>80.0</ele><time>2026-04-29T12:37:01.125Z</time></trkpt><trkpt lat="37.2085158" lon="13.6633471"><ele>80.0</ele><time>2026-04-29T12:37:03.123Z</time></trkpt><trkpt lat="37.2085317" lon="13.6634886"><ele>80.0</ele><time>2026-04-29T12:37:05.124Z</time></trkpt><trkpt lat="37.2085196" lon="13.6635736"><ele>80.0</ele><time>2026-04-29T12:37:08.125Z</time></trkpt><trkpt lat="37.2084256" lon="13.6635679"><ele>80.0</ele><time>2026-04-29T12:45:56.123Z</time></trkpt><trkpt lat="37.208308" lon="13.6635846"><ele>80.0</ele><time>2026-04-29T12:45:58.123Z</time></trkpt><trkpt lat="37.2082329" lon="13.6636066"><ele>80.0</ele><time>2026-04-29T12:45:59.123Z</time></trkpt><trkpt lat="37.208147" lon="13.6636329"><ele>80.0</ele><time>2026-04-29T12:46:00.122Z</time></trkpt><trkpt lat="37.2080602" lon="13.6636593"><ele>80.0</ele><time>2026-04-29T12:46:01.122Z</time></trkpt><trkpt lat="37.2079854" lon="13.6636738"><ele>80.0</ele><time>2026-04-29T12:46:02.122Z</time></trkpt><trkpt lat="37.207876" lon="13.6636681"><ele>80.0</ele><time>2026-04-29T12:46:04.122Z</time></trkpt><trkpt lat="37.207802" lon="13.6636656"><ele>80.66666666666667</ele><time>2026-04-29T12:46:06.123Z</time></trkpt><trkpt lat="37.2077325" lon="13.6636463"><ele>81.33333333333334</ele><time>2026-04-29T12:46:09.122Z</time></trkpt><trkpt lat="37.2076316" lon="13.6636061"><ele>82.0</ele><time>2026-04-29T12:46:51.122Z</time></trkpt><trkpt lat="37.2075687" lon="13.6635755"><ele>82.66666666666667</ele><time>2026-04-29T12:46:52.122Z</time></trkpt><trkpt lat="37.2074993" lon="13.6635297"><ele>83.33333333333333</ele><time>2026-04-29T12:46:53.123Z</time></trkpt><trkpt lat="37.2074211" lon="13.6634721"><ele>84.0</ele><time>2026-04-29T12:46:54.123Z</time></trkpt><trkpt lat="37.2073426" lon="13.6634062"><ele>84.4</ele><time>2026-04-29T12:46:55.123Z</time></trkpt><trkpt lat="37.2072596" lon="13.6633369"><ele>84.80000000000001</ele><time>2026-04-29T12:46:56.124Z</time></trkpt><trkpt lat="37.2071773" lon="13.6632713"><ele>85.19999999999999</ele><time>2026-04-29T12:46:57.122Z</time></trkpt><trkpt lat="37.2070882" lon="13.6632089"><ele>85.6</ele><time>2026-04-29T12:46:58.123Z</time></trkpt><trkpt lat="37.2070101" lon="13.6631436"><ele>86.0</ele><time>2026-04-29T12:46:59.123Z</time></trkpt><trkpt lat="37.2069306" lon="13.6630903"><ele>86.00000000000001</ele><time>2026-04-29T12:47:00.122Z</time></trkpt><trkpt lat="37.2068556" lon="13.6630491"><ele>86.0</ele><time>2026-04-29T12:47:01.124Z</time></trkpt><trkpt lat="37.2067901" lon="13.663005"><ele>86.0</ele><time>2026-04-29T12:47:02.122Z</time></trkpt><trkpt lat="37.2067247" lon="13.662964"><ele>86.0</ele><time>2026-04-29T12:47:03.124Z</time></trkpt><trkpt lat="37.2066612" lon="13.6629208"><ele>86.0</ele><time>2026-04-29T12:47:04.123Z</time></trkpt><trkpt lat="37.206595" lon="13.6628937"><ele>86.00000000000001</ele><time>2026-04-29T12:47:05.124Z</time></trkpt><trkpt lat="37.2065261" lon="13.6628766"><ele>86.0</ele><time>2026-04-29T12:47:06.123Z</time></trkpt><trkpt lat="37.2064483" lon="13.6628617"><ele>85.0</ele><time>2026-04-29T12:47:07.123Z</time></trkpt><trkpt lat="37.2063705" lon="13.6628429"><ele>84.0</ele><time>2026-04-29T12:47:08.123Z</time></trkpt><trkpt lat="37.2062912" lon="13.6628078"><ele>83.0</ele><time>2026-04-29T12:47:09.122Z</time></trkpt><trkpt lat="37.2062115" lon="13.6627616"><ele>82.0</ele><time>2026-04-29T12:47:10.122Z</time></trkpt><trkpt lat="37.2061335" lon="13.6627058"><ele>81.0</ele><time>2026-04-29T12:47:11.122Z</time></trkpt><trkpt lat="37.2060555" lon="13.6626524"><ele>80.0</ele><time>2026-04-29T12:47:12.123Z</time></trkpt><trkpt lat="37.205974" lon="13.6626012"><ele>80.0</ele><time>2026-04-29T12:47:13.123Z</time></trkpt><trkpt lat="37.2058938" lon="13.6625632"><ele>80.0</ele><time>2026-04-29T12:47:14.122Z</time></trkpt><trkpt lat="37.2058121" lon="13.6625276"><ele>80.0</ele><time>2026-04-29T12:47:15.123Z</time></trkpt><trkpt lat="37.2057302" lon="13.6624869"><ele>80.0</ele><time>2026-04-29T12:47:16.122Z</time></trkpt><trkpt lat="37.2056356" lon="13.6624485"><ele>80.0</ele><time>2026-04-29T12:47:17.123Z</time></trkpt><trkpt lat="37.2055507" lon="13.662416"><ele>80.0</ele><time>2026-04-29T12:47:18.122Z</time></trkpt><trkpt lat="37.2054708" lon="13.6623864"><ele>80.42857142857143</ele><time>2026-04-29T12:47:19.122Z</time></trkpt><trkpt lat="37.2053946" lon="13.662358"><ele>80.85714285714286</ele><time>2026-04-29T12:47:20.122Z</time></trkpt><trkpt lat="37.2053217" lon="13.662333"><ele>81.28571428571428</ele><time>2026-04-29T12:47:21.124Z</time></trkpt><trkpt lat="37.2052486" lon="13.6623083"><ele>81.71428571428572</ele><time>2026-04-29T12:47:22.122Z</time></trkpt><trkpt lat="37.2051752" lon="13.6622877"><ele>82.14285714285715</ele><time>2026-04-29T12:47:23.123Z</time></trkpt><trkpt lat="37.2051063" lon="13.662267"><ele>82.57142857142857</ele><time>2026-04-29T12:47:24.122Z</time></trkpt><trkpt lat="37.2050365" lon="13.6622505"><ele>83.0</ele><time>2026-04-29T12:47:25.122Z</time></trkpt><trkpt lat="37.2049691" lon="13.6622255"><ele>83.0</ele><time>2026-04-29T12:47:26.123Z</time></trkpt><trkpt lat="37.2049034" lon="13.6622009"><ele>83.0</ele><time>2026-04-29T12:47:27.123Z</time></trkpt><trkpt lat="37.2048383" lon="13.6621746"><ele>83.0</ele><time>2026-04-29T12:47:28.122Z</time></trkpt><trkpt lat="37.2047293" lon="13.662129"><ele>83.0</ele><time>2026-04-29T12:47:30.123Z</time></trkpt><trkpt lat="37.2046707" lon="13.6620955"><ele>83.0</ele><time>2026-04-29T12:47:31.122Z</time></trkpt><trkpt lat="37.2045574" lon="13.6620488"><ele>83.0</ele><time>2026-04-29T12:47:33.122Z</time></trkpt><trkpt lat="37.2044967" lon="13.6620276"><ele>83.5</ele><time>2026-04-29T12:47:34.122Z</time></trkpt><trkpt lat="37.2044353" lon="13.6620063"><ele>84.0</ele><time>2026-04-29T12:47:35.122Z</time></trkpt><trkpt lat="37.2043724" lon="13.661986"><ele>84.5</ele><time>2026-04-29T12:47:36.122Z</time></trkpt><trkpt lat="37.2043038" lon="13.6619518"><ele>85.0</ele><time>2026-04-29T12:47:37.121Z</time></trkpt><trkpt lat="37.2042187" lon="13.6619064"><ele>85.5</ele><time>2026-04-29T12:47:38.122Z</time></trkpt><trkpt lat="37.2041412" lon="13.6618713"><ele>86.0</ele><time>2026-04-29T12:47:39.123Z</time></trkpt><trkpt lat="37.2040683" lon="13.6618375"><ele>84.0</ele><time>2026-04-29T12:47:40.123Z</time></trkpt><trkpt lat="37.2039944" lon="13.6618036"><ele>82.0</ele><time>2026-04-29T12:47:41.123Z</time></trkpt><trkpt lat="37.2039132" lon="13.6617782"><ele>80.0</ele><time>2026-04-29T12:47:42.123Z</time></trkpt><trkpt lat="37.2038323" lon="13.66175"><ele>78.0</ele><time>2026-04-29T12:47:43.123Z</time></trkpt><trkpt lat="37.2037411" lon="13.6617283"><ele>76.0</ele><time>2026-04-29T12:47:44.122Z</time></trkpt><trkpt lat="37.2036566" lon="13.6617158"><ele>74.0</ele><time>2026-04-29T12:47:45.122Z</time></trkpt><trkpt lat="37.2035709" lon="13.6617075"><ele>74.0</ele><time>2026-04-29T12:47:46.123Z</time></trkpt><trkpt lat="37.2034627" lon="13.6617023"><ele>74.0</ele><time>2026-04-29T12:47:47.123Z</time></trkpt><trkpt lat="37.2033588" lon="13.6616925"><ele>74.0</ele><time>2026-04-29T12:47:48.123Z</time></trkpt><trkpt lat="37.2032657" lon="13.6616741"><ele>74.0</ele><time>2026-04-29T12:47:49.122Z</time></trkpt><trkpt lat="37.2031776" lon="13.6616547"><ele>74.0</ele><time>2026-04-29T12:47:50.123Z</time></trkpt><trkpt lat="37.2030982" lon="13.6616401"><ele>73.66666666666667</ele><time>2026-04-29T12:47:51.122Z</time></trkpt><trkpt lat="37.2030238" lon="13.6616208"><ele>73.33333333333334</ele><time>2026-04-29T12:47:52.123Z</time></trkpt><trkpt lat="37.2029402" lon="13.6616148"><ele>73.0</ele><time>2026-04-29T12:47:53.122Z</time></trkpt><trkpt lat="37.2028551" lon="13.6616128"><ele>72.66666666666667</ele><time>2026-04-29T12:47:54.123Z</time></trkpt><trkpt lat="37.2027689" lon="13.66162"><ele>72.33333333333333</ele><time>2026-04-29T12:47:55.122Z</time></trkpt><trkpt lat="37.2026826" lon="13.6616302"><ele>72.0</ele><time>2026-04-29T12:47:56.123Z</time></trkpt><trkpt lat="37.2026006" lon="13.6616425"><ele>72.0</ele><time>2026-04-29T12:47:57.123Z</time></trkpt><trkpt lat="37.2025176" lon="13.6616618"><ele>72.0</ele><time>2026-04-29T12:47:58.122Z</time></trkpt><trkpt lat="37.2024407" lon="13.6616861"><ele>72.0</ele><time>2026-04-29T12:47:59.122Z</time></trkpt><trkpt lat="37.2023541" lon="13.6617172"><ele>72.0</ele><time>2026-04-29T12:48:00.123Z</time></trkpt><trkpt lat="37.202265" lon="13.6617504"><ele>72.0</ele><time>2026-04-29T12:48:01.122Z</time></trkpt><trkpt lat="37.2021725" lon="13.6618048"><ele>72.0</ele><time>2026-04-29T12:48:02.122Z</time></trkpt><trkpt lat="37.2020802" lon="13.6618741"><ele>70.66666666666667</ele><time>2026-04-29T12:48:03.124Z</time></trkpt><trkpt lat="37.2020067" lon="13.6619441"><ele>69.33333333333333</ele><time>2026-04-29T12:48:04.122Z</time></trkpt><trkpt lat="37.2019393" lon="13.6620085"><ele>68.0</ele><time>2026-04-29T12:48:05.123Z</time></trkpt><trkpt lat="37.2018802" lon="13.6620726"><ele>66.66666666666666</ele><time>2026-04-29T12:48:06.122Z</time></trkpt><trkpt lat="37.2018159" lon="13.6621411"><ele>65.33333333333333</ele><time>2026-04-29T12:48:07.122Z</time></trkpt><trkpt lat="37.2017456" lon="13.6622181"><ele>64.0</ele><time>2026-04-29T12:48:08.122Z</time></trkpt><trkpt lat="37.2016819" lon="13.6623105"><ele>65.14285714285714</ele><time>2026-04-29T12:48:09.123Z</time></trkpt><trkpt lat="37.2016287" lon="13.6623923"><ele>66.28571428571428</ele><time>2026-04-29T12:48:10.123Z</time></trkpt><trkpt lat="37.2015784" lon="13.6624677"><ele>67.42857142857143</ele><time>2026-04-29T12:48:11.123Z</time></trkpt><trkpt lat="37.2015361" lon="13.6625335"><ele>68.57142857142857</ele><time>2026-04-29T12:48:12.123Z</time></trkpt><trkpt lat="37.2014843" lon="13.6625841"><ele>69.71428571428572</ele><time>2026-04-29T12:48:13.123Z</time></trkpt><trkpt lat="37.2014347" lon="13.6626339"><ele>70.85714285714286</ele><time>2026-04-29T12:48:14.122Z</time></trkpt><trkpt lat="37.2013829" lon="13.6626801"><ele>72.0</ele><time>2026-04-29T12:48:15.122Z</time></trkpt><trkpt lat="37.2013282" lon="13.662724"><ele>71.8</ele><time>2026-04-29T12:48:16.123Z</time></trkpt><trkpt lat="37.2012258" lon="13.6628028"><ele>71.6</ele><time>2026-04-29T12:48:18.122Z</time></trkpt><trkpt lat="37.2011171" lon="13.6628896"><ele>71.39999999999999</ele><time>2026-04-29T12:48:20.122Z</time></trkpt><trkpt lat="37.2010616" lon="13.6629344"><ele>71.2</ele><time>2026-04-29T12:48:21.123Z</time></trkpt><trkpt lat="37.2009975" lon="13.6629649"><ele>71.0</ele><time>2026-04-29T12:48:22.123Z</time></trkpt><trkpt lat="37.2009345" lon="13.6629903"><ele>71.0</ele><time>2026-04-29T12:48:23.122Z</time></trkpt><trkpt lat="37.200871" lon="13.6630275"><ele>71.0</ele><time>2026-04-29T12:48:24.123Z</time></trkpt><trkpt lat="37.20081" lon="13.6630623"><ele>71.0</ele><time>2026-04-29T12:48:25.122Z</time></trkpt><trkpt lat="37.200746" lon="13.6630942"><ele>71.0</ele><time>2026-04-29T12:48:26.123Z</time></trkpt><trkpt lat="37.2006813" lon="13.6631227"><ele>71.0</ele><time>2026-04-29T12:48:27.123Z</time></trkpt><trkpt lat="37.2006155" lon="13.6631459"><ele>71.0</ele><time>2026-04-29T12:48:28.123Z</time></trkpt><trkpt lat="37.2005439" lon="13.6631735"><ele>71.0</ele><time>2026-04-29T12:48:29.123Z</time></trkpt><trkpt lat="37.2004744" lon="13.6632005"><ele>69.66666666666667</ele><time>2026-04-29T12:48:30.123Z</time></trkpt><trkpt lat="37.2004056" lon="13.6632319"><ele>68.33333333333334</ele><time>2026-04-29T12:48:31.122Z</time></trkpt><trkpt lat="37.2003334" lon="13.6632592"><ele>67.0</ele><time>2026-04-29T12:48:32.123Z</time></trkpt><trkpt lat="37.2002668" lon="13.6632766"><ele>65.66666666666667</ele><time>2026-04-29T12:48:33.123Z</time></trkpt><trkpt lat="37.2002033" lon="13.6633025"><ele>64.33333333333333</ele><time>2026-04-29T12:48:34.122Z</time></trkpt><trkpt lat="37.2001354" lon="13.6633255"><ele>63.0</ele><time>2026-04-29T12:48:35.121Z</time></trkpt><trkpt lat="37.2000292" lon="13.6633764"><ele>63.0</ele><time>2026-04-29T12:48:37.121Z</time></trkpt><trkpt lat="37.1999485" lon="13.6634098"><ele>63.0</ele><time>2026-04-29T12:48:39.123Z</time></trkpt><trkpt lat="37.1998849" lon="13.6634332"><ele>63.0</ele><time>2026-04-29T12:48:42.124Z</time></trkpt><trkpt lat="37.1998151" lon="13.6634383"><ele>63.0</ele><time>2026-04-29T12:50:16.122Z</time></trkpt><trkpt lat="37.1997279" lon="13.6634111"><ele>63.0</ele><time>2026-04-29T12:50:22.121Z</time></trkpt><trkpt lat="37.1996295" lon="13.6633892"><ele>63.0</ele><time>2026-04-29T12:50:24.123Z</time></trkpt><trkpt lat="37.1995312" lon="13.6633791"><ele>61.8</ele><time>2026-04-29T12:50:26.122Z</time></trkpt><trkpt lat="37.1994332" lon="13.6633634"><ele>60.599999999999994</ele><time>2026-04-29T12:50:28.123Z</time></trkpt><trkpt lat="37.1993372" lon="13.6633476"><ele>59.400000000000006</ele><time>2026-04-29T12:50:30.121Z</time></trkpt><trkpt lat="37.1992338" lon="13.6633334"><ele>58.2</ele><time>2026-04-29T12:50:32.121Z</time></trkpt><trkpt lat="37.1991337" lon="13.663335"><ele>57.0</ele><time>2026-04-29T12:50:34.122Z</time></trkpt><trkpt lat="37.1990294" lon="13.6633056"><ele>56.0</ele><time>2026-04-29T12:50:36.121Z</time></trkpt><trkpt lat="37.1989333" lon="13.6632635"><ele>55.0</ele><time>2026-04-29T12:50:38.123Z</time></trkpt><trkpt lat="37.1988339" lon="13.6632427"><ele>54.0</ele><time>2026-04-29T12:50:40.122Z</time></trkpt><trkpt lat="37.1987437" lon="13.663237"><ele>53.0</ele><time>2026-04-29T12:50:42.121Z</time></trkpt><trkpt lat="37.1986555" lon="13.6632382"><ele>52.0</ele><time>2026-04-29T12:50:44.122Z</time></trkpt><trkpt lat="37.1985648" lon="13.6632082"><ele>51.99999999999999</ele><time>2026-04-29T12:50:46.123Z</time></trkpt><trkpt lat="37.1984853" lon="13.663152"><ele>52.0</ele><time>2026-04-29T12:50:48.122Z</time></trkpt><trkpt lat="37.1984067" lon="13.6630886"><ele>52.0</ele><time>2026-04-29T12:50:50.124Z</time></trkpt><trkpt lat="37.1983401" lon="13.6630337"><ele>52.0</ele><time>2026-04-29T12:50:52.122Z</time></trkpt><trkpt lat="37.1982558" lon="13.6629981"><ele>51.99999999999999</ele><time>2026-04-29T12:50:54.121Z</time></trkpt><trkpt lat="37.1981705" lon="13.6629737"><ele>52.0</ele><time>2026-04-29T12:50:56.122Z</time></trkpt><trkpt lat="37.1980654" lon="13.6629674"><ele>50.666666666666664</ele><time>2026-04-29T12:50:58.121Z</time></trkpt><trkpt lat="37.1979663" lon="13.6629786"><ele>49.33333333333333</ele><time>2026-04-29T12:51:00.121Z</time></trkpt><trkpt lat="37.1978783" lon="13.6629988"><ele>48.0</ele><time>2026-04-29T12:51:02.121Z</time></trkpt><trkpt lat="37.197792" lon="13.6630105"><ele>46.666666666666664</ele><time>2026-04-29T12:51:04.122Z</time></trkpt><trkpt lat="37.1977067" lon="13.663038"><ele>45.33333333333333</ele><time>2026-04-29T12:51:06.122Z</time></trkpt><trkpt lat="37.1976259" lon="13.6630691"><ele>44.0</ele><time>2026-04-29T12:51:08.122Z</time></trkpt><trkpt lat="37.1975522" lon="13.6630907"><ele>44.0</ele><time>2026-04-29T12:51:10.122Z</time></trkpt><trkpt lat="37.1974802" lon="13.6630993"><ele>44.0</ele><time>2026-04-29T12:51:12.122Z</time></trkpt><trkpt lat="37.1974105" lon="13.6630892"><ele>44.0</ele><time>2026-04-29T12:51:14.122Z</time></trkpt><trkpt lat="37.1973428" lon="13.6630348"><ele>44.0</ele><time>2026-04-29T12:51:16.122Z</time></trkpt><trkpt lat="37.1972968" lon="13.662968"><ele>44.0</ele><time>2026-04-29T12:51:18.121Z</time></trkpt><trkpt lat="37.1972509" lon="13.6629098"><ele>44.0</ele><time>2026-04-29T12:51:20.121Z</time></trkpt><trkpt lat="37.1971805" lon="13.6628473"><ele>44.0</ele><time>2026-04-29T12:51:23.122Z</time></trkpt><trkpt lat="37.1971188" lon="13.6628096"><ele>42.285714285714285</ele><time>2026-04-29T12:51:26.121Z</time></trkpt><trkpt lat="37.1970533" lon="13.6627937"><ele>40.57142857142857</ele><time>2026-04-29T12:51:30.122Z</time></trkpt><trkpt lat="37.1969861" lon="13.6627863"><ele>38.857142857142854</ele><time>2026-04-29T12:51:33.121Z</time></trkpt><trkpt lat="37.1969127" lon="13.6628101"><ele>37.14285714285714</ele><time>2026-04-29T12:51:38.122Z</time></trkpt><trkpt lat="37.1968384" lon="13.6628433"><ele>35.42857142857142</ele><time>2026-04-29T12:51:41.122Z</time></trkpt><trkpt lat="37.1967779" lon="13.662881"><ele>33.714285714285715</ele><time>2026-04-29T12:51:44.121Z</time></trkpt><trkpt lat="37.1967113" lon="13.6629109"><ele>32.0</ele><time>2026-04-29T12:51:46.122Z</time></trkpt><trkpt lat="37.1966384" lon="13.6629505"><ele>31.999999999999996</ele><time>2026-04-29T12:51:48.122Z</time></trkpt><trkpt lat="37.1965476" lon="13.6629701"><ele>32.0</ele><time>2026-04-29T12:51:50.122Z</time></trkpt><trkpt lat="37.1964597" lon="13.6629749"><ele>32.0</ele><time>2026-04-29T12:51:52.123Z</time></trkpt><trkpt lat="37.1963701" lon="13.6629725"><ele>32.0</ele><time>2026-04-29T12:51:54.122Z</time></trkpt><trkpt lat="37.1962869" lon="13.6629644"><ele>31.999999999999996</ele><time>2026-04-29T12:51:56.121Z</time></trkpt><trkpt lat="37.196201" lon="13.6629626"><ele>32.0</ele><time>2026-04-29T12:51:58.122Z</time></trkpt><trkpt lat="37.1961146" lon="13.662958"><ele>29.999999999999996</ele><time>2026-04-29T12:52:00.121Z</time></trkpt><trkpt lat="37.1960074" lon="13.6629512"><ele>28.0</ele><time>2026-04-29T12:52:02.121Z</time></trkpt><trkpt lat="37.1959015" lon="13.6629438"><ele>26.0</ele><time>2026-04-29T12:52:04.122Z</time></trkpt><trkpt lat="37.1958342" lon="13.6629577"><ele>24.0</ele><time>2026-04-29T12:52:05.121Z</time></trkpt><trkpt lat="37.1957619" lon="13.6629869"><ele>22.0</ele><time>2026-04-29T12:52:06.121Z</time></trkpt><trkpt lat="37.1956955" lon="13.6630072"><ele>20.0</ele><time>2026-04-29T12:52:07.122Z</time></trkpt><trkpt lat="37.1956306" lon="13.6630251"><ele>19.0</ele><time>2026-04-29T12:52:08.122Z</time></trkpt><trkpt lat="37.1955462" lon="13.6630083"><ele>19.0</ele><time>2026-04-29T12:52:10.122Z</time></trkpt><trkpt lat="37.1955444" lon="13.6629129"><ele>19.0</ele><time>2026-04-29T12:52:12.121Z</time></trkpt><trkpt lat="37.1955007" lon="13.6628391"><ele>19.0</ele><time>2026-04-29T12:52:15.122Z</time></trkpt><trkpt lat="37.1954863" lon="13.662741"><ele>23.0</ele><time>2026-04-29T12:52:19.122Z</time></trkpt><trkpt lat="37.1954346" lon="13.6626818"><ele>23.0</ele><time>2026-04-29T12:53:46.121Z</time></trkpt></trkseg><trkseg><trkpt lat="37.1958995" lon="13.662826"><ele>71.0</ele><time>2026-04-29T13:31:32.116Z</time></trkpt><trkpt lat="37.2947063" lon="13.5261775"><ele>117.0</ele><time>2026-04-29T13:41:50.612Z</time></trkpt><trkpt lat="37.2051391" lon="13.6636308"><ele>117.0</ele><time>2026-04-29T13:42:43.956Z</time></trkpt><trkpt lat="37.2050655" lon="13.6636162"><ele>117.0</ele><time>2026-04-29T13:43:25.113Z</time></trkpt><trkpt lat="37.2051473" lon="13.6635952"><ele>117.0</ele><time>2026-04-29T13:45:06.113Z</time></trkpt><trkpt lat="37.2052227" lon="13.6635658"><ele>117.0</ele><time>2026-04-29T13:45:08.115Z</time></trkpt><trkpt lat="37.2053043" lon="13.6635595"><ele>117.0</ele><time>2026-04-29T13:45:10.113Z</time></trkpt><trkpt lat="37.2053791" lon="13.6635431"><ele>117.0</ele><time>2026-04-29T13:45:44.114Z</time></trkpt><trkpt lat="37.2054566" lon="13.6635425"><ele>115.14285714285715</ele><time>2026-04-29T13:45:47.114Z</time></trkpt><trkpt lat="37.2055447" lon="13.66354"><ele>113.2857142857143</ele><time>2026-04-29T13:45:50.114Z</time></trkpt><trkpt lat="37.2056097" lon="13.6635466"><ele>111.42857142857143</ele><time>2026-04-29T13:45:52.114Z</time></trkpt><trkpt lat="37.2056729" lon="13.6635465"><ele>109.57142857142858</ele><time>2026-04-29T13:45:54.113Z</time></trkpt><trkpt lat="37.2057373" lon="13.6635465"><ele>107.71428571428572</ele><time>2026-04-29T13:45:56.114Z</time></trkpt><trkpt lat="37.2058054" lon="13.6635541"><ele>105.85714285714286</ele><time>2026-04-29T13:45:58.113Z</time></trkpt><trkpt lat="37.2058769" lon="13.6635736"><ele>104.0</ele><time>2026-04-29T13:46:00.113Z</time></trkpt><trkpt lat="37.2059543" lon="13.6635959"><ele>106.14285714285714</ele><time>2026-04-29T13:46:02.114Z</time></trkpt><trkpt lat="37.2060325" lon="13.6636178"><ele>108.28571428571429</ele><time>2026-04-29T13:46:04.114Z</time></trkpt><trkpt lat="37.2061086" lon="13.6636444"><ele>110.42857142857143</ele><time>2026-04-29T13:46:06.113Z</time></trkpt><trkpt lat="37.2061806" lon="13.663666"><ele>112.57142857142857</ele><time>2026-04-29T13:46:08.114Z</time></trkpt><trkpt lat="37.206249" lon="13.6636902"><ele>114.71428571428572</ele><time>2026-04-29T13:46:10.115Z</time></trkpt><trkpt lat="37.2063143" lon="13.6637196"><ele>116.85714285714286</ele><time>2026-04-29T13:46:12.114Z</time></trkpt><trkpt lat="37.2063853" lon="13.6637504"><ele>119.0</ele><time>2026-04-29T13:46:14.113Z</time></trkpt><trkpt lat="37.2064616" lon="13.6637843"><ele>116.49999999999999</ele><time>2026-04-29T13:46:16.114Z</time></trkpt><trkpt lat="37.2065354" lon="13.663816"><ele>114.0</ele><time>2026-04-29T13:46:18.113Z</time></trkpt><trkpt lat="37.2066072" lon="13.6638415"><ele>111.5</ele><time>2026-04-29T13:46:20.114Z</time></trkpt><trkpt lat="37.2066866" lon="13.6638298"><ele>109.0</ele><time>2026-04-29T13:46:22.114Z</time></trkpt><trkpt lat="37.2067596" lon="13.663796"><ele>106.49999999999999</ele><time>2026-04-29T13:46:24.114Z</time></trkpt><trkpt lat="37.2068302" lon="13.66376"><ele>104.0</ele><time>2026-04-29T13:46:26.114Z</time></trkpt><trkpt lat="37.2069075" lon="13.6637368"><ele>103.99999999999999</ele><time>2026-04-29T13:46:28.113Z</time></trkpt><trkpt lat="37.2069815" lon="13.6637217"><ele>104.0</ele><time>2026-04-29T13:46:30.114Z</time></trkpt><trkpt lat="37.2070609" lon="13.6637298"><ele>104.0</ele><time>2026-04-29T13:46:32.114Z</time></trkpt><trkpt lat="37.2071404" lon="13.6637617"><ele>104.0</ele><time>2026-04-29T13:46:34.114Z</time></trkpt><trkpt lat="37.207211" lon="13.6637937"><ele>103.99999999999999</ele><time>2026-04-29T13:46:36.113Z</time></trkpt><trkpt lat="37.2072902" lon="13.6638051"><ele>104.0</ele><time>2026-04-29T13:46:38.114Z</time></trkpt><trkpt lat="37.207371" lon="13.6637961"><ele>102.66666666666666</ele><time>2026-04-29T13:46:40.114Z</time></trkpt><trkpt lat="37.2074558" lon="13.6637885"><ele>101.33333333333333</ele><time>2026-04-29T13:46:42.114Z</time></trkpt><trkpt lat="37.2075379" lon="13.6637836"><ele>100.0</ele><time>2026-04-29T13:46:44.113Z</time></trkpt><trkpt lat="37.2076182" lon="13.6637659"><ele>98.66666666666666</ele><time>2026-04-29T13:46:46.113Z</time></trkpt><trkpt lat="37.2076974" lon="13.663756"><ele>97.33333333333333</ele><time>2026-04-29T13:46:48.114Z</time></trkpt><trkpt lat="37.2077743" lon="13.6637492"><ele>96.0</ele><time>2026-04-29T13:46:50.114Z</time></trkpt><trkpt lat="37.2078322" lon="13.6637028"><ele>96.0</ele><time>2026-04-29T13:46:53.114Z</time></trkpt><trkpt lat="37.2077677" lon="13.6636532"><ele>96.0</ele><time>2026-04-29T13:46:56.114Z</time></trkpt><trkpt lat="37.2076787" lon="13.6636398"><ele>96.0</ele><time>2026-04-29T13:46:58.114Z</time></trkpt><trkpt lat="37.2075623" lon="13.663599"><ele>96.0</ele><time>2026-04-29T13:47:00.113Z</time></trkpt><trkpt lat="37.2074922" lon="13.6635553"><ele>96.0</ele><time>2026-04-29T13:47:01.114Z</time></trkpt><trkpt lat="37.2074231" lon="13.6635003"><ele>96.0</ele><time>2026-04-29T13:47:02.115Z</time></trkpt><trkpt lat="37.2073455" lon="13.663435"><ele>94.33333333333333</ele><time>2026-04-29T13:47:03.114Z</time></trkpt><trkpt lat="37.2072648" lon="13.663368"><ele>92.66666666666667</ele><time>2026-04-29T13:47:04.113Z</time></trkpt><trkpt lat="37.2071846" lon="13.6633117"><ele>91.0</ele><time>2026-04-29T13:47:05.113Z</time></trkpt><trkpt lat="37.20711" lon="13.6632653"><ele>89.33333333333334</ele><time>2026-04-29T13:47:06.113Z</time></trkpt><trkpt lat="37.2070422" lon="13.6632123"><ele>87.66666666666667</ele><time>2026-04-29T13:47:07.115Z</time></trkpt><trkpt lat="37.2069763" lon="13.6631611"><ele>86.0</ele><time>2026-04-29T13:47:08.113Z</time></trkpt><trkpt lat="37.2069054" lon="13.6631185"><ele>86.0</ele><time>2026-04-29T13:47:09.114Z</time></trkpt><trkpt lat="37.2068343" lon="13.6630762"><ele>86.0</ele><time>2026-04-29T13:47:10.113Z</time></trkpt><trkpt lat="37.2067588" lon="13.6630327"><ele>86.0</ele><time>2026-04-29T13:47:11.113Z</time></trkpt><trkpt lat="37.2066948" lon="13.6629902"><ele>86.0</ele><time>2026-04-29T13:47:12.113Z</time></trkpt><trkpt lat="37.2066282" lon="13.6629518"><ele>86.0</ele><time>2026-04-29T13:47:13.114Z</time></trkpt><trkpt lat="37.2065607" lon="13.6629256"><ele>86.0</ele><time>2026-04-29T13:47:14.113Z</time></trkpt><trkpt lat="37.2064886" lon="13.6629023"><ele>85.0</ele><time>2026-04-29T13:47:15.114Z</time></trkpt><trkpt lat="37.2064133" lon="13.6628925"><ele>84.0</ele><time>2026-04-29T13:47:16.114Z</time></trkpt><trkpt lat="37.2063393" lon="13.6628722"><ele>83.0</ele><time>2026-04-29T13:47:17.114Z</time></trkpt><trkpt lat="37.2062648" lon="13.6628392"><ele>82.0</ele><time>2026-04-29T13:47:18.113Z</time></trkpt><trkpt lat="37.2061822" lon="13.6627855"><ele>81.0</ele><time>2026-04-29T13:47:19.114Z</time></trkpt><trkpt lat="37.2061035" lon="13.6627303"><ele>80.0</ele><time>2026-04-29T13:47:20.113Z</time></trkpt><trkpt lat="37.2060299" lon="13.6626832"><ele>80.0</ele><time>2026-04-29T13:47:21.113Z</time></trkpt><trkpt lat="37.2059671" lon="13.6626461"><ele>80.0</ele><time>2026-04-29T13:47:22.115Z</time></trkpt><trkpt lat="37.2058602" lon="13.6625793"><ele>80.0</ele><time>2026-04-29T13:47:24.113Z</time></trkpt><trkpt lat="37.2057752" lon="13.6625337"><ele>80.0</ele><time>2026-04-29T13:47:26.114Z</time></trkpt><trkpt lat="37.2057228" lon="13.6624226"><ele>80.0</ele><time>2026-04-29T13:47:29.113Z</time></trkpt><trkpt lat="37.2057148" lon="13.6622972"><ele>80.0</ele><time>2026-04-29T13:47:31.114Z</time></trkpt><trkpt lat="37.2057193" lon="13.6621505"><ele>80.0</ele><time>2026-04-29T13:47:33.113Z</time></trkpt><trkpt lat="37.205725" lon="13.6620039"><ele>80.0</ele><time>2026-04-29T13:47:35.113Z</time></trkpt><trkpt lat="37.2057055" lon="13.6618621"><ele>80.0</ele><time>2026-04-29T13:47:37.113Z</time></trkpt><trkpt lat="37.2056817" lon="13.6617355"><ele>78.5</ele><time>2026-04-29T13:47:39.114Z</time></trkpt><trkpt lat="37.2056603" lon="13.6616198"><ele>77.0</ele><time>2026-04-29T13:47:41.114Z</time></trkpt><trkpt lat="37.2056409" lon="13.6615002"><ele>75.5</ele><time>2026-04-29T13:47:43.113Z</time></trkpt><trkpt lat="37.2056205" lon="13.6613794"><ele>74.0</ele><time>2026-04-29T13:47:45.114Z</time></trkpt><trkpt lat="37.2056155" lon="13.6612962"><ele>72.5</ele><time>2026-04-29T13:47:47.113Z</time></trkpt><trkpt lat="37.205574" lon="13.6612206"><ele>71.0</ele><time>2026-04-29T13:47:50.113Z</time></trkpt><trkpt lat="37.2054926" lon="13.6611776"><ele>71.0</ele><time>2026-04-29T13:47:52.114Z</time></trkpt><trkpt lat="37.2054027" lon="13.6611594"><ele>71.0</ele><time>2026-04-29T13:47:54.113Z</time></trkpt><trkpt lat="37.2053103" lon="13.661162"><ele>71.0</ele><time>2026-04-29T13:47:56.113Z</time></trkpt><trkpt lat="37.2052422" lon="13.661166"><ele>71.0</ele><time>2026-04-29T13:47:57.114Z</time></trkpt><trkpt lat="37.2051616" lon="13.6611803"><ele>71.0</ele><time>2026-04-29T13:47:58.115Z</time></trkpt><trkpt lat="37.205077" lon="13.6611888"><ele>71.0</ele><time>2026-04-29T13:47:59.114Z</time></trkpt><trkpt lat="37.204985" lon="13.6612034"><ele>71.0</ele><time>2026-04-29T13:48:00.114Z</time></trkpt><trkpt lat="37.2048902" lon="13.6612114"><ele>71.0</ele><time>2026-04-29T13:48:01.115Z</time></trkpt><trkpt lat="37.2047967" lon="13.6612207"><ele>71.0</ele><time>2026-04-29T13:48:02.113Z</time></trkpt><trkpt lat="37.2047051" lon="13.6612328"><ele>71.0</ele><time>2026-04-29T13:48:03.114Z</time></trkpt><trkpt lat="37.2046143" lon="13.6612398"><ele>71.0</ele><time>2026-04-29T13:48:04.113Z</time></trkpt><trkpt lat="37.2045284" lon="13.6612443"><ele>71.39999999999999</ele><time>2026-04-29T13:48:05.114Z</time></trkpt><trkpt lat="37.2044419" lon="13.6612476"><ele>71.8</ele><time>2026-04-29T13:48:06.113Z</time></trkpt><trkpt lat="37.204354" lon="13.6612573"><ele>72.19999999999999</ele><time>2026-04-29T13:48:07.114Z</time></trkpt><trkpt lat="37.2042326" lon="13.6612763"><ele>72.6</ele><time>2026-04-29T13:48:08.114Z</time></trkpt><trkpt lat="37.2041325" lon="13.6612969"><ele>73.0</ele><time>2026-04-29T13:48:09.114Z</time></trkpt><trkpt lat="37.2040388" lon="13.6613157"><ele>73.16666666666666</ele><time>2026-04-29T13:48:10.113Z</time></trkpt><trkpt lat="37.2039559" lon="13.6613358"><ele>73.33333333333333</ele><time>2026-04-29T13:48:11.114Z</time></trkpt><trkpt lat="37.2038762" lon="13.6613572"><ele>73.5</ele><time>2026-04-29T13:48:12.113Z</time></trkpt><trkpt lat="37.2038015" lon="13.6613763"><ele>73.66666666666667</ele><time>2026-04-29T13:48:13.112Z</time></trkpt><trkpt lat="37.2037258" lon="13.6613926"><ele>73.83333333333334</ele><time>2026-04-29T13:48:14.114Z</time></trkpt><trkpt lat="37.2036578" lon="13.6614103"><ele>74.0</ele><time>2026-04-29T13:48:15.114Z</time></trkpt><trkpt lat="37.203545" lon="13.6614368"><ele>74.0</ele><time>2026-04-29T13:48:17.114Z</time></trkpt><trkpt lat="37.2034265" lon="13.6615043"><ele>74.0</ele><time>2026-04-29T13:48:19.114Z</time></trkpt><trkpt lat="37.2033584" lon="13.661557"><ele>74.0</ele><time>2026-04-29T13:48:20.113Z</time></trkpt><trkpt lat="37.2033009" lon="13.6616017"><ele>74.0</ele><time>2026-04-29T13:48:21.113Z</time></trkpt><trkpt lat="37.203226" lon="13.6616616"><ele>74.0</ele><time>2026-04-29T13:48:23.113Z</time></trkpt><trkpt lat="37.2032923" lon="13.66165"><ele>74.0</ele><time>2026-04-29T13:48:28.114Z</time></trkpt><trkpt lat="37.2033685" lon="13.6615673"><ele>74.0</ele><time>2026-04-29T13:48:30.114Z</time></trkpt><trkpt lat="37.2034491" lon="13.6615075"><ele>74.0</ele><time>2026-04-29T13:48:32.114Z</time></trkpt><trkpt lat="37.2035265" lon="13.6614638"><ele>74.0</ele><time>2026-04-29T13:48:34.113Z</time></trkpt><trkpt lat="37.2036107" lon="13.6614204"><ele>74.0</ele><time>2026-04-29T13:48:36.113Z</time></trkpt><trkpt lat="37.2036902" lon="13.661389"><ele>74.0</ele><time>2026-04-29T13:48:38.112Z</time></trkpt><trkpt lat="37.2037998" lon="13.6613644"><ele>74.0</ele><time>2026-04-29T13:48:40.113Z</time></trkpt><trkpt lat="37.2038694" lon="13.6613503"><ele>74.0</ele><time>2026-04-29T13:48:41.113Z</time></trkpt><trkpt lat="37.203938" lon="13.661338"><ele>74.0</ele><time>2026-04-29T13:48:42.114Z</time></trkpt><trkpt lat="37.2040002" lon="13.6613237"><ele>74.0</ele><time>2026-04-29T13:48:43.114Z</time></trkpt><trkpt lat="37.2041216" lon="13.6612979"><ele>74.0</ele><time>2026-04-29T13:48:45.114Z</time></trkpt><trkpt lat="37.2042303" lon="13.6612766"><ele>74.0</ele><time>2026-04-29T13:48:47.112Z</time></trkpt><trkpt lat="37.2043364" lon="13.6612615"><ele>73.8</ele><time>2026-04-29T13:48:49.112Z</time></trkpt><trkpt lat="37.2044393" lon="13.661245"><ele>73.60000000000001</ele><time>2026-04-29T13:48:51.113Z</time></trkpt><trkpt lat="37.2045454" lon="13.6612398"><ele>73.4</ele><time>2026-04-29T13:48:53.113Z</time></trkpt><trkpt lat="37.2046635" lon="13.6612347"><ele>73.2</ele><time>2026-04-29T13:48:55.114Z</time></trkpt><trkpt lat="37.2047754" lon="13.6612179"><ele>73.0</ele><time>2026-04-29T13:48:57.113Z</time></trkpt><trkpt lat="37.2048498" lon="13.6612154"><ele>72.6</ele><time>2026-04-29T13:48:58.113Z</time></trkpt><trkpt lat="37.2049359" lon="13.6612076"><ele>72.19999999999999</ele><time>2026-04-29T13:48:59.114Z</time></trkpt><trkpt lat="37.2050118" lon="13.6612034"><ele>71.8</ele><time>2026-04-29T13:49:00.113Z</time></trkpt><trkpt lat="37.2050825" lon="13.6611979"><ele>71.39999999999999</ele><time>2026-04-29T13:49:01.113Z</time></trkpt><trkpt lat="37.2052005" lon="13.6611686"><ele>71.0</ele><time>2026-04-29T13:49:03.114Z</time></trkpt><trkpt lat="37.2053172" lon="13.6611552"><ele>71.0</ele><time>2026-04-29T13:49:05.113Z</time></trkpt><trkpt lat="37.205421" lon="13.6611715"><ele>71.0</ele><time>2026-04-29T13:49:07.114Z</time></trkpt><trkpt lat="37.2054863" lon="13.6611871"><ele>71.0</ele><time>2026-04-29T13:49:08.114Z</time></trkpt><trkpt lat="37.2055526" lon="13.6612078"><ele>71.0</ele><time>2026-04-29T13:49:09.114Z</time></trkpt><trkpt lat="37.2056162" lon="13.6612171"><ele>71.0</ele><time>2026-04-29T13:49:10.114Z</time></trkpt><trkpt lat="37.2057493" lon="13.6612229"><ele>71.0</ele><time>2026-04-29T13:49:12.115Z</time></trkpt><trkpt lat="37.2058251" lon="13.6612231"><ele>71.2</ele><time>2026-04-29T13:49:13.113Z</time></trkpt><trkpt lat="37.2059116" lon="13.6612187"><ele>71.39999999999999</ele><time>2026-04-29T13:49:14.113Z</time></trkpt><trkpt lat="37.205981" lon="13.6612087"><ele>71.6</ele><time>2026-04-29T13:49:15.114Z</time></trkpt><trkpt lat="37.2060733" lon="13.6611651"><ele>71.8</ele><time>2026-04-29T13:49:17.115Z</time></trkpt><trkpt lat="37.2061382" lon="13.6610325"><ele>72.0</ele><time>2026-04-29T13:49:19.112Z</time></trkpt><trkpt lat="37.206172" lon="13.6609525"><ele>69.83333333333333</ele><time>2026-04-29T13:49:20.114Z</time></trkpt><trkpt lat="37.2061992" lon="13.6608754"><ele>67.66666666666667</ele><time>2026-04-29T13:49:21.114Z</time></trkpt><trkpt lat="37.206254" lon="13.6607625"><ele>65.5</ele><time>2026-04-29T13:49:23.113Z</time></trkpt><trkpt lat="37.2063126" lon="13.6606831"><ele>63.333333333333336</ele><time>2026-04-29T13:49:25.114Z</time></trkpt><trkpt lat="37.2063625" lon="13.6606198"><ele>61.16666666666667</ele><time>2026-04-29T13:49:28.113Z</time></trkpt><trkpt lat="37.2062945" lon="13.6606821"><ele>59.0</ele><time>2026-04-29T13:49:39.113Z</time></trkpt><trkpt lat="37.2062525" lon="13.6607516"><ele>59.0</ele><time>2026-04-29T13:49:40.113Z</time></trkpt><trkpt lat="37.206204" lon="13.6608521"><ele>59.00000000000001</ele><time>2026-04-29T13:49:41.113Z</time></trkpt><trkpt lat="37.2061598" lon="13.6609677"><ele>59.00000000000001</ele><time>2026-04-29T13:49:42.112Z</time></trkpt><trkpt lat="37.2061111" lon="13.66109"><ele>59.0</ele><time>2026-04-29T13:49:43.114Z</time></trkpt><trkpt lat="37.2060531" lon="13.6612235"><ele>59.0</ele><time>2026-04-29T13:49:44.114Z</time></trkpt><trkpt lat="37.205995" lon="13.6613641"><ele>62.25</ele><time>2026-04-29T13:49:45.112Z</time></trkpt><trkpt lat="37.2059423" lon="13.6615027"><ele>65.5</ele><time>2026-04-29T13:49:46.113Z</time></trkpt><trkpt lat="37.2058902" lon="13.661638"><ele>68.75</ele><time>2026-04-29T13:49:47.114Z</time></trkpt><trkpt lat="37.2058424" lon="13.6617643"><ele>72.0</ele><time>2026-04-29T13:49:48.113Z</time></trkpt><trkpt lat="37.2057967" lon="13.6618837"><ele>73.33333333333333</ele><time>2026-04-29T13:49:49.114Z</time></trkpt><trkpt lat="37.2057562" lon="13.6620019"><ele>74.66666666666667</ele><time>2026-04-29T13:49:50.113Z</time></trkpt><trkpt lat="37.2057297" lon="13.6620967"><ele>76.0</ele><time>2026-04-29T13:49:51.114Z</time></trkpt><trkpt lat="37.2057079" lon="13.6621998"><ele>77.33333333333334</ele><time>2026-04-29T13:49:52.113Z</time></trkpt><trkpt lat="37.2057124" lon="13.662305"><ele>78.66666666666667</ele><time>2026-04-29T13:49:53.114Z</time></trkpt><trkpt lat="37.2057239" lon="13.6624134"><ele>80.0</ele><time>2026-04-29T13:49:54.114Z</time></trkpt><trkpt lat="37.2057577" lon="13.6625152"><ele>80.0</ele><time>2026-04-29T13:49:56.112Z</time></trkpt><trkpt lat="37.2058803" lon="13.662587"><ele>80.0</ele><time>2026-04-29T13:49:58.113Z</time></trkpt><trkpt lat="37.2059935" lon="13.6626514"><ele>80.0</ele><time>2026-04-29T13:49:59.113Z</time></trkpt><trkpt lat="37.206097" lon="13.6627176"><ele>80.0</ele><time>2026-04-29T13:50:00.113Z</time></trkpt><trkpt lat="37.2062144" lon="13.6627876"><ele>81.2</ele><time>2026-04-29T13:50:01.112Z</time></trkpt><trkpt lat="37.2063075" lon="13.6628349"><ele>82.4</ele><time>2026-04-29T13:50:02.114Z</time></trkpt><trkpt lat="37.2064042" lon="13.6628619"><ele>83.6</ele><time>2026-04-29T13:50:03.113Z</time></trkpt><trkpt lat="37.2064978" lon="13.6628915"><ele>84.8</ele><time>2026-04-29T13:50:04.113Z</time></trkpt><trkpt lat="37.2065789" lon="13.66292"><ele>86.0</ele><time>2026-04-29T13:50:05.114Z</time></trkpt><trkpt lat="37.2066551" lon="13.6629547"><ele>86.0</ele><time>2026-04-29T13:50:06.113Z</time></trkpt><trkpt lat="37.2067309" lon="13.662999"><ele>86.0</ele><time>2026-04-29T13:50:07.114Z</time></trkpt><trkpt lat="37.2068056" lon="13.6630532"><ele>86.0</ele><time>2026-04-29T13:50:08.112Z</time></trkpt><trkpt lat="37.2068798" lon="13.663101"><ele>86.0</ele><time>2026-04-29T13:50:09.115Z</time></trkpt><trkpt lat="37.2069503" lon="13.6631557"><ele>86.0</ele><time>2026-04-29T13:50:10.112Z</time></trkpt><trkpt lat="37.2070218" lon="13.6632046"><ele>86.0</ele><time>2026-04-29T13:50:11.113Z</time></trkpt><trkpt lat="37.2071058" lon="13.66325"><ele>86.0</ele><time>2026-04-29T13:50:12.114Z</time></trkpt><trkpt lat="37.2071889" lon="13.6633111"><ele>86.0</ele><time>2026-04-29T13:50:13.114Z</time></trkpt><trkpt lat="37.2072753" lon="13.6633748"><ele>86.0</ele><time>2026-04-29T13:50:14.114Z</time></trkpt><trkpt lat="37.2073509" lon="13.6634386"><ele>86.0</ele><time>2026-04-29T13:50:15.112Z</time></trkpt><trkpt lat="37.2074095" lon="13.6634902"><ele>86.0</ele><time>2026-04-29T13:50:16.113Z</time></trkpt><trkpt lat="37.2074668" lon="13.6635414"><ele>86.0</ele><time>2026-04-29T13:50:17.114Z</time></trkpt><trkpt lat="37.2075397" lon="13.6635805"><ele>85.66666666666667</ele><time>2026-04-29T13:50:18.113Z</time></trkpt><trkpt lat="37.2076271" lon="13.6636113"><ele>85.33333333333334</ele><time>2026-04-29T13:50:19.114Z</time></trkpt><trkpt lat="37.2077068" lon="13.6636328"><ele>85.0</ele><time>2026-04-29T13:50:20.113Z</time></trkpt><trkpt lat="37.2077809" lon="13.6636579"><ele>84.66666666666667</ele><time>2026-04-29T13:50:21.115Z</time></trkpt><trkpt lat="37.2078475" lon="13.6636796"><ele>84.33333333333333</ele><time>2026-04-29T13:50:22.113Z</time></trkpt><trkpt lat="37.2079155" lon="13.6636837"><ele>84.0</ele><time>2026-04-29T13:50:23.113Z</time></trkpt><trkpt lat="37.2079862" lon="13.6636768"><ele>83.33333333333333</ele><time>2026-04-29T13:50:24.114Z</time></trkpt><trkpt lat="37.208074" lon="13.6636606"><ele>82.66666666666667</ele><time>2026-04-29T13:50:25.114Z</time></trkpt><trkpt lat="37.2081731" lon="13.6636343"><ele>82.0</ele><time>2026-04-29T13:50:26.113Z</time></trkpt><trkpt lat="37.2082634" lon="13.6636111"><ele>81.33333333333334</ele><time>2026-04-29T13:50:27.114Z</time></trkpt><trkpt lat="37.2083457" lon="13.6635935"><ele>80.66666666666667</ele><time>2026-04-29T13:50:28.112Z</time></trkpt><trkpt lat="37.2084179" lon="13.6635877"><ele>80.0</ele><time>2026-04-29T13:50:29.112Z</time></trkpt><trkpt lat="37.2084882" lon="13.6635912"><ele>80.0</ele><time>2026-04-29T13:50:30.114Z</time></trkpt><trkpt lat="37.2086056" lon="13.6636112"><ele>80.0</ele><time>2026-04-29T13:50:32.114Z</time></trkpt><trkpt lat="37.2087195" lon="13.6636089"><ele>80.0</ele><time>2026-04-29T13:50:34.113Z</time></trkpt><trkpt lat="37.2087828" lon="13.6636124"><ele>80.0</ele><time>2026-04-29T13:50:35.113Z</time></trkpt><trkpt lat="37.2088594" lon="13.6636202"><ele>80.0</ele><time>2026-04-29T13:50:36.113Z</time></trkpt><trkpt lat="37.2089399" lon="13.6636402"><ele>80.28571428571428</ele><time>2026-04-29T13:50:37.112Z</time></trkpt><trkpt lat="37.2090177" lon="13.6636745"><ele>80.57142857142857</ele><time>2026-04-29T13:50:38.112Z</time></trkpt><trkpt lat="37.2090941" lon="13.663708"><ele>80.85714285714286</ele><time>2026-04-29T13:50:39.113Z</time></trkpt><trkpt lat="37.2091478" lon="13.6637543"><ele>81.14285714285714</ele><time>2026-04-29T13:50:40.113Z</time></trkpt><trkpt lat="37.2092121" lon="13.6638007"><ele>81.42857142857143</ele><time>2026-04-29T13:50:41.113Z</time></trkpt><trkpt lat="37.2092691" lon="13.6638391"><ele>81.71428571428571</ele><time>2026-04-29T13:50:42.113Z</time></trkpt><trkpt lat="37.2093256" lon="13.6638805"><ele>82.0</ele><time>2026-04-29T13:50:43.113Z</time></trkpt><trkpt lat="37.2094406" lon="13.6639527"><ele>82.0</ele><time>2026-04-29T13:50:45.113Z</time></trkpt><trkpt lat="37.2095348" lon="13.6640066"><ele>82.0</ele><time>2026-04-29T13:50:47.114Z</time></trkpt><trkpt lat="37.2096322" lon="13.6640587"><ele>82.0</ele><time>2026-04-29T13:50:49.113Z</time></trkpt><trkpt lat="37.2097396" lon="13.664117"><ele>82.0</ele><time>2026-04-29T13:50:51.115Z</time></trkpt><trkpt lat="37.2098572" lon="13.6641792"><ele>81.28571428571428</ele><time>2026-04-29T13:50:53.113Z</time></trkpt><trkpt lat="37.2099181" lon="13.6642165"><ele>80.57142857142857</ele><time>2026-04-29T13:50:54.114Z</time></trkpt><trkpt lat="37.2099793" lon="13.6642546"><ele>79.85714285714286</ele><time>2026-04-29T13:50:55.113Z</time></trkpt><trkpt lat="37.2100374" lon="13.6642939"><ele>79.14285714285714</ele><time>2026-04-29T13:50:56.113Z</time></trkpt><trkpt lat="37.2100986" lon="13.6643282"><ele>78.42857142857143</ele><time>2026-04-29T13:50:57.112Z</time></trkpt><trkpt lat="37.2101729" lon="13.6643522"><ele>77.71428571428571</ele><time>2026-04-29T13:50:58.113Z</time></trkpt><trkpt lat="37.2102429" lon="13.664375"><ele>77.0</ele><time>2026-04-29T13:50:59.113Z</time></trkpt><trkpt lat="37.210311" lon="13.6643936"><ele>77.0</ele><time>2026-04-29T13:51:00.112Z</time></trkpt><trkpt lat="37.210375" lon="13.6644117"><ele>77.0</ele><time>2026-04-29T13:51:01.113Z</time></trkpt><trkpt lat="37.2104982" lon="13.6644536"><ele>77.0</ele><time>2026-04-29T13:51:03.113Z</time></trkpt><trkpt lat="37.2105703" lon="13.6644855"><ele>77.0</ele><time>2026-04-29T13:51:04.114Z</time></trkpt><trkpt lat="37.2106462" lon="13.6645126"><ele>77.0</ele><time>2026-04-29T13:51:05.112Z</time></trkpt><trkpt lat="37.2107148" lon="13.6645403"><ele>77.0</ele><time>2026-04-29T13:51:06.113Z</time></trkpt><trkpt lat="37.2107818" lon="13.6645688"><ele>77.2</ele><time>2026-04-29T13:51:07.113Z</time></trkpt><trkpt lat="37.2108403" lon="13.6645986"><ele>77.4</ele><time>2026-04-29T13:51:08.112Z</time></trkpt><trkpt lat="37.2109502" lon="13.6646612"><ele>77.6</ele><time>2026-04-29T13:51:10.112Z</time></trkpt><trkpt lat="37.2110541" lon="13.6647246"><ele>77.8</ele><time>2026-04-29T13:51:12.112Z</time></trkpt><trkpt lat="37.211158" lon="13.6647862"><ele>78.0</ele><time>2026-04-29T13:51:14.113Z</time></trkpt><trkpt lat="37.2112556" lon="13.664854"><ele>78.0</ele><time>2026-04-29T13:51:16.113Z</time></trkpt><trkpt lat="37.2113522" lon="13.6649034"><ele>78.0</ele><time>2026-04-29T13:51:18.113Z</time></trkpt><trkpt lat="37.211412" lon="13.6649307"><ele>78.0</ele><time>2026-04-29T13:51:19.114Z</time></trkpt><trkpt lat="37.2115112" lon="13.6649846"><ele>78.0</ele><time>2026-04-29T13:51:21.112Z</time></trkpt><trkpt lat="37.2116028" lon="13.6650566"><ele>78.0</ele><time>2026-04-29T13:51:23.114Z</time></trkpt><trkpt lat="37.2117236" lon="13.6651093"><ele>78.28571428571429</ele><time>2026-04-29T13:51:25.112Z</time></trkpt><trkpt lat="37.2117901" lon="13.6651469"><ele>78.57142857142857</ele><time>2026-04-29T13:51:26.113Z</time></trkpt><trkpt lat="37.2118488" lon="13.6651804"><ele>78.85714285714286</ele><time>2026-04-29T13:51:27.113Z</time></trkpt><trkpt lat="37.211907" lon="13.6652152"><ele>79.14285714285714</ele><time>2026-04-29T13:51:28.114Z</time></trkpt><trkpt lat="37.2119656" lon="13.6652502"><ele>79.42857142857143</ele><time>2026-04-29T13:51:29.112Z</time></trkpt><trkpt lat="37.2120655" lon="13.6653208"><ele>79.71428571428571</ele><time>2026-04-29T13:51:31.113Z</time></trkpt><trkpt lat="37.212126" lon="13.6653525"><ele>80.0</ele><time>2026-04-29T13:51:32.113Z</time></trkpt><trkpt lat="37.2122403" lon="13.6653957"><ele>79.33333333333334</ele><time>2026-04-29T13:51:34.114Z</time></trkpt><trkpt lat="37.212348" lon="13.6654174"><ele>78.66666666666667</ele><time>2026-04-29T13:51:36.113Z</time></trkpt><trkpt lat="37.2124388" lon="13.6654625"><ele>78.0</ele><time>2026-04-29T13:51:38.113Z</time></trkpt><trkpt lat="37.212479" lon="13.6655392"><ele>77.33333333333333</ele><time>2026-04-29T13:51:40.113Z</time></trkpt><trkpt lat="37.2125327" lon="13.6655983"><ele>76.66666666666666</ele><time>2026-04-29T13:51:42.114Z</time></trkpt><trkpt lat="37.2125892" lon="13.6656356"><ele>76.0</ele><time>2026-04-29T13:51:44.113Z</time></trkpt><trkpt lat="37.2126942" lon="13.6656858"><ele>76.0</ele><time>2026-04-29T13:51:47.114Z</time></trkpt><trkpt lat="37.2127657" lon="13.6656882"><ele>76.0</ele><time>2026-04-29T13:51:49.115Z</time></trkpt><trkpt lat="37.2128384" lon="13.6656536"><ele>76.0</ele><time>2026-04-29T13:51:51.112Z</time></trkpt><trkpt lat="37.2129" lon="13.6656164"><ele>76.0</ele><time>2026-04-29T13:51:53.112Z</time></trkpt><trkpt lat="37.2129519" lon="13.6655519"><ele>76.0</ele><time>2026-04-29T13:51:56.112Z</time></trkpt><trkpt lat="37.212927" lon="13.665476"><ele>76.0</ele><time>2026-04-29T13:51:59.113Z</time></trkpt><trkpt lat="37.212907" lon="13.6655603"><ele>76.0</ele><time>2026-04-29T13:52:02.112Z</time></trkpt><trkpt lat="37.2129535" lon="13.6654953"><ele>76.0</ele><time>2026-04-29T13:52:11.113Z</time></trkpt></trkseg></trk></gpx>